<?xml version="1.0" encoding="UTF-8" standalone="no"?><gpx version="1.1" creator="Colorado 300" xmlns:xsi="http://www.w3.org/2001/XMLSchema-instance" xmlns="http://www.topografix.com/GPX/1/1"  xmlns:gpxtpx="http://www.garmin.com/xmlschemas/TrackPointExtension/v1" xmlns:gpxx="http://www.garmin.com/xmlschemas/GpxExtensions/v3" xsi:schemaLocation="http://www.topografix.com/GPX/1/1 http://www.topografix.com/GPX/1/1/gpx.xsd http://www.garmin.com/xmlschemas/GpxExtensions/v3 http://www.garmin.com/xmlschemas/GpxExtensionsv3.xsd http://www.garmin.com/xmlschemas/TrackPointExtension/v1 http://www.garmin.com/xmlschemas/TrackPointExtensionv1.xsd"> <author>Xisco Xavier Jaume</author> <email>xiscox@xmtb.es</email> <url>http://www.xmtb.es</url> <urlname>Xisco Mountain Bike</urlname><time>2009-09-12T12:39:03Z</time><trk><name>Cas Bergantet, es Cocons, Cas Garriguer, Comuna, Coll Pico, ses Clavegueres, es Freus, pas Estalo, es Rafals, cas Secretari, Torrent Coa Negra</name><trkseg><trkpt lat="39.660297" lon="2.769599"><ele>135.20</ele><time>2009-09-12T06:38:52Z</time></trkpt>
<trkpt lat="39.660297" lon="2.769599"><ele>135.20</ele><time>2009-09-12T06:38:53Z</time></trkpt>
<trkpt lat="39.660312" lon="2.769593"><ele>135.20</ele><time>2009-09-12T06:42:55Z</time></trkpt>
<trkpt lat="39.660312" lon="2.769606"><ele>135.20</ele><time>2009-09-12T06:43:07Z</time></trkpt>
<trkpt lat="39.660380" lon="2.769734"><ele>135.68</ele><time>2009-09-12T06:43:18Z</time></trkpt>
<trkpt lat="39.660434" lon="2.769830"><ele>135.68</ele><time>2009-09-12T06:43:24Z</time></trkpt>
<trkpt lat="39.660600" lon="2.769799"><ele>135.68</ele><time>2009-09-12T06:43:33Z</time></trkpt>
<trkpt lat="39.660754" lon="2.769704"><ele>136.16</ele><time>2009-09-12T06:43:43Z</time></trkpt>
<trkpt lat="39.660876" lon="2.769670"><ele>136.16</ele><time>2009-09-12T06:43:49Z</time></trkpt>
<trkpt lat="39.661182" lon="2.769592"><ele>136.64</ele><time>2009-09-12T06:44:00Z</time></trkpt>
<trkpt lat="39.661564" lon="2.769442"><ele>137.13</ele><time>2009-09-12T06:44:14Z</time></trkpt>
<trkpt lat="39.662020" lon="2.769268"><ele>137.61</ele><time>2009-09-12T06:44:29Z</time></trkpt>
<trkpt lat="39.662519" lon="2.769151"><ele>138.57</ele><time>2009-09-12T06:44:44Z</time></trkpt>
<trkpt lat="39.662877" lon="2.769046"><ele>139.53</ele><time>2009-09-12T06:44:56Z</time></trkpt>
<trkpt lat="39.663241" lon="2.768865"><ele>140.01</ele><time>2009-09-12T06:45:08Z</time></trkpt>
<trkpt lat="39.663671" lon="2.768718"><ele>140.97</ele><time>2009-09-12T06:45:22Z</time></trkpt>
<trkpt lat="39.664079" lon="2.768573"><ele>141.93</ele><time>2009-09-12T06:45:35Z</time></trkpt>
<trkpt lat="39.664532" lon="2.768351"><ele>142.89</ele><time>2009-09-12T06:45:49Z</time></trkpt>
<trkpt lat="39.664885" lon="2.768098"><ele>143.85</ele><time>2009-09-12T06:46:00Z</time></trkpt>
<trkpt lat="39.665268" lon="2.767813"><ele>144.34</ele><time>2009-09-12T06:46:12Z</time></trkpt>
<trkpt lat="39.665638" lon="2.767616"><ele>144.82</ele><time>2009-09-12T06:46:23Z</time></trkpt>
<trkpt lat="39.666145" lon="2.767344"><ele>145.78</ele><time>2009-09-12T06:46:37Z</time></trkpt>
<trkpt lat="39.666899" lon="2.766915"><ele>146.74</ele><time>2009-09-12T06:46:57Z</time></trkpt>
<trkpt lat="39.667415" lon="2.766572"><ele>147.70</ele><time>2009-09-12T06:47:11Z</time></trkpt>
<trkpt lat="39.667984" lon="2.766185"><ele>149.14</ele><time>2009-09-12T06:47:27Z</time></trkpt>
<trkpt lat="39.668337" lon="2.765951"><ele>150.10</ele><time>2009-09-12T06:47:37Z</time></trkpt>
<trkpt lat="39.668787" lon="2.765666"><ele>151.06</ele><time>2009-09-12T06:47:50Z</time></trkpt>
<trkpt lat="39.669283" lon="2.765349"><ele>152.99</ele><time>2009-09-12T06:48:04Z</time></trkpt>
<trkpt lat="39.669621" lon="2.765144"><ele>153.95</ele><time>2009-09-12T06:48:14Z</time></trkpt>
<trkpt lat="39.669851" lon="2.765156"><ele>154.43</ele><time>2009-09-12T06:48:20Z</time></trkpt>
<trkpt lat="39.670220" lon="2.765359"><ele>154.91</ele><time>2009-09-12T06:48:30Z</time></trkpt>
<trkpt lat="39.670459" lon="2.765476"><ele>154.43</ele><time>2009-09-12T06:48:36Z</time></trkpt>
<trkpt lat="39.670800" lon="2.765477"><ele>153.95</ele><time>2009-09-12T06:48:43Z</time></trkpt>
<trkpt lat="39.671378" lon="2.765380"><ele>153.95</ele><time>2009-09-12T06:48:56Z</time></trkpt>
<trkpt lat="39.671883" lon="2.765313"><ele>153.95</ele><time>2009-09-12T06:49:08Z</time></trkpt>
<trkpt lat="39.672389" lon="2.765263"><ele>154.43</ele><time>2009-09-12T06:49:21Z</time></trkpt>
<trkpt lat="39.672787" lon="2.765207"><ele>154.91</ele><time>2009-09-12T06:49:31Z</time></trkpt>
<trkpt lat="39.672871" lon="2.765179"><ele>154.91</ele><time>2009-09-12T06:49:33Z</time></trkpt>
<trkpt lat="39.672951" lon="2.765132"><ele>154.91</ele><time>2009-09-12T06:49:35Z</time></trkpt>
<trkpt lat="39.673227" lon="2.765094"><ele>154.43</ele><time>2009-09-12T06:49:42Z</time></trkpt>
<trkpt lat="39.673343" lon="2.765070"><ele>154.43</ele><time>2009-09-12T06:49:45Z</time></trkpt>
<trkpt lat="39.673623" lon="2.764841"><ele>154.43</ele><time>2009-09-12T06:49:53Z</time></trkpt>
<trkpt lat="39.673844" lon="2.764562"><ele>154.43</ele><time>2009-09-12T06:50:00Z</time></trkpt>
<trkpt lat="39.673996" lon="2.764449"><ele>154.91</ele><time>2009-09-12T06:50:04Z</time></trkpt>
<trkpt lat="39.674078" lon="2.764422"><ele>154.91</ele><time>2009-09-12T06:50:06Z</time></trkpt>
<trkpt lat="39.674604" lon="2.764337"><ele>154.91</ele><time>2009-09-12T06:50:18Z</time></trkpt>
<trkpt lat="39.675275" lon="2.764203"><ele>154.91</ele><time>2009-09-12T06:50:33Z</time></trkpt>
<trkpt lat="39.675883" lon="2.764074"><ele>154.91</ele><time>2009-09-12T06:50:47Z</time></trkpt>
<trkpt lat="39.676287" lon="2.764067"><ele>154.91</ele><time>2009-09-12T06:50:56Z</time></trkpt>
<trkpt lat="39.676713" lon="2.764009"><ele>154.91</ele><time>2009-09-12T06:51:05Z</time></trkpt>
<trkpt lat="39.676802" lon="2.763994"><ele>154.91</ele><time>2009-09-12T06:51:07Z</time></trkpt>
<trkpt lat="39.677339" lon="2.763782"><ele>154.91</ele><time>2009-09-12T06:51:20Z</time></trkpt>
<trkpt lat="39.677459" lon="2.763582"><ele>155.39</ele><time>2009-09-12T06:51:25Z</time></trkpt>
<trkpt lat="39.677474" lon="2.763370"><ele>155.39</ele><time>2009-09-12T06:51:29Z</time></trkpt>
<trkpt lat="39.677477" lon="2.763145"><ele>155.39</ele><time>2009-09-12T06:51:33Z</time></trkpt>
<trkpt lat="39.677532" lon="2.762701"><ele>156.35</ele><time>2009-09-12T06:51:42Z</time></trkpt>
<trkpt lat="39.677567" lon="2.762528"><ele>157.31</ele><time>2009-09-12T06:51:46Z</time></trkpt>
<trkpt lat="39.677487" lon="2.762318"><ele>157.79</ele><time>2009-09-12T06:51:51Z</time></trkpt>
<trkpt lat="39.677338" lon="2.762104"><ele>158.27</ele><time>2009-09-12T06:51:57Z</time></trkpt>
<trkpt lat="39.677122" lon="2.761682"><ele>159.24</ele><time>2009-09-12T06:52:06Z</time></trkpt>
<trkpt lat="39.676953" lon="2.761361"><ele>161.16</ele><time>2009-09-12T06:52:14Z</time></trkpt>
<trkpt lat="39.676809" lon="2.761079"><ele>163.08</ele><time>2009-09-12T06:52:22Z</time></trkpt>
<trkpt lat="39.676693" lon="2.760871"><ele>165.00</ele><time>2009-09-12T06:52:29Z</time></trkpt>
<trkpt lat="39.676520" lon="2.760616"><ele>166.45</ele><time>2009-09-12T06:52:38Z</time></trkpt>
<trkpt lat="39.676283" lon="2.760549"><ele>167.89</ele><time>2009-09-12T06:52:46Z</time></trkpt>
<trkpt lat="39.676059" lon="2.760412"><ele>168.37</ele><time>2009-09-12T06:52:54Z</time></trkpt>
<trkpt lat="39.675822" lon="2.760089"><ele>169.33</ele><time>2009-09-12T06:53:05Z</time></trkpt>
<trkpt lat="39.675678" lon="2.759849"><ele>171.73</ele><time>2009-09-12T06:53:13Z</time></trkpt>
<trkpt lat="39.675494" lon="2.759748"><ele>173.66</ele><time>2009-09-12T06:53:20Z</time></trkpt>
<trkpt lat="39.675319" lon="2.759685"><ele>175.58</ele><time>2009-09-12T06:53:27Z</time></trkpt>
<trkpt lat="39.675080" lon="2.759657"><ele>176.54</ele><time>2009-09-12T06:53:35Z</time></trkpt>
<trkpt lat="39.675060" lon="2.759660"><ele>176.54</ele><time>2009-09-12T06:53:36Z</time></trkpt>
<trkpt lat="39.674941" lon="2.759622"><ele>175.58</ele><time>2009-09-12T06:53:43Z</time></trkpt>
<trkpt lat="39.674848" lon="2.759480"><ele>175.10</ele><time>2009-09-12T06:53:49Z</time></trkpt>
<trkpt lat="39.674739" lon="2.759333"><ele>174.62</ele><time>2009-09-12T06:53:55Z</time></trkpt>
<trkpt lat="39.674710" lon="2.759275"><ele>174.62</ele><time>2009-09-12T06:53:57Z</time></trkpt>
<trkpt lat="39.674587" lon="2.759153"><ele>174.62</ele><time>2009-09-12T06:54:03Z</time></trkpt>
<trkpt lat="39.674570" lon="2.759109"><ele>174.62</ele><time>2009-09-12T06:54:05Z</time></trkpt>
<trkpt lat="39.674560" lon="2.759000"><ele>174.62</ele><time>2009-09-12T06:54:09Z</time></trkpt>
<trkpt lat="39.674577" lon="2.758756"><ele>175.10</ele><time>2009-09-12T06:54:17Z</time></trkpt>
<trkpt lat="39.674547" lon="2.758601"><ele>175.10</ele><time>2009-09-12T06:54:24Z</time></trkpt>
<trkpt lat="39.674543" lon="2.758590"><ele>175.10</ele><time>2009-09-12T06:54:45Z</time></trkpt>
<trkpt lat="39.674516" lon="2.758558"><ele>174.62</ele><time>2009-09-12T06:55:04Z</time></trkpt>
<trkpt lat="39.674487" lon="2.758530"><ele>173.66</ele><time>2009-09-12T06:55:14Z</time></trkpt>
<trkpt lat="39.674490" lon="2.758533"><ele>174.14</ele><time>2009-09-12T06:56:03Z</time></trkpt>
<trkpt lat="39.674373" lon="2.758496"><ele>173.66</ele><time>2009-09-12T06:56:09Z</time></trkpt>
<trkpt lat="39.674319" lon="2.758405"><ele>173.17</ele><time>2009-09-12T06:56:14Z</time></trkpt>
<trkpt lat="39.674239" lon="2.758250"><ele>172.21</ele><time>2009-09-12T06:56:22Z</time></trkpt>
<trkpt lat="39.674124" lon="2.758169"><ele>172.21</ele><time>2009-09-12T06:56:27Z</time></trkpt>
<trkpt lat="39.673982" lon="2.758119"><ele>171.73</ele><time>2009-09-12T06:56:30Z</time></trkpt>
<trkpt lat="39.673814" lon="2.758085"><ele>171.25</ele><time>2009-09-12T06:56:33Z</time></trkpt>
<trkpt lat="39.673712" lon="2.758022"><ele>171.25</ele><time>2009-09-12T06:56:35Z</time></trkpt>
<trkpt lat="39.673534" lon="2.757846"><ele>171.73</ele><time>2009-09-12T06:56:39Z</time></trkpt>
<trkpt lat="39.673388" lon="2.757694"><ele>171.73</ele><time>2009-09-12T06:56:43Z</time></trkpt>
<trkpt lat="39.673206" lon="2.757642"><ele>170.29</ele><time>2009-09-12T06:56:46Z</time></trkpt>
<trkpt lat="39.673078" lon="2.757666"><ele>168.85</ele><time>2009-09-12T06:56:48Z</time></trkpt>
<trkpt lat="39.672869" lon="2.757711"><ele>167.89</ele><time>2009-09-12T06:56:51Z</time></trkpt>
<trkpt lat="39.672668" lon="2.757593"><ele>165.48</ele><time>2009-09-12T06:56:55Z</time></trkpt>
<trkpt lat="39.672538" lon="2.757559"><ele>164.52</ele><time>2009-09-12T06:56:57Z</time></trkpt>
<trkpt lat="39.672346" lon="2.757586"><ele>163.56</ele><time>2009-09-12T06:57:00Z</time></trkpt>
<trkpt lat="39.672164" lon="2.757437"><ele>161.64</ele><time>2009-09-12T06:57:05Z</time></trkpt>
<trkpt lat="39.671990" lon="2.757107"><ele>160.20</ele><time>2009-09-12T06:57:09Z</time></trkpt>
<trkpt lat="39.671863" lon="2.756866"><ele>159.72</ele><time>2009-09-12T06:57:12Z</time></trkpt>
<trkpt lat="39.671373" lon="2.756357"><ele>158.75</ele><time>2009-09-12T06:57:20Z</time></trkpt>
<trkpt lat="39.671256" lon="2.756217"><ele>156.83</ele><time>2009-09-12T06:57:22Z</time></trkpt>
<trkpt lat="39.671047" lon="2.756019"><ele>155.87</ele><time>2009-09-12T06:57:25Z</time></trkpt>
<trkpt lat="39.670486" lon="2.755597"><ele>153.47</ele><time>2009-09-12T06:57:33Z</time></trkpt>
<trkpt lat="39.670237" lon="2.755488"><ele>151.54</ele><time>2009-09-12T06:57:37Z</time></trkpt>
<trkpt lat="39.670208" lon="2.755464"><ele>151.06</ele><time>2009-09-12T06:57:38Z</time></trkpt>
<trkpt lat="39.670229" lon="2.755329"><ele>151.06</ele><time>2009-09-12T06:57:42Z</time></trkpt>
<trkpt lat="39.670345" lon="2.755107"><ele>151.54</ele><time>2009-09-12T06:57:48Z</time></trkpt>
<trkpt lat="39.670450" lon="2.754946"><ele>152.03</ele><time>2009-09-12T06:57:52Z</time></trkpt>
<trkpt lat="39.670572" lon="2.754524"><ele>152.51</ele><time>2009-09-12T06:58:01Z</time></trkpt>
<trkpt lat="39.670627" lon="2.753999"><ele>153.47</ele><time>2009-09-12T06:58:12Z</time></trkpt>
<trkpt lat="39.670599" lon="2.753845"><ele>152.99</ele><time>2009-09-12T06:58:15Z</time></trkpt>
<trkpt lat="39.670539" lon="2.753630"><ele>152.99</ele><time>2009-09-12T06:58:19Z</time></trkpt>
<trkpt lat="39.670533" lon="2.753265"><ele>153.95</ele><time>2009-09-12T06:58:26Z</time></trkpt>
<trkpt lat="39.670428" lon="2.752994"><ele>153.95</ele><time>2009-09-12T06:58:32Z</time></trkpt>
<trkpt lat="39.670251" lon="2.752514"><ele>153.95</ele><time>2009-09-12T06:58:41Z</time></trkpt>
<trkpt lat="39.670134" lon="2.752049"><ele>153.95</ele><time>2009-09-12T06:58:50Z</time></trkpt>
<trkpt lat="39.670121" lon="2.751961"><ele>154.43</ele><time>2009-09-12T06:58:52Z</time></trkpt>
<trkpt lat="39.670291" lon="2.751746"><ele>155.39</ele><time>2009-09-12T06:58:59Z</time></trkpt>
<trkpt lat="39.670648" lon="2.751620"><ele>156.35</ele><time>2009-09-12T06:59:09Z</time></trkpt>
<trkpt lat="39.670993" lon="2.751463"><ele>157.79</ele><time>2009-09-12T06:59:19Z</time></trkpt>
<trkpt lat="39.671203" lon="2.751213"><ele>158.75</ele><time>2009-09-12T06:59:27Z</time></trkpt>
<trkpt lat="39.671423" lon="2.750898"><ele>159.72</ele><time>2009-09-12T06:59:36Z</time></trkpt>
<trkpt lat="39.671610" lon="2.750546"><ele>161.16</ele><time>2009-09-12T06:59:45Z</time></trkpt>
<trkpt lat="39.671749" lon="2.750348"><ele>161.64</ele><time>2009-09-12T06:59:51Z</time></trkpt>
<trkpt lat="39.671934" lon="2.750062"><ele>162.60</ele><time>2009-09-12T06:59:59Z</time></trkpt>
<trkpt lat="39.672186" lon="2.749790"><ele>163.56</ele><time>2009-09-12T07:00:08Z</time></trkpt>
<trkpt lat="39.672232" lon="2.749454"><ele>163.56</ele><time>2009-09-12T07:00:15Z</time></trkpt>
<trkpt lat="39.672234" lon="2.749351"><ele>163.56</ele><time>2009-09-12T07:00:17Z</time></trkpt>
<trkpt lat="39.672164" lon="2.749102"><ele>163.08</ele><time>2009-09-12T07:00:22Z</time></trkpt>
<trkpt lat="39.672107" lon="2.748995"><ele>162.60</ele><time>2009-09-12T07:00:24Z</time></trkpt>
<trkpt lat="39.672116" lon="2.748411"><ele>162.12</ele><time>2009-09-12T07:00:33Z</time></trkpt>
<trkpt lat="39.672135" lon="2.747862"><ele>163.08</ele><time>2009-09-12T07:00:43Z</time></trkpt>
<trkpt lat="39.672116" lon="2.747370"><ele>164.04</ele><time>2009-09-12T07:00:52Z</time></trkpt>
<trkpt lat="39.672239" lon="2.746739"><ele>165.00</ele><time>2009-09-12T07:01:04Z</time></trkpt>
<trkpt lat="39.672307" lon="2.746436"><ele>165.48</ele><time>2009-09-12T07:01:10Z</time></trkpt>
<trkpt lat="39.672338" lon="2.745980"><ele>165.48</ele><time>2009-09-12T07:01:18Z</time></trkpt>
<trkpt lat="39.672352" lon="2.745453"><ele>165.48</ele><time>2009-09-12T07:01:27Z</time></trkpt>
<trkpt lat="39.672357" lon="2.745340"><ele>165.48</ele><time>2009-09-12T07:01:29Z</time></trkpt>
<trkpt lat="39.672525" lon="2.744780"><ele>166.45</ele><time>2009-09-12T07:01:40Z</time></trkpt>
<trkpt lat="39.672690" lon="2.744265"><ele>166.93</ele><time>2009-09-12T07:01:50Z</time></trkpt>
<trkpt lat="39.672849" lon="2.743786"><ele>166.93</ele><time>2009-09-12T07:02:00Z</time></trkpt>
<trkpt lat="39.672898" lon="2.743624"><ele>166.45</ele><time>2009-09-12T07:02:06Z</time></trkpt>
<trkpt lat="39.672911" lon="2.743608"><ele>166.93</ele><time>2009-09-12T07:02:19Z</time></trkpt>
<trkpt lat="39.672927" lon="2.743586"><ele>166.45</ele><time>2009-09-12T07:02:55Z</time></trkpt>
<trkpt lat="39.672927" lon="2.743579"><ele>166.45</ele><time>2009-09-12T07:03:27Z</time></trkpt>
<trkpt lat="39.672999" lon="2.743416"><ele>166.45</ele><time>2009-09-12T07:03:35Z</time></trkpt>
<trkpt lat="39.673177" lon="2.743109"><ele>166.93</ele><time>2009-09-12T07:03:46Z</time></trkpt>
<trkpt lat="39.673417" lon="2.742897"><ele>166.45</ele><time>2009-09-12T07:03:54Z</time></trkpt>
<trkpt lat="39.673697" lon="2.742567"><ele>167.41</ele><time>2009-09-12T07:04:04Z</time></trkpt>
<trkpt lat="39.673734" lon="2.742285"><ele>167.41</ele><time>2009-09-12T07:04:10Z</time></trkpt>
<trkpt lat="39.673778" lon="2.741842"><ele>167.89</ele><time>2009-09-12T07:04:19Z</time></trkpt>
<trkpt lat="39.673943" lon="2.741518"><ele>169.33</ele><time>2009-09-12T07:04:27Z</time></trkpt>
<trkpt lat="39.674148" lon="2.741204"><ele>170.77</ele><time>2009-09-12T07:04:36Z</time></trkpt>
<trkpt lat="39.674283" lon="2.740938"><ele>171.73</ele><time>2009-09-12T07:04:43Z</time></trkpt>
<trkpt lat="39.674542" lon="2.740859"><ele>173.66</ele><time>2009-09-12T07:04:51Z</time></trkpt>
<trkpt lat="39.674762" lon="2.740799"><ele>174.62</ele><time>2009-09-12T07:04:58Z</time></trkpt>
<trkpt lat="39.674986" lon="2.740575"><ele>176.54</ele><time>2009-09-12T07:05:08Z</time></trkpt>
<trkpt lat="39.675222" lon="2.740410"><ele>177.98</ele><time>2009-09-12T07:05:17Z</time></trkpt>
<trkpt lat="39.675452" lon="2.740256"><ele>180.38</ele><time>2009-09-12T07:05:26Z</time></trkpt>
<trkpt lat="39.675648" lon="2.740132"><ele>181.83</ele><time>2009-09-12T07:05:34Z</time></trkpt>
<trkpt lat="39.675852" lon="2.740015"><ele>183.75</ele><time>2009-09-12T07:05:43Z</time></trkpt>
<trkpt lat="39.676087" lon="2.739961"><ele>186.15</ele><time>2009-09-12T07:05:52Z</time></trkpt>
<trkpt lat="39.676234" lon="2.739900"><ele>187.59</ele><time>2009-09-12T07:05:59Z</time></trkpt>
<trkpt lat="39.676398" lon="2.739840"><ele>188.56</ele><time>2009-09-12T07:06:06Z</time></trkpt>
<trkpt lat="39.676639" lon="2.739746"><ele>190.00</ele><time>2009-09-12T07:06:15Z</time></trkpt>
<trkpt lat="39.676876" lon="2.739642"><ele>191.44</ele><time>2009-09-12T07:06:25Z</time></trkpt>
<trkpt lat="39.677064" lon="2.739454"><ele>191.92</ele><time>2009-09-12T07:06:32Z</time></trkpt>
<trkpt lat="39.677205" lon="2.739220"><ele>192.40</ele><time>2009-09-12T07:06:40Z</time></trkpt>
<trkpt lat="39.677319" lon="2.738952"><ele>193.84</ele><time>2009-09-12T07:06:48Z</time></trkpt>
<trkpt lat="39.677468" lon="2.738780"><ele>195.28</ele><time>2009-09-12T07:06:55Z</time></trkpt>
<trkpt lat="39.677681" lon="2.738558"><ele>197.21</ele><time>2009-09-12T07:07:05Z</time></trkpt>
<trkpt lat="39.677821" lon="2.738378"><ele>198.65</ele><time>2009-09-12T07:07:13Z</time></trkpt>
<trkpt lat="39.677999" lon="2.738095"><ele>201.53</ele><time>2009-09-12T07:07:24Z</time></trkpt>
<trkpt lat="39.678093" lon="2.737999"><ele>202.49</ele><time>2009-09-12T07:07:29Z</time></trkpt>
<trkpt lat="39.678071" lon="2.737876"><ele>202.98</ele><time>2009-09-12T07:07:34Z</time></trkpt>
<trkpt lat="39.678047" lon="2.737864"><ele>202.98</ele><time>2009-09-12T07:07:35Z</time></trkpt>
<trkpt lat="39.677786" lon="2.737985"><ele>203.46</ele><time>2009-09-12T07:07:45Z</time></trkpt>
<trkpt lat="39.677537" lon="2.738132"><ele>204.42</ele><time>2009-09-12T07:07:54Z</time></trkpt>
<trkpt lat="39.677237" lon="2.738207"><ele>204.90</ele><time>2009-09-12T07:08:03Z</time></trkpt>
<trkpt lat="39.677043" lon="2.738066"><ele>205.38</ele><time>2009-09-12T07:08:10Z</time></trkpt>
<trkpt lat="39.676950" lon="2.737815"><ele>205.86</ele><time>2009-09-12T07:08:16Z</time></trkpt>
<trkpt lat="39.676875" lon="2.737594"><ele>206.82</ele><time>2009-09-12T07:08:22Z</time></trkpt>
<trkpt lat="39.676701" lon="2.737405"><ele>208.26</ele><time>2009-09-12T07:08:29Z</time></trkpt>
<trkpt lat="39.676557" lon="2.737253"><ele>209.70</ele><time>2009-09-12T07:08:36Z</time></trkpt>
<trkpt lat="39.676435" lon="2.737007"><ele>211.63</ele><time>2009-09-12T07:08:45Z</time></trkpt>
<trkpt lat="39.676371" lon="2.736755"><ele>213.55</ele><time>2009-09-12T07:08:53Z</time></trkpt>
<trkpt lat="39.676343" lon="2.736437"><ele>215.95</ele><time>2009-09-12T07:09:04Z</time></trkpt>
<trkpt lat="39.676337" lon="2.736188"><ele>218.36</ele><time>2009-09-12T07:09:13Z</time></trkpt>
<trkpt lat="39.676319" lon="2.735923"><ele>220.76</ele><time>2009-09-12T07:09:23Z</time></trkpt>
<trkpt lat="39.676316" lon="2.735679"><ele>222.68</ele><time>2009-09-12T07:09:33Z</time></trkpt>
<trkpt lat="39.676390" lon="2.735453"><ele>225.09</ele><time>2009-09-12T07:09:44Z</time></trkpt>
<trkpt lat="39.676513" lon="2.735299"><ele>227.49</ele><time>2009-09-12T07:09:54Z</time></trkpt>
<trkpt lat="39.676602" lon="2.735257"><ele>228.45</ele><time>2009-09-12T07:10:00Z</time></trkpt>
<trkpt lat="39.676717" lon="2.735219"><ele>230.85</ele><time>2009-09-12T07:10:10Z</time></trkpt>
<trkpt lat="39.676895" lon="2.735216"><ele>233.26</ele><time>2009-09-12T07:10:23Z</time></trkpt>
<trkpt lat="39.677013" lon="2.735209"><ele>235.66</ele><time>2009-09-12T07:10:33Z</time></trkpt>
<trkpt lat="39.677083" lon="2.735243"><ele>236.62</ele><time>2009-09-12T07:10:38Z</time></trkpt>
<trkpt lat="39.677201" lon="2.735240"><ele>238.06</ele><time>2009-09-12T07:10:47Z</time></trkpt>
<trkpt lat="39.677407" lon="2.735248"><ele>240.95</ele><time>2009-09-12T07:11:01Z</time></trkpt>
<trkpt lat="39.677629" lon="2.735253"><ele>242.87</ele><time>2009-09-12T07:11:14Z</time></trkpt>
<trkpt lat="39.677834" lon="2.735236"><ele>245.27</ele><time>2009-09-12T07:11:27Z</time></trkpt>
<trkpt lat="39.678006" lon="2.735180"><ele>246.23</ele><time>2009-09-12T07:11:37Z</time></trkpt>
<trkpt lat="39.678245" lon="2.735090"><ele>247.68</ele><time>2009-09-12T07:11:47Z</time></trkpt>
<trkpt lat="39.678479" lon="2.735018"><ele>249.60</ele><time>2009-09-12T07:11:57Z</time></trkpt>
<trkpt lat="39.678751" lon="2.734927"><ele>251.04</ele><time>2009-09-12T07:12:08Z</time></trkpt>
<trkpt lat="39.679029" lon="2.734905"><ele>252.00</ele><time>2009-09-12T07:12:17Z</time></trkpt>
<trkpt lat="39.679231" lon="2.734889"><ele>252.48</ele><time>2009-09-12T07:12:23Z</time></trkpt>
<trkpt lat="39.679423" lon="2.734884"><ele>252.96</ele><time>2009-09-12T07:12:29Z</time></trkpt>
<trkpt lat="39.679625" lon="2.734843"><ele>252.96</ele><time>2009-09-12T07:12:34Z</time></trkpt>
<trkpt lat="39.679877" lon="2.734715"><ele>252.48</ele><time>2009-09-12T07:12:40Z</time></trkpt>
<trkpt lat="39.680055" lon="2.734655"><ele>252.48</ele><time>2009-09-12T07:12:44Z</time></trkpt>
<trkpt lat="39.680435" lon="2.734671"><ele>252.48</ele><time>2009-09-12T07:12:53Z</time></trkpt>
<trkpt lat="39.680610" lon="2.734756"><ele>252.00</ele><time>2009-09-12T07:12:57Z</time></trkpt>
<trkpt lat="39.680901" lon="2.734719"><ele>251.52</ele><time>2009-09-12T07:13:03Z</time></trkpt>
<trkpt lat="39.681125" lon="2.734653"><ele>250.56</ele><time>2009-09-12T07:13:07Z</time></trkpt>
<trkpt lat="39.681699" lon="2.734643"><ele>247.68</ele><time>2009-09-12T07:13:17Z</time></trkpt>
<trkpt lat="39.681955" lon="2.734637"><ele>247.68</ele><time>2009-09-12T07:13:22Z</time></trkpt>
<trkpt lat="39.682266" lon="2.734608"><ele>247.68</ele><time>2009-09-12T07:13:27Z</time></trkpt>
<trkpt lat="39.682423" lon="2.734699"><ele>248.64</ele><time>2009-09-12T07:13:31Z</time></trkpt>
<trkpt lat="39.682554" lon="2.734930"><ele>250.08</ele><time>2009-09-12T07:13:38Z</time></trkpt>
<trkpt lat="39.682671" lon="2.734853"><ele>249.60</ele><time>2009-09-12T07:13:43Z</time></trkpt>
<trkpt lat="39.682728" lon="2.734661"><ele>250.08</ele><time>2009-09-12T07:13:47Z</time></trkpt>
<trkpt lat="39.682843" lon="2.734420"><ele>250.08</ele><time>2009-09-12T07:13:53Z</time></trkpt>
<trkpt lat="39.683024" lon="2.734238"><ele>251.52</ele><time>2009-09-12T07:14:00Z</time></trkpt>
<trkpt lat="39.683186" lon="2.734161"><ele>253.44</ele><time>2009-09-12T07:14:07Z</time></trkpt>
<trkpt lat="39.683386" lon="2.734115"><ele>254.89</ele><time>2009-09-12T07:14:13Z</time></trkpt>
<trkpt lat="39.683633" lon="2.734053"><ele>255.85</ele><time>2009-09-12T07:14:21Z</time></trkpt>
<trkpt lat="39.683794" lon="2.734084"><ele>255.85</ele><time>2009-09-12T07:14:28Z</time></trkpt>
<trkpt lat="39.684020" lon="2.734193"><ele>254.89</ele><time>2009-09-12T07:14:36Z</time></trkpt>
<trkpt lat="39.684085" lon="2.734226"><ele>253.44</ele><time>2009-09-12T07:14:42Z</time></trkpt>
<trkpt lat="39.684142" lon="2.734247"><ele>251.52</ele><time>2009-09-12T07:14:46Z</time></trkpt>
<trkpt lat="39.684189" lon="2.734158"><ele>248.64</ele><time>2009-09-12T07:14:51Z</time></trkpt>
<trkpt lat="39.684105" lon="2.733984"><ele>247.20</ele><time>2009-09-12T07:14:57Z</time></trkpt>
<trkpt lat="39.684096" lon="2.733956"><ele>247.20</ele><time>2009-09-12T07:15:03Z</time></trkpt>
<trkpt lat="39.684089" lon="2.733900"><ele>247.20</ele><time>2009-09-12T07:15:25Z</time></trkpt>
<trkpt lat="39.684084" lon="2.733869"><ele>247.20</ele><time>2009-09-12T07:15:38Z</time></trkpt>
<trkpt lat="39.684083" lon="2.733832"><ele>247.20</ele><time>2009-09-12T07:15:45Z</time></trkpt>
<trkpt lat="39.684052" lon="2.733799"><ele>246.72</ele><time>2009-09-12T07:15:58Z</time></trkpt>
<trkpt lat="39.684007" lon="2.733692"><ele>245.27</ele><time>2009-09-12T07:16:50Z</time></trkpt>
<trkpt lat="39.683923" lon="2.733585"><ele>244.31</ele><time>2009-09-12T07:16:52Z</time></trkpt>
<trkpt lat="39.683775" lon="2.733458"><ele>242.87</ele><time>2009-09-12T07:16:55Z</time></trkpt>
<trkpt lat="39.683638" lon="2.733332"><ele>242.87</ele><time>2009-09-12T07:17:00Z</time></trkpt>
<trkpt lat="39.683650" lon="2.733293"><ele>242.87</ele><time>2009-09-12T07:17:04Z</time></trkpt>
<trkpt lat="39.683733" lon="2.733239"><ele>242.87</ele><time>2009-09-12T07:17:10Z</time></trkpt>
<trkpt lat="39.683990" lon="2.733108"><ele>244.79</ele><time>2009-09-12T07:17:21Z</time></trkpt>
<trkpt lat="39.684208" lon="2.733017"><ele>246.72</ele><time>2009-09-12T07:17:32Z</time></trkpt>
<trkpt lat="39.684341" lon="2.732957"><ele>249.12</ele><time>2009-09-12T07:17:40Z</time></trkpt>
<trkpt lat="39.684588" lon="2.732821"><ele>250.08</ele><time>2009-09-12T07:17:52Z</time></trkpt>
<trkpt lat="39.684818" lon="2.732672"><ele>250.08</ele><time>2009-09-12T07:18:01Z</time></trkpt>
<trkpt lat="39.684946" lon="2.732538"><ele>250.56</ele><time>2009-09-12T07:18:08Z</time></trkpt>
<trkpt lat="39.685100" lon="2.732283"><ele>252.00</ele><time>2009-09-12T07:18:18Z</time></trkpt>
<trkpt lat="39.685247" lon="2.732036"><ele>254.41</ele><time>2009-09-12T07:18:28Z</time></trkpt>
<trkpt lat="39.685306" lon="2.731969"><ele>254.89</ele><time>2009-09-12T07:18:31Z</time></trkpt>
<trkpt lat="39.685498" lon="2.731849"><ele>256.81</ele><time>2009-09-12T07:18:41Z</time></trkpt>
<trkpt lat="39.685700" lon="2.731808"><ele>258.73</ele><time>2009-09-12T07:18:50Z</time></trkpt>
<trkpt lat="39.685836" lon="2.731743"><ele>259.69</ele><time>2009-09-12T07:18:57Z</time></trkpt>
<trkpt lat="39.685984" lon="2.731618"><ele>261.14</ele><time>2009-09-12T07:19:05Z</time></trkpt>
<trkpt lat="39.686119" lon="2.731405"><ele>263.54</ele><time>2009-09-12T07:19:16Z</time></trkpt>
<trkpt lat="39.686249" lon="2.731275"><ele>265.94</ele><time>2009-09-12T07:19:25Z</time></trkpt>
<trkpt lat="39.686429" lon="2.731161"><ele>268.35</ele><time>2009-09-12T07:19:36Z</time></trkpt>
<trkpt lat="39.686593" lon="2.731074"><ele>271.23</ele><time>2009-09-12T07:19:47Z</time></trkpt>
<trkpt lat="39.686623" lon="2.731055"><ele>271.23</ele><time>2009-09-12T07:19:49Z</time></trkpt>
<trkpt lat="39.686712" lon="2.730970"><ele>273.15</ele><time>2009-09-12T07:19:57Z</time></trkpt>
<trkpt lat="39.686741" lon="2.730961"><ele>273.63</ele><time>2009-09-12T07:19:59Z</time></trkpt>
<trkpt lat="39.686903" lon="2.730803"><ele>276.04</ele><time>2009-09-12T07:20:12Z</time></trkpt>
<trkpt lat="39.687046" lon="2.730716"><ele>277.48</ele><time>2009-09-12T07:20:19Z</time></trkpt>
<trkpt lat="39.687208" lon="2.730635"><ele>278.44</ele><time>2009-09-12T07:20:27Z</time></trkpt>
<trkpt lat="39.687327" lon="2.730597"><ele>279.88</ele><time>2009-09-12T07:20:35Z</time></trkpt>
<trkpt lat="39.687395" lon="2.730611"><ele>280.84</ele><time>2009-09-12T07:20:40Z</time></trkpt>
<trkpt lat="39.687472" lon="2.730604"><ele>281.80</ele><time>2009-09-12T07:20:44Z</time></trkpt>
<trkpt lat="39.687587" lon="2.730655"><ele>284.21</ele><time>2009-09-12T07:20:54Z</time></trkpt>
<trkpt lat="39.687733" lon="2.730678"><ele>287.09</ele><time>2009-09-12T07:21:07Z</time></trkpt>
<trkpt lat="39.687851" lon="2.730714"><ele>288.53</ele><time>2009-09-12T07:21:15Z</time></trkpt>
<trkpt lat="39.688011" lon="2.730739"><ele>289.49</ele><time>2009-09-12T07:21:25Z</time></trkpt>
<trkpt lat="39.688121" lon="2.730761"><ele>290.46</ele><time>2009-09-12T07:21:32Z</time></trkpt>
<trkpt lat="39.688215" lon="2.730828"><ele>291.90</ele><time>2009-09-12T07:21:41Z</time></trkpt>
<trkpt lat="39.688317" lon="2.730901"><ele>294.30</ele><time>2009-09-12T07:21:54Z</time></trkpt>
<trkpt lat="39.688461" lon="2.730958"><ele>296.22</ele><time>2009-09-12T07:22:05Z</time></trkpt>
<trkpt lat="39.688756" lon="2.730922"><ele>297.67</ele><time>2009-09-12T07:22:14Z</time></trkpt>
<trkpt lat="39.688865" lon="2.730899"><ele>298.63</ele><time>2009-09-12T07:22:21Z</time></trkpt>
<trkpt lat="39.688996" lon="2.730891"><ele>301.03</ele><time>2009-09-12T07:22:32Z</time></trkpt>
<trkpt lat="39.689098" lon="2.730862"><ele>303.43</ele><time>2009-09-12T07:22:41Z</time></trkpt>
<trkpt lat="39.689176" lon="2.730848"><ele>304.39</ele><time>2009-09-12T07:22:47Z</time></trkpt>
<trkpt lat="39.689270" lon="2.730827"><ele>306.80</ele><time>2009-09-12T07:22:55Z</time></trkpt>
<trkpt lat="39.689427" lon="2.730787"><ele>309.20</ele><time>2009-09-12T07:23:05Z</time></trkpt>
<trkpt lat="39.689534" lon="2.730808"><ele>311.60</ele><time>2009-09-12T07:23:17Z</time></trkpt>
<trkpt lat="39.689561" lon="2.730814"><ele>312.09</ele><time>2009-09-12T07:23:20Z</time></trkpt>
<trkpt lat="39.689704" lon="2.730845"><ele>314.01</ele><time>2009-09-12T07:23:30Z</time></trkpt>
<trkpt lat="39.689791" lon="2.730911"><ele>315.93</ele><time>2009-09-12T07:23:41Z</time></trkpt>
<trkpt lat="39.689893" lon="2.730907"><ele>317.37</ele><time>2009-09-12T07:23:49Z</time></trkpt>
<trkpt lat="39.689985" lon="2.730903"><ele>319.78</ele><time>2009-09-12T07:23:58Z</time></trkpt>
<trkpt lat="39.690087" lon="2.730897"><ele>322.18</ele><time>2009-09-12T07:24:08Z</time></trkpt>
<trkpt lat="39.690152" lon="2.730954"><ele>324.58</ele><time>2009-09-12T07:24:18Z</time></trkpt>
<trkpt lat="39.690256" lon="2.730953"><ele>326.02</ele><time>2009-09-12T07:24:27Z</time></trkpt>
<trkpt lat="39.690375" lon="2.730921"><ele>327.47</ele><time>2009-09-12T07:24:37Z</time></trkpt>
<trkpt lat="39.690421" lon="2.730908"><ele>329.39</ele><time>2009-09-12T07:24:44Z</time></trkpt>
<trkpt lat="39.690496" lon="2.730881"><ele>331.31</ele><time>2009-09-12T07:24:54Z</time></trkpt>
<trkpt lat="39.690547" lon="2.730841"><ele>332.75</ele><time>2009-09-12T07:25:02Z</time></trkpt>
<trkpt lat="39.690591" lon="2.730797"><ele>334.20</ele><time>2009-09-12T07:25:09Z</time></trkpt>
<trkpt lat="39.690641" lon="2.730740"><ele>336.12</ele><time>2009-09-12T07:25:16Z</time></trkpt>
<trkpt lat="39.690648" lon="2.730739"><ele>336.12</ele><time>2009-09-12T07:25:17Z</time></trkpt>
<trkpt lat="39.690682" lon="2.730707"><ele>337.08</ele><time>2009-09-12T07:25:22Z</time></trkpt>
<trkpt lat="39.690775" lon="2.730606"><ele>339.48</ele><time>2009-09-12T07:25:32Z</time></trkpt>
<trkpt lat="39.690816" lon="2.730578"><ele>340.44</ele><time>2009-09-12T07:25:36Z</time></trkpt>
<trkpt lat="39.690926" lon="2.730429"><ele>343.81</ele><time>2009-09-12T07:25:51Z</time></trkpt>
<trkpt lat="39.690949" lon="2.730394"><ele>344.29</ele><time>2009-09-12T07:25:54Z</time></trkpt>
<trkpt lat="39.691006" lon="2.730306"><ele>345.73</ele><time>2009-09-12T07:26:03Z</time></trkpt>
<trkpt lat="39.691048" lon="2.730231"><ele>346.69</ele><time>2009-09-12T07:26:10Z</time></trkpt>
<trkpt lat="39.691095" lon="2.730148"><ele>347.65</ele><time>2009-09-12T07:26:16Z</time></trkpt>
<trkpt lat="39.691142" lon="2.730033"><ele>349.10</ele><time>2009-09-12T07:26:25Z</time></trkpt>
<trkpt lat="39.691159" lon="2.730010"><ele>349.58</ele><time>2009-09-12T07:26:28Z</time></trkpt>
<trkpt lat="39.691204" lon="2.729970"><ele>350.54</ele><time>2009-09-12T07:26:32Z</time></trkpt>
<trkpt lat="39.691208" lon="2.729931"><ele>351.02</ele><time>2009-09-12T07:26:35Z</time></trkpt>
<trkpt lat="39.691178" lon="2.729854"><ele>352.46</ele><time>2009-09-12T07:26:42Z</time></trkpt>
<trkpt lat="39.691172" lon="2.729845"><ele>352.94</ele><time>2009-09-12T07:26:43Z</time></trkpt>
<trkpt lat="39.691091" lon="2.729808"><ele>354.86</ele><time>2009-09-12T07:26:51Z</time></trkpt>
<trkpt lat="39.690988" lon="2.729782"><ele>356.31</ele><time>2009-09-12T07:27:01Z</time></trkpt>
<trkpt lat="39.690971" lon="2.729791"><ele>356.31</ele><time>2009-09-12T07:27:03Z</time></trkpt>
<trkpt lat="39.690917" lon="2.729812"><ele>356.79</ele><time>2009-09-12T07:27:13Z</time></trkpt>
<trkpt lat="39.690784" lon="2.729791"><ele>357.27</ele><time>2009-09-12T07:28:30Z</time></trkpt>
<trkpt lat="39.690559" lon="2.729985"><ele>356.79</ele><time>2009-09-12T07:28:41Z</time></trkpt>
<trkpt lat="39.690496" lon="2.730040"><ele>355.83</ele><time>2009-09-12T07:28:43Z</time></trkpt>
<trkpt lat="39.690254" lon="2.729972"><ele>353.42</ele><time>2009-09-12T07:28:48Z</time></trkpt>
<trkpt lat="39.690159" lon="2.729890"><ele>352.94</ele><time>2009-09-12T07:28:50Z</time></trkpt>
<trkpt lat="39.690063" lon="2.729794"><ele>352.46</ele><time>2009-09-12T07:28:52Z</time></trkpt>
<trkpt lat="39.689814" lon="2.729629"><ele>354.38</ele><time>2009-09-12T07:28:58Z</time></trkpt>
<trkpt lat="39.689782" lon="2.729605"><ele>354.38</ele><time>2009-09-12T07:28:59Z</time></trkpt>
<trkpt lat="39.689646" lon="2.729525"><ele>353.90</ele><time>2009-09-12T07:29:02Z</time></trkpt>
<trkpt lat="39.689262" lon="2.729231"><ele>352.46</ele><time>2009-09-12T07:29:09Z</time></trkpt>
<trkpt lat="39.689207" lon="2.729190"><ele>351.98</ele><time>2009-09-12T07:29:10Z</time></trkpt>
<trkpt lat="39.689006" lon="2.729129"><ele>351.50</ele><time>2009-09-12T07:29:15Z</time></trkpt>
<trkpt lat="39.688975" lon="2.729104"><ele>351.50</ele><time>2009-09-12T07:29:19Z</time></trkpt>
<trkpt lat="39.688954" lon="2.729099"><ele>351.50</ele><time>2009-09-12T07:29:31Z</time></trkpt>
<trkpt lat="39.688933" lon="2.729083"><ele>351.50</ele><time>2009-09-12T07:29:38Z</time></trkpt>
<trkpt lat="39.688881" lon="2.729037"><ele>351.50</ele><time>2009-09-12T07:29:46Z</time></trkpt>
<trkpt lat="39.688748" lon="2.728892"><ele>353.42</ele><time>2009-09-12T07:29:54Z</time></trkpt>
<trkpt lat="39.688601" lon="2.728754"><ele>356.31</ele><time>2009-09-12T07:30:04Z</time></trkpt>
<trkpt lat="39.688584" lon="2.728665"><ele>357.75</ele><time>2009-09-12T07:30:11Z</time></trkpt>
<trkpt lat="39.688587" lon="2.728653"><ele>357.75</ele><time>2009-09-12T07:30:21Z</time></trkpt>
<trkpt lat="39.688573" lon="2.728634"><ele>358.71</ele><time>2009-09-12T07:31:10Z</time></trkpt>
<trkpt lat="39.688544" lon="2.728642"><ele>359.19</ele><time>2009-09-12T07:31:26Z</time></trkpt>
<trkpt lat="39.688526" lon="2.728642"><ele>359.19</ele><time>2009-09-12T07:31:35Z</time></trkpt>
<trkpt lat="39.688524" lon="2.728641"><ele>359.19</ele><time>2009-09-12T07:31:38Z</time></trkpt>
<trkpt lat="39.688453" lon="2.728588"><ele>359.19</ele><time>2009-09-12T07:31:46Z</time></trkpt>
<trkpt lat="39.688447" lon="2.728572"><ele>359.19</ele><time>2009-09-12T07:31:54Z</time></trkpt>
<trkpt lat="39.688456" lon="2.728498"><ele>359.19</ele><time>2009-09-12T07:31:59Z</time></trkpt>
<trkpt lat="39.688404" lon="2.728263"><ele>359.19</ele><time>2009-09-12T07:32:07Z</time></trkpt>
<trkpt lat="39.688302" lon="2.728023"><ele>358.71</ele><time>2009-09-12T07:32:12Z</time></trkpt>
<trkpt lat="39.688280" lon="2.727956"><ele>358.71</ele><time>2009-09-12T07:32:13Z</time></trkpt>
<trkpt lat="39.688163" lon="2.727597"><ele>358.71</ele><time>2009-09-12T07:32:20Z</time></trkpt>
<trkpt lat="39.688106" lon="2.727502"><ele>358.23</ele><time>2009-09-12T07:32:25Z</time></trkpt>
<trkpt lat="39.688053" lon="2.727432"><ele>357.75</ele><time>2009-09-12T07:32:36Z</time></trkpt>
<trkpt lat="39.688027" lon="2.727415"><ele>357.75</ele><time>2009-09-12T07:32:43Z</time></trkpt>
<trkpt lat="39.687948" lon="2.727326"><ele>356.79</ele><time>2009-09-12T07:32:54Z</time></trkpt>
<trkpt lat="39.687840" lon="2.727165"><ele>355.34</ele><time>2009-09-12T07:33:00Z</time></trkpt>
<trkpt lat="39.687743" lon="2.727134"><ele>353.90</ele><time>2009-09-12T07:33:03Z</time></trkpt>
<trkpt lat="39.687443" lon="2.727194"><ele>349.58</ele><time>2009-09-12T07:33:08Z</time></trkpt>
<trkpt lat="39.687170" lon="2.727097"><ele>347.17</ele><time>2009-09-12T07:33:13Z</time></trkpt>
<trkpt lat="39.687124" lon="2.727026"><ele>347.17</ele><time>2009-09-12T07:33:15Z</time></trkpt>
<trkpt lat="39.686922" lon="2.726981"><ele>347.17</ele><time>2009-09-12T07:33:21Z</time></trkpt>
<trkpt lat="39.686750" lon="2.726952"><ele>348.13</ele><time>2009-09-12T07:33:26Z</time></trkpt>
<trkpt lat="39.686659" lon="2.726966"><ele>348.62</ele><time>2009-09-12T07:33:29Z</time></trkpt>
<trkpt lat="39.686472" lon="2.726896"><ele>351.02</ele><time>2009-09-12T07:33:36Z</time></trkpt>
<trkpt lat="39.686348" lon="2.726906"><ele>352.46</ele><time>2009-09-12T07:33:41Z</time></trkpt>
<trkpt lat="39.686132" lon="2.726866"><ele>355.34</ele><time>2009-09-12T07:33:50Z</time></trkpt>
<trkpt lat="39.685949" lon="2.726853"><ele>357.27</ele><time>2009-09-12T07:33:58Z</time></trkpt>
<trkpt lat="39.685703" lon="2.726824"><ele>359.67</ele><time>2009-09-12T07:34:09Z</time></trkpt>
<trkpt lat="39.685550" lon="2.726724"><ele>360.15</ele><time>2009-09-12T07:34:17Z</time></trkpt>
<trkpt lat="39.685491" lon="2.726629"><ele>360.15</ele><time>2009-09-12T07:34:21Z</time></trkpt>
<trkpt lat="39.685383" lon="2.726609"><ele>360.15</ele><time>2009-09-12T07:34:26Z</time></trkpt>
<trkpt lat="39.685269" lon="2.726644"><ele>359.19</ele><time>2009-09-12T07:34:30Z</time></trkpt>
<trkpt lat="39.685089" lon="2.726579"><ele>357.27</ele><time>2009-09-12T07:34:34Z</time></trkpt>
<trkpt lat="39.684992" lon="2.726548"><ele>356.31</ele><time>2009-09-12T07:34:36Z</time></trkpt>
<trkpt lat="39.684817" lon="2.726623"><ele>354.86</ele><time>2009-09-12T07:34:39Z</time></trkpt>
<trkpt lat="39.684676" lon="2.726716"><ele>353.42</ele><time>2009-09-12T07:34:42Z</time></trkpt>
<trkpt lat="39.684593" lon="2.726729"><ele>352.46</ele><time>2009-09-12T07:34:44Z</time></trkpt>
<trkpt lat="39.684397" lon="2.726570"><ele>351.02</ele><time>2009-09-12T07:34:50Z</time></trkpt>
<trkpt lat="39.684413" lon="2.726510"><ele>351.02</ele><time>2009-09-12T07:34:58Z</time></trkpt>
<trkpt lat="39.684428" lon="2.726515"><ele>351.02</ele><time>2009-09-12T07:35:08Z</time></trkpt>
<trkpt lat="39.684432" lon="2.726467"><ele>350.54</ele><time>2009-09-12T07:35:47Z</time></trkpt>
<trkpt lat="39.684409" lon="2.726341"><ele>350.06</ele><time>2009-09-12T07:35:52Z</time></trkpt>
<trkpt lat="39.684460" lon="2.726264"><ele>348.62</ele><time>2009-09-12T07:35:56Z</time></trkpt>
<trkpt lat="39.684662" lon="2.726172"><ele>346.21</ele><time>2009-09-12T07:36:03Z</time></trkpt>
<trkpt lat="39.684780" lon="2.726104"><ele>344.77</ele><time>2009-09-12T07:36:06Z</time></trkpt>
<trkpt lat="39.684960" lon="2.725852"><ele>340.44</ele><time>2009-09-12T07:36:12Z</time></trkpt>
<trkpt lat="39.685044" lon="2.725720"><ele>337.08</ele><time>2009-09-12T07:36:15Z</time></trkpt>
<trkpt lat="39.685136" lon="2.725591"><ele>334.68</ele><time>2009-09-12T07:36:19Z</time></trkpt>
<trkpt lat="39.685114" lon="2.725556"><ele>333.71</ele><time>2009-09-12T07:36:21Z</time></trkpt>
<trkpt lat="39.684989" lon="2.725554"><ele>330.35</ele><time>2009-09-12T07:36:25Z</time></trkpt>
<trkpt lat="39.684848" lon="2.725564"><ele>326.02</ele><time>2009-09-12T07:36:29Z</time></trkpt>
<trkpt lat="39.684754" lon="2.725453"><ele>322.66</ele><time>2009-09-12T07:36:34Z</time></trkpt>
<trkpt lat="39.684739" lon="2.725418"><ele>322.18</ele><time>2009-09-12T07:36:47Z</time></trkpt>
<trkpt lat="39.684740" lon="2.725375"><ele>322.18</ele><time>2009-09-12T07:36:49Z</time></trkpt>
<trkpt lat="39.684916" lon="2.725277"><ele>320.26</ele><time>2009-09-12T07:36:53Z</time></trkpt>
<trkpt lat="39.685075" lon="2.725179"><ele>317.37</ele><time>2009-09-12T07:36:56Z</time></trkpt>
<trkpt lat="39.685180" lon="2.725115"><ele>315.45</ele><time>2009-09-12T07:36:58Z</time></trkpt>
<trkpt lat="39.685388" lon="2.724956"><ele>311.60</ele><time>2009-09-12T07:37:03Z</time></trkpt>
<trkpt lat="39.685452" lon="2.724878"><ele>309.20</ele><time>2009-09-12T07:37:06Z</time></trkpt>
<trkpt lat="39.685399" lon="2.724835"><ele>306.80</ele><time>2009-09-12T07:37:10Z</time></trkpt>
<trkpt lat="39.685262" lon="2.724800"><ele>302.95</ele><time>2009-09-12T07:37:15Z</time></trkpt>
<trkpt lat="39.685206" lon="2.724773"><ele>300.55</ele><time>2009-09-12T07:37:17Z</time></trkpt>
<trkpt lat="39.685110" lon="2.724634"><ele>297.18</ele><time>2009-09-12T07:37:22Z</time></trkpt>
<trkpt lat="39.685129" lon="2.724621"><ele>296.22</ele><time>2009-09-12T07:37:23Z</time></trkpt>
<trkpt lat="39.685247" lon="2.724551"><ele>293.34</ele><time>2009-09-12T07:37:26Z</time></trkpt>
<trkpt lat="39.685325" lon="2.724510"><ele>291.90</ele><time>2009-09-12T07:37:28Z</time></trkpt>
<trkpt lat="39.685307" lon="2.724406"><ele>288.53</ele><time>2009-09-12T07:37:33Z</time></trkpt>
<trkpt lat="39.685386" lon="2.724380"><ele>285.65</ele><time>2009-09-12T07:37:38Z</time></trkpt>
<trkpt lat="39.685435" lon="2.724370"><ele>285.17</ele><time>2009-09-12T07:37:39Z</time></trkpt>
<trkpt lat="39.685569" lon="2.724346"><ele>283.73</ele><time>2009-09-12T07:37:42Z</time></trkpt>
<trkpt lat="39.685745" lon="2.724231"><ele>281.32</ele><time>2009-09-12T07:37:48Z</time></trkpt>
<trkpt lat="39.685756" lon="2.724208"><ele>280.84</ele><time>2009-09-12T07:37:52Z</time></trkpt>
<trkpt lat="39.685773" lon="2.724195"><ele>281.32</ele><time>2009-09-12T07:37:59Z</time></trkpt>
<trkpt lat="39.685791" lon="2.724173"><ele>280.84</ele><time>2009-09-12T07:38:08Z</time></trkpt>
<trkpt lat="39.685836" lon="2.724141"><ele>280.36</ele><time>2009-09-12T07:38:22Z</time></trkpt>
<trkpt lat="39.685862" lon="2.724111"><ele>280.36</ele><time>2009-09-12T07:38:33Z</time></trkpt>
<trkpt lat="39.686019" lon="2.724065"><ele>278.92</ele><time>2009-09-12T07:38:39Z</time></trkpt>
<trkpt lat="39.686051" lon="2.724065"><ele>277.96</ele><time>2009-09-12T07:38:40Z</time></trkpt>
<trkpt lat="39.686235" lon="2.724120"><ele>274.59</ele><time>2009-09-12T07:38:46Z</time></trkpt>
<trkpt lat="39.686310" lon="2.724167"><ele>271.71</ele><time>2009-09-12T07:38:52Z</time></trkpt>
<trkpt lat="39.686341" lon="2.724162"><ele>272.19</ele><time>2009-09-12T07:39:05Z</time></trkpt>
<trkpt lat="39.686371" lon="2.724173"><ele>271.23</ele><time>2009-09-12T07:39:17Z</time></trkpt>
<trkpt lat="39.686400" lon="2.724123"><ele>271.23</ele><time>2009-09-12T07:39:27Z</time></trkpt>
<trkpt lat="39.686418" lon="2.724089"><ele>270.75</ele><time>2009-09-12T07:39:40Z</time></trkpt>
<trkpt lat="39.686366" lon="2.723996"><ele>271.23</ele><time>2009-09-12T07:40:30Z</time></trkpt>
<trkpt lat="39.686264" lon="2.723907"><ele>268.35</ele><time>2009-09-12T07:40:34Z</time></trkpt>
<trkpt lat="39.686047" lon="2.723793"><ele>265.46</ele><time>2009-09-12T07:40:38Z</time></trkpt>
<trkpt lat="39.685839" lon="2.723610"><ele>263.06</ele><time>2009-09-12T07:40:42Z</time></trkpt>
<trkpt lat="39.685696" lon="2.723255"><ele>259.69</ele><time>2009-09-12T07:40:46Z</time></trkpt>
<trkpt lat="39.685715" lon="2.722950"><ele>258.25</ele><time>2009-09-12T07:40:49Z</time></trkpt>
<trkpt lat="39.685771" lon="2.722830"><ele>257.29</ele><time>2009-09-12T07:40:50Z</time></trkpt>
<trkpt lat="39.685796" lon="2.722366"><ele>252.48</ele><time>2009-09-12T07:40:54Z</time></trkpt>
<trkpt lat="39.685786" lon="2.722258"><ele>251.04</ele><time>2009-09-12T07:40:55Z</time></trkpt>
<trkpt lat="39.685661" lon="2.721881"><ele>247.68</ele><time>2009-09-12T07:40:59Z</time></trkpt>
<trkpt lat="39.685703" lon="2.721723"><ele>246.72</ele><time>2009-09-12T07:41:01Z</time></trkpt>
<trkpt lat="39.685716" lon="2.721126"><ele>244.31</ele><time>2009-09-12T07:41:08Z</time></trkpt>
<trkpt lat="39.685755" lon="2.720752"><ele>242.39</ele><time>2009-09-12T07:41:12Z</time></trkpt>
<trkpt lat="39.685798" lon="2.720520"><ele>240.47</ele><time>2009-09-12T07:41:17Z</time></trkpt>
<trkpt lat="39.685817" lon="2.720497"><ele>240.47</ele><time>2009-09-12T07:41:18Z</time></trkpt>
<trkpt lat="39.685914" lon="2.720501"><ele>240.95</ele><time>2009-09-12T07:41:23Z</time></trkpt>
<trkpt lat="39.685928" lon="2.720508"><ele>240.95</ele><time>2009-09-12T07:41:29Z</time></trkpt>
<trkpt lat="39.685977" lon="2.720555"><ele>241.91</ele><time>2009-09-12T07:41:40Z</time></trkpt>
<trkpt lat="39.686127" lon="2.720610"><ele>243.83</ele><time>2009-09-12T07:41:49Z</time></trkpt>
<trkpt lat="39.686157" lon="2.720626"><ele>244.31</ele><time>2009-09-12T07:41:51Z</time></trkpt>
<trkpt lat="39.686198" lon="2.720645"><ele>244.79</ele><time>2009-09-12T07:41:54Z</time></trkpt>
<trkpt lat="39.686280" lon="2.720669"><ele>245.75</ele><time>2009-09-12T07:42:00Z</time></trkpt>
<trkpt lat="39.686343" lon="2.720667"><ele>247.20</ele><time>2009-09-12T07:42:04Z</time></trkpt>
<trkpt lat="39.686464" lon="2.720689"><ele>248.64</ele><time>2009-09-12T07:42:11Z</time></trkpt>
<trkpt lat="39.686503" lon="2.720699"><ele>249.12</ele><time>2009-09-12T07:42:14Z</time></trkpt>
<trkpt lat="39.686534" lon="2.720688"><ele>249.60</ele><time>2009-09-12T07:42:16Z</time></trkpt>
<trkpt lat="39.686642" lon="2.720703"><ele>251.04</ele><time>2009-09-12T07:42:23Z</time></trkpt>
<trkpt lat="39.686789" lon="2.720736"><ele>252.96</ele><time>2009-09-12T07:42:32Z</time></trkpt>
<trkpt lat="39.686880" lon="2.720756"><ele>254.41</ele><time>2009-09-12T07:42:40Z</time></trkpt>
<trkpt lat="39.686982" lon="2.720798"><ele>255.85</ele><time>2009-09-12T07:42:47Z</time></trkpt>
<trkpt lat="39.687063" lon="2.720902"><ele>257.29</ele><time>2009-09-12T07:42:56Z</time></trkpt>
<trkpt lat="39.687066" lon="2.720918"><ele>257.29</ele><time>2009-09-12T07:42:57Z</time></trkpt>
<trkpt lat="39.687178" lon="2.720994"><ele>258.73</ele><time>2009-09-12T07:43:07Z</time></trkpt>
<trkpt lat="39.687188" lon="2.720997"><ele>258.73</ele><time>2009-09-12T07:43:08Z</time></trkpt>
<trkpt lat="39.687302" lon="2.721013"><ele>260.17</ele><time>2009-09-12T07:43:17Z</time></trkpt>
<trkpt lat="39.687425" lon="2.720993"><ele>262.10</ele><time>2009-09-12T07:43:26Z</time></trkpt>
<trkpt lat="39.687497" lon="2.720969"><ele>264.02</ele><time>2009-09-12T07:43:34Z</time></trkpt>
<trkpt lat="39.687607" lon="2.720987"><ele>265.46</ele><time>2009-09-12T07:43:43Z</time></trkpt>
<trkpt lat="39.687712" lon="2.720999"><ele>265.94</ele><time>2009-09-12T07:43:51Z</time></trkpt>
<trkpt lat="39.687852" lon="2.721004"><ele>267.38</ele><time>2009-09-12T07:44:01Z</time></trkpt>
<trkpt lat="39.687864" lon="2.721005"><ele>267.86</ele><time>2009-09-12T07:44:02Z</time></trkpt>
<trkpt lat="39.687977" lon="2.720946"><ele>268.35</ele><time>2009-09-12T07:44:11Z</time></trkpt>
<trkpt lat="39.688087" lon="2.720936"><ele>269.79</ele><time>2009-09-12T07:44:20Z</time></trkpt>
<trkpt lat="39.688218" lon="2.720917"><ele>272.67</ele><time>2009-09-12T07:44:34Z</time></trkpt>
<trkpt lat="39.688363" lon="2.720908"><ele>275.56</ele><time>2009-09-12T07:44:45Z</time></trkpt>
<trkpt lat="39.688421" lon="2.720901"><ele>277.48</ele><time>2009-09-12T07:44:52Z</time></trkpt>
<trkpt lat="39.688510" lon="2.720894"><ele>279.88</ele><time>2009-09-12T07:45:02Z</time></trkpt>
<trkpt lat="39.688551" lon="2.720891"><ele>280.36</ele><time>2009-09-12T07:45:06Z</time></trkpt>
<trkpt lat="39.688583" lon="2.720843"><ele>280.36</ele><time>2009-09-12T07:45:10Z</time></trkpt>
<trkpt lat="39.688681" lon="2.720786"><ele>281.32</ele><time>2009-09-12T07:45:20Z</time></trkpt>
<trkpt lat="39.688761" lon="2.720764"><ele>282.28</ele><time>2009-09-12T07:45:26Z</time></trkpt>
<trkpt lat="39.688860" lon="2.720761"><ele>283.25</ele><time>2009-09-12T07:45:35Z</time></trkpt>
<trkpt lat="39.688968" lon="2.720773"><ele>285.17</ele><time>2009-09-12T07:45:45Z</time></trkpt>
<trkpt lat="39.689035" lon="2.720768"><ele>286.13</ele><time>2009-09-12T07:45:51Z</time></trkpt>
<trkpt lat="39.689076" lon="2.720725"><ele>286.61</ele><time>2009-09-12T07:45:55Z</time></trkpt>
<trkpt lat="39.689165" lon="2.720590"><ele>288.05</ele><time>2009-09-12T07:46:04Z</time></trkpt>
<trkpt lat="39.689326" lon="2.720448"><ele>289.97</ele><time>2009-09-12T07:46:16Z</time></trkpt>
<trkpt lat="39.689358" lon="2.720427"><ele>290.46</ele><time>2009-09-12T07:46:18Z</time></trkpt>
<trkpt lat="39.689415" lon="2.720359"><ele>291.90</ele><time>2009-09-12T07:46:25Z</time></trkpt>
<trkpt lat="39.689434" lon="2.720240"><ele>294.30</ele><time>2009-09-12T07:46:35Z</time></trkpt>
<trkpt lat="39.689453" lon="2.720147"><ele>295.74</ele><time>2009-09-12T07:46:42Z</time></trkpt>
<trkpt lat="39.689483" lon="2.720113"><ele>296.70</ele><time>2009-09-12T07:46:46Z</time></trkpt>
<trkpt lat="39.689505" lon="2.720031"><ele>298.15</ele><time>2009-09-12T07:46:54Z</time></trkpt>
<trkpt lat="39.689553" lon="2.719937"><ele>301.51</ele><time>2009-09-12T07:47:06Z</time></trkpt>
<trkpt lat="39.689625" lon="2.719852"><ele>304.39</ele><time>2009-09-12T07:47:18Z</time></trkpt>
<trkpt lat="39.689804" lon="2.719816"><ele>306.32</ele><time>2009-09-12T07:47:27Z</time></trkpt>
<trkpt lat="39.689846" lon="2.719728"><ele>308.24</ele><time>2009-09-12T07:47:37Z</time></trkpt>
<trkpt lat="39.690016" lon="2.719703"><ele>310.16</ele><time>2009-09-12T07:47:49Z</time></trkpt>
<trkpt lat="39.690240" lon="2.719681"><ele>311.60</ele><time>2009-09-12T07:48:06Z</time></trkpt>
<trkpt lat="39.690348" lon="2.719691"><ele>313.05</ele><time>2009-09-12T07:48:15Z</time></trkpt>
<trkpt lat="39.690371" lon="2.719614"><ele>314.49</ele><time>2009-09-12T07:48:23Z</time></trkpt>
<trkpt lat="39.690378" lon="2.719602"><ele>314.49</ele><time>2009-09-12T07:48:24Z</time></trkpt>
<trkpt lat="39.690404" lon="2.719564"><ele>315.45</ele><time>2009-09-12T07:48:28Z</time></trkpt>
<trkpt lat="39.690456" lon="2.719449"><ele>317.37</ele><time>2009-09-12T07:48:39Z</time></trkpt>
<trkpt lat="39.690625" lon="2.719435"><ele>319.30</ele><time>2009-09-12T07:48:50Z</time></trkpt>
<trkpt lat="39.690730" lon="2.719416"><ele>320.26</ele><time>2009-09-12T07:49:01Z</time></trkpt>
<trkpt lat="39.690848" lon="2.719381"><ele>322.66</ele><time>2009-09-12T07:49:14Z</time></trkpt>
<trkpt lat="39.690941" lon="2.719246"><ele>325.06</ele><time>2009-09-12T07:49:26Z</time></trkpt>
<trkpt lat="39.690954" lon="2.719141"><ele>326.50</ele><time>2009-09-12T07:49:34Z</time></trkpt>
<trkpt lat="39.691021" lon="2.719117"><ele>327.95</ele><time>2009-09-12T07:49:42Z</time></trkpt>
<trkpt lat="39.691090" lon="2.719165"><ele>329.39</ele><time>2009-09-12T07:49:49Z</time></trkpt>
<trkpt lat="39.691184" lon="2.719184"><ele>330.83</ele><time>2009-09-12T07:49:58Z</time></trkpt>
<trkpt lat="39.691260" lon="2.719231"><ele>332.75</ele><time>2009-09-12T07:50:07Z</time></trkpt>
<trkpt lat="39.691262" lon="2.719256"><ele>334.20</ele><time>2009-09-12T07:50:12Z</time></trkpt>
<trkpt lat="39.691273" lon="2.719300"><ele>334.68</ele><time>2009-09-12T07:50:15Z</time></trkpt>
<trkpt lat="39.691352" lon="2.719280"><ele>336.60</ele><time>2009-09-12T07:50:24Z</time></trkpt>
<trkpt lat="39.691484" lon="2.719216"><ele>338.04</ele><time>2009-09-12T07:50:38Z</time></trkpt>
<trkpt lat="39.691553" lon="2.719052"><ele>339.96</ele><time>2009-09-12T07:50:51Z</time></trkpt>
<trkpt lat="39.691642" lon="2.718939"><ele>342.37</ele><time>2009-09-12T07:51:04Z</time></trkpt>
<trkpt lat="39.691648" lon="2.718933"><ele>342.37</ele><time>2009-09-12T07:51:05Z</time></trkpt>
<trkpt lat="39.691722" lon="2.718846"><ele>344.29</ele><time>2009-09-12T07:51:17Z</time></trkpt>
<trkpt lat="39.691870" lon="2.718833"><ele>347.65</ele><time>2009-09-12T07:51:33Z</time></trkpt>
<trkpt lat="39.691919" lon="2.718874"><ele>348.62</ele><time>2009-09-12T07:51:39Z</time></trkpt>
<trkpt lat="39.691993" lon="2.718926"><ele>351.98</ele><time>2009-09-12T07:51:56Z</time></trkpt>
<trkpt lat="39.692067" lon="2.718859"><ele>354.86</ele><time>2009-09-12T07:52:15Z</time></trkpt>
<trkpt lat="39.692100" lon="2.718732"><ele>358.23</ele><time>2009-09-12T07:52:33Z</time></trkpt>
<trkpt lat="39.692160" lon="2.718734"><ele>359.67</ele><time>2009-09-12T07:52:44Z</time></trkpt>
<trkpt lat="39.692265" lon="2.718786"><ele>361.59</ele><time>2009-09-12T07:52:57Z</time></trkpt>
<trkpt lat="39.692291" lon="2.718803"><ele>362.55</ele><time>2009-09-12T07:53:08Z</time></trkpt>
<trkpt lat="39.692354" lon="2.718840"><ele>363.52</ele><time>2009-09-12T07:53:15Z</time></trkpt>
<trkpt lat="39.692388" lon="2.718851"><ele>363.52</ele><time>2009-09-12T07:53:17Z</time></trkpt>
<trkpt lat="39.692441" lon="2.718910"><ele>364.48</ele><time>2009-09-12T07:53:24Z</time></trkpt>
<trkpt lat="39.692553" lon="2.718935"><ele>365.44</ele><time>2009-09-12T07:53:31Z</time></trkpt>
<trkpt lat="39.692609" lon="2.718972"><ele>366.40</ele><time>2009-09-12T07:53:35Z</time></trkpt>
<trkpt lat="39.692749" lon="2.719200"><ele>369.28</ele><time>2009-09-12T07:53:52Z</time></trkpt>
<trkpt lat="39.692761" lon="2.719210"><ele>369.76</ele><time>2009-09-12T07:53:53Z</time></trkpt>
<trkpt lat="39.692814" lon="2.719230"><ele>370.73</ele><time>2009-09-12T07:53:58Z</time></trkpt>
<trkpt lat="39.692866" lon="2.719250"><ele>372.17</ele><time>2009-09-12T07:54:03Z</time></trkpt>
<trkpt lat="39.692967" lon="2.719240"><ele>373.61</ele><time>2009-09-12T07:54:10Z</time></trkpt>
<trkpt lat="39.693039" lon="2.719200"><ele>376.01</ele><time>2009-09-12T07:54:19Z</time></trkpt>
<trkpt lat="39.693067" lon="2.719208"><ele>376.49</ele><time>2009-09-12T07:54:21Z</time></trkpt>
<trkpt lat="39.693124" lon="2.719194"><ele>377.94</ele><time>2009-09-12T07:54:27Z</time></trkpt>
<trkpt lat="39.693213" lon="2.719167"><ele>379.38</ele><time>2009-09-12T07:54:35Z</time></trkpt>
<trkpt lat="39.693201" lon="2.719160"><ele>379.38</ele><time>2009-09-12T07:54:37Z</time></trkpt>
<trkpt lat="39.693337" lon="2.719177"><ele>381.30</ele><time>2009-09-12T07:54:50Z</time></trkpt>
<trkpt lat="39.693414" lon="2.719116"><ele>382.74</ele><time>2009-09-12T07:54:59Z</time></trkpt>
<trkpt lat="39.693450" lon="2.719105"><ele>383.22</ele><time>2009-09-12T07:55:01Z</time></trkpt>
<trkpt lat="39.693563" lon="2.719090"><ele>384.18</ele><time>2009-09-12T07:55:08Z</time></trkpt>
<trkpt lat="39.693587" lon="2.719095"><ele>384.66</ele><time>2009-09-12T07:55:10Z</time></trkpt>
<trkpt lat="39.693595" lon="2.719107"><ele>385.15</ele><time>2009-09-12T07:55:13Z</time></trkpt>
<trkpt lat="39.693679" lon="2.719165"><ele>386.59</ele><time>2009-09-12T07:55:21Z</time></trkpt>
<trkpt lat="39.693788" lon="2.719223"><ele>388.51</ele><time>2009-09-12T07:55:31Z</time></trkpt>
<trkpt lat="39.693850" lon="2.719263"><ele>388.99</ele><time>2009-09-12T07:55:35Z</time></trkpt>
<trkpt lat="39.693912" lon="2.719326"><ele>390.91</ele><time>2009-09-12T07:55:43Z</time></trkpt>
<trkpt lat="39.693998" lon="2.719450"><ele>393.32</ele><time>2009-09-12T07:55:53Z</time></trkpt>
<trkpt lat="39.694076" lon="2.719537"><ele>395.72</ele><time>2009-09-12T07:56:02Z</time></trkpt>
<trkpt lat="39.694243" lon="2.719614"><ele>398.12</ele><time>2009-09-12T07:56:14Z</time></trkpt>
<trkpt lat="39.694368" lon="2.719669"><ele>400.05</ele><time>2009-09-12T07:56:25Z</time></trkpt>
<trkpt lat="39.694409" lon="2.719686"><ele>400.05</ele><time>2009-09-12T07:56:27Z</time></trkpt>
<trkpt lat="39.694518" lon="2.719734"><ele>401.01</ele><time>2009-09-12T07:56:36Z</time></trkpt>
<trkpt lat="39.694594" lon="2.719805"><ele>402.93</ele><time>2009-09-12T07:56:52Z</time></trkpt>
<trkpt lat="39.694683" lon="2.719799"><ele>404.85</ele><time>2009-09-12T07:57:05Z</time></trkpt>
<trkpt lat="39.694770" lon="2.719841"><ele>405.81</ele><time>2009-09-12T07:57:19Z</time></trkpt>
<trkpt lat="39.694875" lon="2.719872"><ele>407.74</ele><time>2009-09-12T07:57:40Z</time></trkpt>
<trkpt lat="39.695046" lon="2.719926"><ele>410.14</ele><time>2009-09-12T07:57:53Z</time></trkpt>
<trkpt lat="39.695182" lon="2.719951"><ele>412.06</ele><time>2009-09-12T07:58:03Z</time></trkpt>
<trkpt lat="39.695278" lon="2.720015"><ele>413.98</ele><time>2009-09-12T07:58:18Z</time></trkpt>
<trkpt lat="39.695438" lon="2.720163"><ele>416.87</ele><time>2009-09-12T07:58:34Z</time></trkpt>
<trkpt lat="39.695498" lon="2.720178"><ele>418.31</ele><time>2009-09-12T07:58:40Z</time></trkpt>
<trkpt lat="39.695570" lon="2.720282"><ele>419.27</ele><time>2009-09-12T07:58:51Z</time></trkpt>
<trkpt lat="39.695654" lon="2.720278"><ele>421.19</ele><time>2009-09-12T07:59:04Z</time></trkpt>
<trkpt lat="39.695718" lon="2.720220"><ele>424.08</ele><time>2009-09-12T07:59:25Z</time></trkpt>
<trkpt lat="39.695744" lon="2.720383"><ele>426.96</ele><time>2009-09-12T07:59:49Z</time></trkpt>
<trkpt lat="39.695844" lon="2.720329"><ele>428.40</ele><time>2009-09-12T08:00:03Z</time></trkpt>
<trkpt lat="39.695886" lon="2.720272"><ele>429.85</ele><time>2009-09-12T08:00:15Z</time></trkpt>
<trkpt lat="39.695891" lon="2.720353"><ele>429.85</ele><time>2009-09-12T08:00:22Z</time></trkpt>
<trkpt lat="39.696023" lon="2.720449"><ele>432.73</ele><time>2009-09-12T08:00:41Z</time></trkpt>
<trkpt lat="39.696121" lon="2.720489"><ele>436.10</ele><time>2009-09-12T08:01:05Z</time></trkpt>
<trkpt lat="39.696035" lon="2.720566"><ele>438.50</ele><time>2009-09-12T08:01:19Z</time></trkpt>
<trkpt lat="39.695968" lon="2.720526"><ele>438.50</ele><time>2009-09-12T08:01:28Z</time></trkpt>
<trkpt lat="39.695887" lon="2.720538"><ele>439.46</ele><time>2009-09-12T08:01:41Z</time></trkpt>
<trkpt lat="39.695764" lon="2.720651"><ele>442.34</ele><time>2009-09-12T08:01:52Z</time></trkpt>
<trkpt lat="39.695775" lon="2.720707"><ele>443.79</ele><time>2009-09-12T08:02:01Z</time></trkpt>
<trkpt lat="39.695853" lon="2.720699"><ele>445.23</ele><time>2009-09-12T08:02:07Z</time></trkpt>
<trkpt lat="39.695945" lon="2.720713"><ele>446.19</ele><time>2009-09-12T08:02:14Z</time></trkpt>
<trkpt lat="39.696038" lon="2.720700"><ele>448.59</ele><time>2009-09-12T08:02:24Z</time></trkpt>
<trkpt lat="39.696109" lon="2.720691"><ele>449.55</ele><time>2009-09-12T08:02:30Z</time></trkpt>
<trkpt lat="39.696152" lon="2.720680"><ele>450.52</ele><time>2009-09-12T08:02:35Z</time></trkpt>
<trkpt lat="39.696176" lon="2.720717"><ele>451.00</ele><time>2009-09-12T08:02:45Z</time></trkpt>
<trkpt lat="39.696260" lon="2.720718"><ele>452.92</ele><time>2009-09-12T08:03:11Z</time></trkpt>
<trkpt lat="39.696305" lon="2.720699"><ele>453.40</ele><time>2009-09-12T08:03:19Z</time></trkpt>
<trkpt lat="39.696393" lon="2.720694"><ele>454.84</ele><time>2009-09-12T08:03:29Z</time></trkpt>
<trkpt lat="39.696462" lon="2.720678"><ele>455.80</ele><time>2009-09-12T08:03:38Z</time></trkpt>
<trkpt lat="39.696545" lon="2.720694"><ele>456.76</ele><time>2009-09-12T08:03:50Z</time></trkpt>
<trkpt lat="39.696587" lon="2.720705"><ele>457.24</ele><time>2009-09-12T08:03:58Z</time></trkpt>
<trkpt lat="39.696569" lon="2.720773"><ele>458.21</ele><time>2009-09-12T08:04:07Z</time></trkpt>
<trkpt lat="39.696561" lon="2.720818"><ele>458.69</ele><time>2009-09-12T08:04:12Z</time></trkpt>
<trkpt lat="39.696521" lon="2.720818"><ele>459.65</ele><time>2009-09-12T08:04:19Z</time></trkpt>
<trkpt lat="39.696453" lon="2.720909"><ele>460.61</ele><time>2009-09-12T08:04:31Z</time></trkpt>
<trkpt lat="39.696492" lon="2.720987"><ele>461.57</ele><time>2009-09-12T08:04:40Z</time></trkpt>
<trkpt lat="39.696595" lon="2.720987"><ele>463.01</ele><time>2009-09-12T08:04:55Z</time></trkpt>
<trkpt lat="39.696605" lon="2.720978"><ele>463.01</ele><time>2009-09-12T08:04:58Z</time></trkpt>
<trkpt lat="39.696733" lon="2.720935"><ele>463.97</ele><time>2009-09-12T08:05:08Z</time></trkpt>
<trkpt lat="39.696838" lon="2.720947"><ele>465.42</ele><time>2009-09-12T08:05:16Z</time></trkpt>
<trkpt lat="39.696945" lon="2.720908"><ele>467.34</ele><time>2009-09-12T08:05:25Z</time></trkpt>
<trkpt lat="39.697024" lon="2.720867"><ele>468.78</ele><time>2009-09-12T08:05:34Z</time></trkpt>
<trkpt lat="39.697192" lon="2.720876"><ele>470.22</ele><time>2009-09-12T08:05:45Z</time></trkpt>
<trkpt lat="39.697210" lon="2.720870"><ele>470.22</ele><time>2009-09-12T08:05:46Z</time></trkpt>
<trkpt lat="39.697317" lon="2.720862"><ele>471.66</ele><time>2009-09-12T08:05:53Z</time></trkpt>
<trkpt lat="39.697403" lon="2.720851"><ele>472.63</ele><time>2009-09-12T08:05:59Z</time></trkpt>
<trkpt lat="39.697466" lon="2.720837"><ele>473.59</ele><time>2009-09-12T08:06:05Z</time></trkpt>
<trkpt lat="39.697624" lon="2.720834"><ele>475.03</ele><time>2009-09-12T08:06:16Z</time></trkpt>
<trkpt lat="39.697707" lon="2.720786"><ele>475.99</ele><time>2009-09-12T08:06:25Z</time></trkpt>
<trkpt lat="39.697753" lon="2.720795"><ele>476.47</ele><time>2009-09-12T08:06:29Z</time></trkpt>
<trkpt lat="39.697795" lon="2.720823"><ele>476.95</ele><time>2009-09-12T08:06:32Z</time></trkpt>
<trkpt lat="39.697895" lon="2.720832"><ele>477.43</ele><time>2009-09-12T08:06:40Z</time></trkpt>
<trkpt lat="39.697938" lon="2.720834"><ele>477.91</ele><time>2009-09-12T08:06:44Z</time></trkpt>
<trkpt lat="39.697982" lon="2.720815"><ele>477.91</ele><time>2009-09-12T08:06:48Z</time></trkpt>
<trkpt lat="39.698104" lon="2.720768"><ele>478.87</ele><time>2009-09-12T08:06:57Z</time></trkpt>
<trkpt lat="39.698116" lon="2.720755"><ele>478.87</ele><time>2009-09-12T08:06:58Z</time></trkpt>
<trkpt lat="39.698208" lon="2.720741"><ele>478.87</ele><time>2009-09-12T08:07:03Z</time></trkpt>
<trkpt lat="39.698272" lon="2.720690"><ele>479.35</ele><time>2009-09-12T08:07:09Z</time></trkpt>
<trkpt lat="39.698315" lon="2.720668"><ele>479.84</ele><time>2009-09-12T08:07:12Z</time></trkpt>
<trkpt lat="39.698369" lon="2.720657"><ele>479.84</ele><time>2009-09-12T08:07:14Z</time></trkpt>
<trkpt lat="39.698501" lon="2.720594"><ele>480.80</ele><time>2009-09-12T08:07:23Z</time></trkpt>
<trkpt lat="39.698551" lon="2.720551"><ele>481.28</ele><time>2009-09-12T08:07:27Z</time></trkpt>
<trkpt lat="39.698727" lon="2.720563"><ele>481.76</ele><time>2009-09-12T08:07:35Z</time></trkpt>
<trkpt lat="39.698868" lon="2.720533"><ele>482.72</ele><time>2009-09-12T08:07:43Z</time></trkpt>
<trkpt lat="39.698892" lon="2.720536"><ele>482.72</ele><time>2009-09-12T08:07:45Z</time></trkpt>
<trkpt lat="39.698986" lon="2.720516"><ele>483.20</ele><time>2009-09-12T08:07:51Z</time></trkpt>
<trkpt lat="39.699030" lon="2.720515"><ele>483.20</ele><time>2009-09-12T08:07:55Z</time></trkpt>
<trkpt lat="39.699089" lon="2.720587"><ele>483.20</ele><time>2009-09-12T08:08:00Z</time></trkpt>
<trkpt lat="39.699172" lon="2.720659"><ele>483.20</ele><time>2009-09-12T08:08:08Z</time></trkpt>
<trkpt lat="39.699219" lon="2.720713"><ele>483.68</ele><time>2009-09-12T08:08:11Z</time></trkpt>
<trkpt lat="39.699238" lon="2.720741"><ele>483.68</ele><time>2009-09-12T08:08:13Z</time></trkpt>
<trkpt lat="39.699243" lon="2.720820"><ele>484.16</ele><time>2009-09-12T08:08:17Z</time></trkpt>
<trkpt lat="39.699300" lon="2.720910"><ele>484.64</ele><time>2009-09-12T08:08:25Z</time></trkpt>
<trkpt lat="39.699368" lon="2.720931"><ele>485.12</ele><time>2009-09-12T08:08:31Z</time></trkpt>
<trkpt lat="39.699467" lon="2.721062"><ele>486.56</ele><time>2009-09-12T08:08:43Z</time></trkpt>
<trkpt lat="39.699639" lon="2.721078"><ele>488.01</ele><time>2009-09-12T08:08:54Z</time></trkpt>
<trkpt lat="39.699856" lon="2.721180"><ele>490.41</ele><time>2009-09-12T08:09:06Z</time></trkpt>
<trkpt lat="39.699894" lon="2.721260"><ele>490.89</ele><time>2009-09-12T08:09:10Z</time></trkpt>
<trkpt lat="39.699953" lon="2.721372"><ele>492.81</ele><time>2009-09-12T08:09:22Z</time></trkpt>
<trkpt lat="39.699975" lon="2.721398"><ele>494.26</ele><time>2009-09-12T08:09:34Z</time></trkpt>
<trkpt lat="39.700031" lon="2.721523"><ele>496.18</ele><time>2009-09-12T08:09:45Z</time></trkpt>
<trkpt lat="39.700122" lon="2.721661"><ele>497.14</ele><time>2009-09-12T08:09:54Z</time></trkpt>
<trkpt lat="39.700210" lon="2.721678"><ele>498.10</ele><time>2009-09-12T08:10:01Z</time></trkpt>
<trkpt lat="39.700390" lon="2.721647"><ele>498.58</ele><time>2009-09-12T08:10:09Z</time></trkpt>
<trkpt lat="39.700391" lon="2.721617"><ele>499.06</ele><time>2009-09-12T08:10:16Z</time></trkpt>
<trkpt lat="39.700434" lon="2.721642"><ele>500.50</ele><time>2009-09-12T08:10:24Z</time></trkpt>
<trkpt lat="39.700484" lon="2.721665"><ele>501.46</ele><time>2009-09-12T08:10:29Z</time></trkpt>
<trkpt lat="39.700521" lon="2.721645"><ele>501.46</ele><time>2009-09-12T08:10:31Z</time></trkpt>
<trkpt lat="39.700538" lon="2.721690"><ele>501.95</ele><time>2009-09-12T08:10:35Z</time></trkpt>
<trkpt lat="39.700585" lon="2.721752"><ele>502.91</ele><time>2009-09-12T08:10:39Z</time></trkpt>
<trkpt lat="39.700643" lon="2.721807"><ele>503.87</ele><time>2009-09-12T08:10:44Z</time></trkpt>
<trkpt lat="39.700663" lon="2.721817"><ele>504.35</ele><time>2009-09-12T08:10:47Z</time></trkpt>
<trkpt lat="39.700702" lon="2.721818"><ele>504.35</ele><time>2009-09-12T08:10:51Z</time></trkpt>
<trkpt lat="39.700828" lon="2.721852"><ele>505.31</ele><time>2009-09-12T08:11:00Z</time></trkpt>
<trkpt lat="39.700884" lon="2.721950"><ele>505.31</ele><time>2009-09-12T08:11:07Z</time></trkpt>
<trkpt lat="39.700880" lon="2.722057"><ele>505.79</ele><time>2009-09-12T08:11:15Z</time></trkpt>
<trkpt lat="39.700962" lon="2.722075"><ele>506.27</ele><time>2009-09-12T08:11:26Z</time></trkpt>
<trkpt lat="39.701092" lon="2.722110"><ele>508.19</ele><time>2009-09-12T08:11:35Z</time></trkpt>
<trkpt lat="39.701202" lon="2.722204"><ele>510.60</ele><time>2009-09-12T08:11:44Z</time></trkpt>
<trkpt lat="39.701259" lon="2.722295"><ele>510.60</ele><time>2009-09-12T08:11:51Z</time></trkpt>
<trkpt lat="39.701419" lon="2.722299"><ele>511.08</ele><time>2009-09-12T08:12:01Z</time></trkpt>
<trkpt lat="39.701449" lon="2.722278"><ele>511.08</ele><time>2009-09-12T08:12:02Z</time></trkpt>
<trkpt lat="39.701626" lon="2.722236"><ele>511.56</ele><time>2009-09-12T08:12:12Z</time></trkpt>
<trkpt lat="39.701675" lon="2.722314"><ele>512.04</ele><time>2009-09-12T08:12:19Z</time></trkpt>
<trkpt lat="39.701824" lon="2.722232"><ele>512.52</ele><time>2009-09-12T08:12:25Z</time></trkpt>
<trkpt lat="39.701942" lon="2.722229"><ele>513.48</ele><time>2009-09-12T08:12:31Z</time></trkpt>
<trkpt lat="39.701957" lon="2.722201"><ele>513.96</ele><time>2009-09-12T08:12:35Z</time></trkpt>
<trkpt lat="39.702002" lon="2.722197"><ele>514.44</ele><time>2009-09-12T08:12:39Z</time></trkpt>
<trkpt lat="39.702206" lon="2.722310"><ele>514.44</ele><time>2009-09-12T08:12:46Z</time></trkpt>
<trkpt lat="39.702292" lon="2.722323"><ele>514.44</ele><time>2009-09-12T08:12:49Z</time></trkpt>
<trkpt lat="39.702370" lon="2.722349"><ele>514.92</ele><time>2009-09-12T08:12:56Z</time></trkpt>
<trkpt lat="39.702532" lon="2.722581"><ele>515.40</ele><time>2009-09-12T08:13:05Z</time></trkpt>
<trkpt lat="39.702616" lon="2.722645"><ele>515.88</ele><time>2009-09-12T08:13:10Z</time></trkpt>
<trkpt lat="39.702664" lon="2.722706"><ele>516.85</ele><time>2009-09-12T08:13:15Z</time></trkpt>
<trkpt lat="39.702710" lon="2.722753"><ele>516.85</ele><time>2009-09-12T08:13:20Z</time></trkpt>
<trkpt lat="39.702727" lon="2.722829"><ele>517.33</ele><time>2009-09-12T08:13:24Z</time></trkpt>
<trkpt lat="39.702717" lon="2.722921"><ele>517.33</ele><time>2009-09-12T08:13:28Z</time></trkpt>
<trkpt lat="39.702785" lon="2.722976"><ele>518.29</ele><time>2009-09-12T08:13:33Z</time></trkpt>
<trkpt lat="39.702876" lon="2.723089"><ele>518.77</ele><time>2009-09-12T08:13:40Z</time></trkpt>
<trkpt lat="39.702996" lon="2.723162"><ele>519.73</ele><time>2009-09-12T08:13:48Z</time></trkpt>
<trkpt lat="39.703055" lon="2.723197"><ele>520.21</ele><time>2009-09-12T08:13:51Z</time></trkpt>
<trkpt lat="39.703148" lon="2.723324"><ele>521.65</ele><time>2009-09-12T08:14:01Z</time></trkpt>
<trkpt lat="39.703344" lon="2.723482"><ele>522.61</ele><time>2009-09-12T08:14:10Z</time></trkpt>
<trkpt lat="39.703382" lon="2.723497"><ele>522.61</ele><time>2009-09-12T08:14:11Z</time></trkpt>
<trkpt lat="39.703427" lon="2.723500"><ele>522.61</ele><time>2009-09-12T08:14:16Z</time></trkpt>
<trkpt lat="39.703548" lon="2.723672"><ele>524.06</ele><time>2009-09-12T08:14:28Z</time></trkpt>
<trkpt lat="39.703660" lon="2.723785"><ele>525.02</ele><time>2009-09-12T08:14:36Z</time></trkpt>
<trkpt lat="39.703766" lon="2.723876"><ele>526.46</ele><time>2009-09-12T08:14:45Z</time></trkpt>
<trkpt lat="39.703894" lon="2.723963"><ele>527.42</ele><time>2009-09-12T08:14:53Z</time></trkpt>
<trkpt lat="39.703973" lon="2.724031"><ele>528.38</ele><time>2009-09-12T08:14:58Z</time></trkpt>
<trkpt lat="39.704075" lon="2.724187"><ele>529.34</ele><time>2009-09-12T08:15:09Z</time></trkpt>
<trkpt lat="39.704080" lon="2.724241"><ele>529.34</ele><time>2009-09-12T08:15:15Z</time></trkpt>
<trkpt lat="39.704100" lon="2.724312"><ele>529.82</ele><time>2009-09-12T08:15:22Z</time></trkpt>
<trkpt lat="39.704139" lon="2.724502"><ele>530.30</ele><time>2009-09-12T08:15:28Z</time></trkpt>
<trkpt lat="39.704217" lon="2.724539"><ele>530.79</ele><time>2009-09-12T08:15:33Z</time></trkpt>
<trkpt lat="39.704265" lon="2.724570"><ele>530.79</ele><time>2009-09-12T08:15:35Z</time></trkpt>
<trkpt lat="39.704391" lon="2.724644"><ele>531.27</ele><time>2009-09-12T08:15:49Z</time></trkpt>
<trkpt lat="39.704459" lon="2.724702"><ele>532.23</ele><time>2009-09-12T08:15:57Z</time></trkpt>
<trkpt lat="39.704525" lon="2.724721"><ele>533.67</ele><time>2009-09-12T08:16:08Z</time></trkpt>
<trkpt lat="39.704587" lon="2.724767"><ele>534.63</ele><time>2009-09-12T08:16:19Z</time></trkpt>
<trkpt lat="39.704665" lon="2.724802"><ele>535.11</ele><time>2009-09-12T08:16:26Z</time></trkpt>
<trkpt lat="39.704839" lon="2.724816"><ele>535.59</ele><time>2009-09-12T08:16:38Z</time></trkpt>
<trkpt lat="39.704882" lon="2.724830"><ele>536.55</ele><time>2009-09-12T08:16:43Z</time></trkpt>
<trkpt lat="39.704942" lon="2.724872"><ele>537.51</ele><time>2009-09-12T08:16:48Z</time></trkpt>
<trkpt lat="39.705130" lon="2.724953"><ele>539.44</ele><time>2009-09-12T08:16:58Z</time></trkpt>
<trkpt lat="39.705205" lon="2.724924"><ele>539.92</ele><time>2009-09-12T08:17:01Z</time></trkpt>
<trkpt lat="39.705361" lon="2.725066"><ele>540.88</ele><time>2009-09-12T08:17:10Z</time></trkpt>
<trkpt lat="39.705522" lon="2.725171"><ele>542.32</ele><time>2009-09-12T08:17:19Z</time></trkpt>
<trkpt lat="39.705627" lon="2.725276"><ele>542.80</ele><time>2009-09-12T08:17:28Z</time></trkpt>
<trkpt lat="39.705664" lon="2.725283"><ele>543.28</ele><time>2009-09-12T08:17:31Z</time></trkpt>
<trkpt lat="39.705722" lon="2.725354"><ele>543.76</ele><time>2009-09-12T08:17:36Z</time></trkpt>
<trkpt lat="39.705803" lon="2.725403"><ele>544.24</ele><time>2009-09-12T08:17:43Z</time></trkpt>
<trkpt lat="39.705813" lon="2.725441"><ele>545.20</ele><time>2009-09-12T08:17:48Z</time></trkpt>
<trkpt lat="39.705902" lon="2.725554"><ele>547.13</ele><time>2009-09-12T08:18:04Z</time></trkpt>
<trkpt lat="39.705901" lon="2.725641"><ele>548.09</ele><time>2009-09-12T08:18:13Z</time></trkpt>
<trkpt lat="39.705912" lon="2.725711"><ele>548.57</ele><time>2009-09-12T08:18:20Z</time></trkpt>
<trkpt lat="39.706017" lon="2.725768"><ele>549.05</ele><time>2009-09-12T08:18:28Z</time></trkpt>
<trkpt lat="39.706116" lon="2.725694"><ele>550.01</ele><time>2009-09-12T08:18:41Z</time></trkpt>
<trkpt lat="39.706221" lon="2.725707"><ele>551.93</ele><time>2009-09-12T08:18:52Z</time></trkpt>
<trkpt lat="39.706273" lon="2.725743"><ele>552.90</ele><time>2009-09-12T08:19:05Z</time></trkpt>
<trkpt lat="39.706350" lon="2.725758"><ele>552.90</ele><time>2009-09-12T08:19:17Z</time></trkpt>
<trkpt lat="39.706477" lon="2.725777"><ele>553.38</ele><time>2009-09-12T08:19:25Z</time></trkpt>
<trkpt lat="39.706549" lon="2.725824"><ele>553.86</ele><time>2009-09-12T08:19:29Z</time></trkpt>
<trkpt lat="39.706688" lon="2.725941"><ele>553.86</ele><time>2009-09-12T08:19:37Z</time></trkpt>
<trkpt lat="39.706725" lon="2.725967"><ele>553.86</ele><time>2009-09-12T08:19:40Z</time></trkpt>
<trkpt lat="39.706722" lon="2.726045"><ele>554.34</ele><time>2009-09-12T08:19:44Z</time></trkpt>
<trkpt lat="39.706804" lon="2.726150"><ele>554.82</ele><time>2009-09-12T08:19:51Z</time></trkpt>
<trkpt lat="39.706817" lon="2.726203"><ele>555.78</ele><time>2009-09-12T08:19:56Z</time></trkpt>
<trkpt lat="39.706945" lon="2.726264"><ele>556.74</ele><time>2009-09-12T08:20:06Z</time></trkpt>
<trkpt lat="39.706999" lon="2.726307"><ele>557.22</ele><time>2009-09-12T08:20:11Z</time></trkpt>
<trkpt lat="39.707010" lon="2.726312"><ele>557.22</ele><time>2009-09-12T08:20:13Z</time></trkpt>
<trkpt lat="39.707077" lon="2.726359"><ele>557.22</ele><time>2009-09-12T08:20:20Z</time></trkpt>
<trkpt lat="39.707140" lon="2.726360"><ele>557.70</ele><time>2009-09-12T08:20:28Z</time></trkpt>
<trkpt lat="39.707181" lon="2.726396"><ele>557.70</ele><time>2009-09-12T08:20:36Z</time></trkpt>
<trkpt lat="39.707228" lon="2.726433"><ele>558.18</ele><time>2009-09-12T08:20:43Z</time></trkpt>
<trkpt lat="39.707253" lon="2.726483"><ele>559.14</ele><time>2009-09-12T08:20:49Z</time></trkpt>
<trkpt lat="39.707273" lon="2.726489"><ele>560.59</ele><time>2009-09-12T08:20:58Z</time></trkpt>
<trkpt lat="39.707361" lon="2.726548"><ele>561.07</ele><time>2009-09-12T08:21:02Z</time></trkpt>
<trkpt lat="39.707456" lon="2.726581"><ele>561.55</ele><time>2009-09-12T08:21:10Z</time></trkpt>
<trkpt lat="39.707544" lon="2.726539"><ele>563.47</ele><time>2009-09-12T08:21:20Z</time></trkpt>
<trkpt lat="39.707631" lon="2.726522"><ele>565.39</ele><time>2009-09-12T08:21:28Z</time></trkpt>
<trkpt lat="39.707661" lon="2.726511"><ele>565.39</ele><time>2009-09-12T08:21:36Z</time></trkpt>
<trkpt lat="39.707749" lon="2.726542"><ele>564.91</ele><time>2009-09-12T08:21:49Z</time></trkpt>
<trkpt lat="39.707858" lon="2.726542"><ele>564.91</ele><time>2009-09-12T08:21:59Z</time></trkpt>
<trkpt lat="39.708013" lon="2.726518"><ele>564.91</ele><time>2009-09-12T08:22:13Z</time></trkpt>
<trkpt lat="39.708077" lon="2.726516"><ele>564.91</ele><time>2009-09-12T08:22:28Z</time></trkpt>
<trkpt lat="39.708132" lon="2.726513"><ele>563.95</ele><time>2009-09-12T08:22:46Z</time></trkpt>
<trkpt lat="39.708215" lon="2.726553"><ele>563.47</ele><time>2009-09-12T08:22:51Z</time></trkpt>
<trkpt lat="39.708237" lon="2.726557"><ele>563.95</ele><time>2009-09-12T08:22:53Z</time></trkpt>
<trkpt lat="39.708317" lon="2.726600"><ele>564.43</ele><time>2009-09-12T08:23:01Z</time></trkpt>
<trkpt lat="39.708424" lon="2.726610"><ele>564.91</ele><time>2009-09-12T08:23:08Z</time></trkpt>
<trkpt lat="39.708500" lon="2.726664"><ele>564.43</ele><time>2009-09-12T08:23:13Z</time></trkpt>
<trkpt lat="39.708542" lon="2.726693"><ele>564.43</ele><time>2009-09-12T08:23:17Z</time></trkpt>
<trkpt lat="39.708679" lon="2.726666"><ele>565.39</ele><time>2009-09-12T08:23:24Z</time></trkpt>
<trkpt lat="39.708759" lon="2.726722"><ele>565.87</ele><time>2009-09-12T08:23:31Z</time></trkpt>
<trkpt lat="39.708798" lon="2.726737"><ele>566.35</ele><time>2009-09-12T08:23:35Z</time></trkpt>
<trkpt lat="39.708863" lon="2.726805"><ele>566.35</ele><time>2009-09-12T08:23:40Z</time></trkpt>
<trkpt lat="39.708990" lon="2.726736"><ele>567.32</ele><time>2009-09-12T08:23:47Z</time></trkpt>
<trkpt lat="39.709086" lon="2.726771"><ele>567.80</ele><time>2009-09-12T08:23:53Z</time></trkpt>
<trkpt lat="39.709153" lon="2.726799"><ele>567.80</ele><time>2009-09-12T08:24:01Z</time></trkpt>
<trkpt lat="39.709189" lon="2.726792"><ele>567.80</ele><time>2009-09-12T08:24:15Z</time></trkpt>
<trkpt lat="39.709214" lon="2.726790"><ele>567.80</ele><time>2009-09-12T08:24:38Z</time></trkpt>
<trkpt lat="39.709146" lon="2.726773"><ele>568.28</ele><time>2009-09-12T08:24:51Z</time></trkpt>
<trkpt lat="39.709078" lon="2.726751"><ele>567.80</ele><time>2009-09-12T08:24:59Z</time></trkpt>
<trkpt lat="39.709061" lon="2.726747"><ele>567.80</ele><time>2009-09-12T08:25:06Z</time></trkpt>
<trkpt lat="39.709043" lon="2.726743"><ele>567.80</ele><time>2009-09-12T08:25:12Z</time></trkpt>
<trkpt lat="39.709029" lon="2.726742"><ele>567.80</ele><time>2009-09-12T08:25:19Z</time></trkpt>
<trkpt lat="39.709009" lon="2.726760"><ele>567.80</ele><time>2009-09-12T08:25:27Z</time></trkpt>
<trkpt lat="39.709052" lon="2.726900"><ele>567.80</ele><time>2009-09-12T08:25:48Z</time></trkpt>
<trkpt lat="39.709292" lon="2.727489"><ele>567.80</ele><time>2009-09-12T08:26:52Z</time></trkpt>
<trkpt lat="39.709368" lon="2.727569"><ele>567.80</ele><time>2009-09-12T08:27:04Z</time></trkpt>
<trkpt lat="39.709359" lon="2.727571"><ele>567.80</ele><time>2009-09-12T08:27:24Z</time></trkpt>
<trkpt lat="39.709878" lon="2.727722"><ele>567.80</ele><time>2009-09-12T08:30:22Z</time></trkpt>
<trkpt lat="39.710051" lon="2.727715"><ele>568.28</ele><time>2009-09-12T08:33:22Z</time></trkpt>
<trkpt lat="39.709650" lon="2.727586"><ele>568.28</ele><time>2009-09-12T08:33:35Z</time></trkpt>
<trkpt lat="39.709647" lon="2.727584"><ele>567.80</ele><time>2009-09-12T08:34:21Z</time></trkpt>
<trkpt lat="39.709624" lon="2.727574"><ele>568.28</ele><time>2009-09-12T08:34:34Z</time></trkpt>
<trkpt lat="39.709799" lon="2.727725"><ele>568.28</ele><time>2009-09-12T08:43:41Z</time></trkpt>
<trkpt lat="39.709792" lon="2.727729"><ele>568.28</ele><time>2009-09-12T08:43:42Z</time></trkpt>
<trkpt lat="39.709863" lon="2.727794"><ele>568.28</ele><time>2009-09-12T08:43:48Z</time></trkpt>
<trkpt lat="39.709908" lon="2.727845"><ele>568.76</ele><time>2009-09-12T08:43:54Z</time></trkpt>
<trkpt lat="39.709983" lon="2.727892"><ele>569.24</ele><time>2009-09-12T08:43:59Z</time></trkpt>
<trkpt lat="39.710065" lon="2.727922"><ele>569.72</ele><time>2009-09-12T08:44:07Z</time></trkpt>
<trkpt lat="39.710096" lon="2.727961"><ele>570.20</ele><time>2009-09-12T08:44:12Z</time></trkpt>
<trkpt lat="39.710113" lon="2.727983"><ele>570.68</ele><time>2009-09-12T08:44:14Z</time></trkpt>
<trkpt lat="39.710244" lon="2.728050"><ele>571.64</ele><time>2009-09-12T08:44:24Z</time></trkpt>
<trkpt lat="39.710283" lon="2.728083"><ele>572.12</ele><time>2009-09-12T08:44:27Z</time></trkpt>
<trkpt lat="39.710426" lon="2.728109"><ele>572.60</ele><time>2009-09-12T08:44:32Z</time></trkpt>
<trkpt lat="39.710569" lon="2.728122"><ele>573.08</ele><time>2009-09-12T08:44:37Z</time></trkpt>
<trkpt lat="39.710621" lon="2.728083"><ele>573.56</ele><time>2009-09-12T08:44:40Z</time></trkpt>
<trkpt lat="39.710770" lon="2.728092"><ele>574.04</ele><time>2009-09-12T08:44:44Z</time></trkpt>
<trkpt lat="39.710849" lon="2.728124"><ele>574.53</ele><time>2009-09-12T08:44:51Z</time></trkpt>
<trkpt lat="39.710940" lon="2.728104"><ele>575.49</ele><time>2009-09-12T08:44:58Z</time></trkpt>
<trkpt lat="39.710994" lon="2.728082"><ele>576.45</ele><time>2009-09-12T08:45:03Z</time></trkpt>
<trkpt lat="39.711019" lon="2.728069"><ele>576.93</ele><time>2009-09-12T08:45:05Z</time></trkpt>
<trkpt lat="39.711089" lon="2.728066"><ele>577.41</ele><time>2009-09-12T08:45:08Z</time></trkpt>
<trkpt lat="39.711143" lon="2.728066"><ele>577.89</ele><time>2009-09-12T08:45:11Z</time></trkpt>
<trkpt lat="39.711196" lon="2.728199"><ele>579.33</ele><time>2009-09-12T08:45:18Z</time></trkpt>
<trkpt lat="39.711268" lon="2.728237"><ele>580.77</ele><time>2009-09-12T08:45:24Z</time></trkpt>
<trkpt lat="39.711458" lon="2.728305"><ele>582.22</ele><time>2009-09-12T08:45:33Z</time></trkpt>
<trkpt lat="39.711648" lon="2.728335"><ele>584.14</ele><time>2009-09-12T08:45:43Z</time></trkpt>
<trkpt lat="39.711829" lon="2.728350"><ele>585.58</ele><time>2009-09-12T08:45:51Z</time></trkpt>
<trkpt lat="39.711926" lon="2.728379"><ele>586.06</ele><time>2009-09-12T08:45:56Z</time></trkpt>
<trkpt lat="39.712015" lon="2.728307"><ele>587.50</ele><time>2009-09-12T08:46:03Z</time></trkpt>
<trkpt lat="39.712094" lon="2.728304"><ele>587.98</ele><time>2009-09-12T08:46:08Z</time></trkpt>
<trkpt lat="39.712300" lon="2.728294"><ele>589.43</ele><time>2009-09-12T08:46:17Z</time></trkpt>
<trkpt lat="39.712330" lon="2.728309"><ele>590.39</ele><time>2009-09-12T08:46:22Z</time></trkpt>
<trkpt lat="39.712292" lon="2.728461"><ele>591.83</ele><time>2009-09-12T08:46:30Z</time></trkpt>
<trkpt lat="39.712255" lon="2.728482"><ele>592.31</ele><time>2009-09-12T08:46:34Z</time></trkpt>
<trkpt lat="39.712247" lon="2.728509"><ele>592.79</ele><time>2009-09-12T08:46:38Z</time></trkpt>
<trkpt lat="39.712267" lon="2.728574"><ele>594.71</ele><time>2009-09-12T08:46:46Z</time></trkpt>
<trkpt lat="39.712323" lon="2.728589"><ele>596.15</ele><time>2009-09-12T08:46:54Z</time></trkpt>
<trkpt lat="39.712322" lon="2.728602"><ele>596.15</ele><time>2009-09-12T08:46:55Z</time></trkpt>
<trkpt lat="39.712304" lon="2.728674"><ele>597.60</ele><time>2009-09-12T08:47:01Z</time></trkpt>
<trkpt lat="39.712301" lon="2.728710"><ele>598.08</ele><time>2009-09-12T08:47:04Z</time></trkpt>
<trkpt lat="39.712260" lon="2.728785"><ele>599.52</ele><time>2009-09-12T08:47:11Z</time></trkpt>
<trkpt lat="39.712367" lon="2.728857"><ele>600.00</ele><time>2009-09-12T08:47:18Z</time></trkpt>
<trkpt lat="39.712452" lon="2.728919"><ele>600.48</ele><time>2009-09-12T08:47:23Z</time></trkpt>
<trkpt lat="39.712595" lon="2.728920"><ele>601.92</ele><time>2009-09-12T08:47:32Z</time></trkpt>
<trkpt lat="39.712610" lon="2.728915"><ele>601.92</ele><time>2009-09-12T08:47:33Z</time></trkpt>
<trkpt lat="39.712639" lon="2.728932"><ele>602.40</ele><time>2009-09-12T08:47:36Z</time></trkpt>
<trkpt lat="39.712634" lon="2.729006"><ele>603.36</ele><time>2009-09-12T08:47:42Z</time></trkpt>
<trkpt lat="39.712587" lon="2.729091"><ele>605.29</ele><time>2009-09-12T08:47:51Z</time></trkpt>
<trkpt lat="39.712559" lon="2.729112"><ele>605.77</ele><time>2009-09-12T08:47:54Z</time></trkpt>
<trkpt lat="39.712516" lon="2.729176"><ele>607.21</ele><time>2009-09-12T08:48:01Z</time></trkpt>
<trkpt lat="39.712499" lon="2.729213"><ele>609.13</ele><time>2009-09-12T08:48:13Z</time></trkpt>
<trkpt lat="39.712562" lon="2.729171"><ele>609.61</ele><time>2009-09-12T08:48:17Z</time></trkpt>
<trkpt lat="39.712591" lon="2.729144"><ele>610.57</ele><time>2009-09-12T08:48:25Z</time></trkpt>
<trkpt lat="39.712665" lon="2.729146"><ele>612.02</ele><time>2009-09-12T08:48:33Z</time></trkpt>
<trkpt lat="39.712728" lon="2.729093"><ele>613.46</ele><time>2009-09-12T08:48:39Z</time></trkpt>
<trkpt lat="39.712782" lon="2.729119"><ele>613.94</ele><time>2009-09-12T08:48:44Z</time></trkpt>
<trkpt lat="39.712854" lon="2.729043"><ele>614.90</ele><time>2009-09-12T08:48:52Z</time></trkpt>
<trkpt lat="39.712877" lon="2.729056"><ele>615.38</ele><time>2009-09-12T08:48:54Z</time></trkpt>
<trkpt lat="39.712971" lon="2.729125"><ele>615.86</ele><time>2009-09-12T08:49:02Z</time></trkpt>
<trkpt lat="39.713011" lon="2.729168"><ele>616.34</ele><time>2009-09-12T08:49:05Z</time></trkpt>
<trkpt lat="39.713144" lon="2.729280"><ele>617.30</ele><time>2009-09-12T08:49:13Z</time></trkpt>
<trkpt lat="39.713257" lon="2.729268"><ele>619.23</ele><time>2009-09-12T08:49:23Z</time></trkpt>
<trkpt lat="39.713231" lon="2.729386"><ele>620.19</ele><time>2009-09-12T08:49:35Z</time></trkpt>
<trkpt lat="39.713210" lon="2.729500"><ele>622.11</ele><time>2009-09-12T08:49:48Z</time></trkpt>
<trkpt lat="39.713135" lon="2.729554"><ele>624.51</ele><time>2009-09-12T08:50:03Z</time></trkpt>
<trkpt lat="39.713106" lon="2.729623"><ele>624.99</ele><time>2009-09-12T08:50:10Z</time></trkpt>
<trkpt lat="39.713090" lon="2.729718"><ele>626.44</ele><time>2009-09-12T08:50:19Z</time></trkpt>
<trkpt lat="39.713061" lon="2.729846"><ele>627.88</ele><time>2009-09-12T08:50:27Z</time></trkpt>
<trkpt lat="39.713031" lon="2.729891"><ele>628.36</ele><time>2009-09-12T08:50:29Z</time></trkpt>
<trkpt lat="39.713000" lon="2.729943"><ele>629.32</ele><time>2009-09-12T08:50:34Z</time></trkpt>
<trkpt lat="39.712978" lon="2.730037"><ele>630.76</ele><time>2009-09-12T08:50:38Z</time></trkpt>
<trkpt lat="39.712972" lon="2.730106"><ele>631.72</ele><time>2009-09-12T08:50:44Z</time></trkpt>
<trkpt lat="39.712948" lon="2.730153"><ele>633.17</ele><time>2009-09-12T08:50:53Z</time></trkpt>
<trkpt lat="39.712911" lon="2.730226"><ele>633.65</ele><time>2009-09-12T08:51:01Z</time></trkpt>
<trkpt lat="39.712889" lon="2.730285"><ele>634.13</ele><time>2009-09-12T08:51:10Z</time></trkpt>
<trkpt lat="39.712894" lon="2.730325"><ele>634.61</ele><time>2009-09-12T08:51:18Z</time></trkpt>
<trkpt lat="39.712882" lon="2.730375"><ele>635.09</ele><time>2009-09-12T08:51:22Z</time></trkpt>
<trkpt lat="39.712832" lon="2.730448"><ele>635.57</ele><time>2009-09-12T08:51:27Z</time></trkpt>
<trkpt lat="39.712824" lon="2.730550"><ele>637.49</ele><time>2009-09-12T08:51:33Z</time></trkpt>
<trkpt lat="39.712808" lon="2.730655"><ele>639.41</ele><time>2009-09-12T08:51:41Z</time></trkpt>
<trkpt lat="39.712752" lon="2.730761"><ele>641.34</ele><time>2009-09-12T08:51:49Z</time></trkpt>
<trkpt lat="39.712714" lon="2.730783"><ele>641.34</ele><time>2009-09-12T08:51:52Z</time></trkpt>
<trkpt lat="39.712652" lon="2.730829"><ele>641.34</ele><time>2009-09-12T08:51:57Z</time></trkpt>
<trkpt lat="39.712540" lon="2.730945"><ele>642.30</ele><time>2009-09-12T08:52:06Z</time></trkpt>
<trkpt lat="39.712524" lon="2.731092"><ele>643.26</ele><time>2009-09-12T08:52:14Z</time></trkpt>
<trkpt lat="39.712551" lon="2.731214"><ele>644.70</ele><time>2009-09-12T08:52:20Z</time></trkpt>
<trkpt lat="39.712565" lon="2.731283"><ele>645.18</ele><time>2009-09-12T08:52:24Z</time></trkpt>
<trkpt lat="39.712590" lon="2.731344"><ele>645.66</ele><time>2009-09-12T08:52:28Z</time></trkpt>
<trkpt lat="39.712654" lon="2.731449"><ele>646.14</ele><time>2009-09-12T08:52:38Z</time></trkpt>
<trkpt lat="39.712641" lon="2.731448"><ele>646.14</ele><time>2009-09-12T08:52:45Z</time></trkpt>
<trkpt lat="39.712640" lon="2.731460"><ele>646.62</ele><time>2009-09-12T08:53:23Z</time></trkpt>
<trkpt lat="39.712642" lon="2.731501"><ele>646.62</ele><time>2009-09-12T08:53:25Z</time></trkpt>
<trkpt lat="39.712733" lon="2.731732"><ele>646.62</ele><time>2009-09-12T08:53:32Z</time></trkpt>
<trkpt lat="39.712925" lon="2.731939"><ele>645.66</ele><time>2009-09-12T08:53:38Z</time></trkpt>
<trkpt lat="39.713220" lon="2.732234"><ele>645.18</ele><time>2009-09-12T08:53:46Z</time></trkpt>
<trkpt lat="39.713277" lon="2.732311"><ele>645.18</ele><time>2009-09-12T08:53:48Z</time></trkpt>
<trkpt lat="39.713348" lon="2.732554"><ele>643.74</ele><time>2009-09-12T08:53:53Z</time></trkpt>
<trkpt lat="39.713456" lon="2.732741"><ele>642.30</ele><time>2009-09-12T08:53:56Z</time></trkpt>
<trkpt lat="39.713527" lon="2.732868"><ele>641.82</ele><time>2009-09-12T08:53:58Z</time></trkpt>
<trkpt lat="39.713768" lon="2.733203"><ele>638.93</ele><time>2009-09-12T08:54:04Z</time></trkpt>
<trkpt lat="39.714117" lon="2.733405"><ele>637.49</ele><time>2009-09-12T08:54:10Z</time></trkpt>
<trkpt lat="39.714319" lon="2.733509"><ele>635.57</ele><time>2009-09-12T08:54:13Z</time></trkpt>
<trkpt lat="39.714522" lon="2.733488"><ele>634.13</ele><time>2009-09-12T08:54:17Z</time></trkpt>
<trkpt lat="39.714686" lon="2.733573"><ele>630.76</ele><time>2009-09-12T08:54:22Z</time></trkpt>
<trkpt lat="39.714836" lon="2.733993"><ele>626.92</ele><time>2009-09-12T08:54:27Z</time></trkpt>
<trkpt lat="39.714884" lon="2.734180"><ele>625.96</ele><time>2009-09-12T08:54:29Z</time></trkpt>
<trkpt lat="39.714907" lon="2.734258"><ele>625.96</ele><time>2009-09-12T08:54:30Z</time></trkpt>
<trkpt lat="39.714939" lon="2.734621"><ele>626.44</ele><time>2009-09-12T08:54:35Z</time></trkpt>
<trkpt lat="39.714871" lon="2.735145"><ele>624.99</ele><time>2009-09-12T08:54:42Z</time></trkpt>
<trkpt lat="39.714837" lon="2.735314"><ele>622.59</ele><time>2009-09-12T08:54:44Z</time></trkpt>
<trkpt lat="39.714776" lon="2.735650"><ele>618.26</ele><time>2009-09-12T08:54:48Z</time></trkpt>
<trkpt lat="39.714763" lon="2.735801"><ele>616.34</ele><time>2009-09-12T08:54:50Z</time></trkpt>
<trkpt lat="39.714777" lon="2.735960"><ele>613.46</ele><time>2009-09-12T08:54:54Z</time></trkpt>
<trkpt lat="39.714820" lon="2.735956"><ele>613.94</ele><time>2009-09-12T08:55:40Z</time></trkpt>
<trkpt lat="39.714915" lon="2.736099"><ele>612.02</ele><time>2009-09-12T08:55:45Z</time></trkpt>
<trkpt lat="39.715000" lon="2.736259"><ele>608.65</ele><time>2009-09-12T08:55:49Z</time></trkpt>
<trkpt lat="39.714994" lon="2.736359"><ele>605.77</ele><time>2009-09-12T08:55:52Z</time></trkpt>
<trkpt lat="39.714857" lon="2.736432"><ele>602.88</ele><time>2009-09-12T08:55:56Z</time></trkpt>
<trkpt lat="39.714573" lon="2.736530"><ele>600.48</ele><time>2009-09-12T08:56:00Z</time></trkpt>
<trkpt lat="39.714341" lon="2.736624"><ele>598.08</ele><time>2009-09-12T08:56:03Z</time></trkpt>
<trkpt lat="39.714181" lon="2.736758"><ele>596.15</ele><time>2009-09-12T08:56:06Z</time></trkpt>
<trkpt lat="39.714032" lon="2.737072"><ele>592.31</ele><time>2009-09-12T08:56:11Z</time></trkpt>
<trkpt lat="39.714023" lon="2.737167"><ele>591.35</ele><time>2009-09-12T08:56:13Z</time></trkpt>
<trkpt lat="39.714027" lon="2.737283"><ele>589.43</ele><time>2009-09-12T08:56:16Z</time></trkpt>
<trkpt lat="39.714048" lon="2.737334"><ele>588.95</ele><time>2009-09-12T08:56:22Z</time></trkpt>
<trkpt lat="39.714037" lon="2.737319"><ele>591.83</ele><time>2009-09-12T08:58:51Z</time></trkpt>
<trkpt lat="39.714038" lon="2.737318"><ele>591.83</ele><time>2009-09-12T08:59:03Z</time></trkpt>
<trkpt lat="39.714180" lon="2.737210"><ele>591.83</ele><time>2009-09-12T08:59:10Z</time></trkpt>
<trkpt lat="39.714481" lon="2.737035"><ele>591.83</ele><time>2009-09-12T08:59:18Z</time></trkpt>
<trkpt lat="39.714645" lon="2.736985"><ele>592.31</ele><time>2009-09-12T08:59:22Z</time></trkpt>
<trkpt lat="39.714901" lon="2.737022"><ele>591.83</ele><time>2009-09-12T08:59:27Z</time></trkpt>
<trkpt lat="39.715248" lon="2.737065"><ele>590.87</ele><time>2009-09-12T08:59:35Z</time></trkpt>
<trkpt lat="39.715374" lon="2.737082"><ele>590.39</ele><time>2009-09-12T08:59:38Z</time></trkpt>
<trkpt lat="39.715628" lon="2.737076"><ele>589.91</ele><time>2009-09-12T08:59:43Z</time></trkpt>
<trkpt lat="39.715870" lon="2.737244"><ele>588.95</ele><time>2009-09-12T08:59:48Z</time></trkpt>
<trkpt lat="39.715932" lon="2.737344"><ele>588.46</ele><time>2009-09-12T08:59:50Z</time></trkpt>
<trkpt lat="39.716072" lon="2.737473"><ele>587.02</ele><time>2009-09-12T08:59:53Z</time></trkpt>
<trkpt lat="39.716316" lon="2.737651"><ele>584.14</ele><time>2009-09-12T08:59:59Z</time></trkpt>
<trkpt lat="39.716449" lon="2.737640"><ele>582.70</ele><time>2009-09-12T09:00:02Z</time></trkpt>
<trkpt lat="39.716517" lon="2.737627"><ele>582.70</ele><time>2009-09-12T09:00:04Z</time></trkpt>
<trkpt lat="39.716462" lon="2.737732"><ele>579.81</ele><time>2009-09-12T09:00:11Z</time></trkpt>
<trkpt lat="39.716416" lon="2.737768"><ele>578.85</ele><time>2009-09-12T09:00:14Z</time></trkpt>
<trkpt lat="39.716413" lon="2.737801"><ele>578.37</ele><time>2009-09-12T09:00:16Z</time></trkpt>
<trkpt lat="39.716555" lon="2.737772"><ele>577.89</ele><time>2009-09-12T09:00:21Z</time></trkpt>
<trkpt lat="39.716782" lon="2.737687"><ele>575.97</ele><time>2009-09-12T09:00:27Z</time></trkpt>
<trkpt lat="39.716920" lon="2.737620"><ele>575.49</ele><time>2009-09-12T09:00:30Z</time></trkpt>
<trkpt lat="39.717089" lon="2.737425"><ele>575.49</ele><time>2009-09-12T09:00:36Z</time></trkpt>
<trkpt lat="39.717232" lon="2.737366"><ele>575.01</ele><time>2009-09-12T09:00:40Z</time></trkpt>
<trkpt lat="39.717458" lon="2.737367"><ele>574.53</ele><time>2009-09-12T09:00:43Z</time></trkpt>
<trkpt lat="39.717679" lon="2.737499"><ele>575.01</ele><time>2009-09-12T09:00:48Z</time></trkpt>
<trkpt lat="39.717816" lon="2.737508"><ele>575.49</ele><time>2009-09-12T09:00:52Z</time></trkpt>
<trkpt lat="39.718088" lon="2.737402"><ele>578.37</ele><time>2009-09-12T09:01:01Z</time></trkpt>
<trkpt lat="39.718124" lon="2.737374"><ele>578.85</ele><time>2009-09-12T09:01:03Z</time></trkpt>
<trkpt lat="39.718181" lon="2.737357"><ele>579.33</ele><time>2009-09-12T09:01:05Z</time></trkpt>
<trkpt lat="39.718337" lon="2.737168"><ele>580.77</ele><time>2009-09-12T09:01:13Z</time></trkpt>
<trkpt lat="39.718473" lon="2.737044"><ele>582.70</ele><time>2009-09-12T09:01:20Z</time></trkpt>
<trkpt lat="39.718506" lon="2.736993"><ele>583.18</ele><time>2009-09-12T09:01:23Z</time></trkpt>
<trkpt lat="39.718515" lon="2.736903"><ele>583.66</ele><time>2009-09-12T09:01:26Z</time></trkpt>
<trkpt lat="39.718631" lon="2.736653"><ele>584.62</ele><time>2009-09-12T09:01:34Z</time></trkpt>
<trkpt lat="39.718727" lon="2.736468"><ele>585.10</ele><time>2009-09-12T09:01:41Z</time></trkpt>
<trkpt lat="39.718776" lon="2.736413"><ele>585.58</ele><time>2009-09-12T09:01:44Z</time></trkpt>
<trkpt lat="39.718818" lon="2.736477"><ele>585.10</ele><time>2009-09-12T09:01:48Z</time></trkpt>
<trkpt lat="39.718808" lon="2.736590"><ele>585.10</ele><time>2009-09-12T09:01:51Z</time></trkpt>
<trkpt lat="39.718855" lon="2.736855"><ele>584.62</ele><time>2009-09-12T09:01:58Z</time></trkpt>
<trkpt lat="39.718882" lon="2.737089"><ele>585.10</ele><time>2009-09-12T09:02:04Z</time></trkpt>
<trkpt lat="39.718903" lon="2.737277"><ele>585.58</ele><time>2009-09-12T09:02:10Z</time></trkpt>
<trkpt lat="39.718906" lon="2.737635"><ele>585.58</ele><time>2009-09-12T09:02:17Z</time></trkpt>
<trkpt lat="39.718887" lon="2.737854"><ele>586.54</ele><time>2009-09-12T09:02:24Z</time></trkpt>
<trkpt lat="39.718831" lon="2.738164"><ele>587.02</ele><time>2009-09-12T09:02:31Z</time></trkpt>
<trkpt lat="39.718705" lon="2.738458"><ele>588.95</ele><time>2009-09-12T09:02:40Z</time></trkpt>
<trkpt lat="39.718670" lon="2.738510"><ele>589.43</ele><time>2009-09-12T09:02:42Z</time></trkpt>
<trkpt lat="39.718602" lon="2.738662"><ele>590.39</ele><time>2009-09-12T09:02:47Z</time></trkpt>
<trkpt lat="39.718498" lon="2.738839"><ele>590.39</ele><time>2009-09-12T09:02:53Z</time></trkpt>
<trkpt lat="39.718418" lon="2.738977"><ele>589.43</ele><time>2009-09-12T09:02:57Z</time></trkpt>
<trkpt lat="39.718389" lon="2.739021"><ele>588.95</ele><time>2009-09-12T09:02:58Z</time></trkpt>
<trkpt lat="39.718374" lon="2.739151"><ele>587.98</ele><time>2009-09-12T09:03:03Z</time></trkpt>
<trkpt lat="39.718365" lon="2.739223"><ele>587.50</ele><time>2009-09-12T09:03:08Z</time></trkpt>
<trkpt lat="39.718373" lon="2.739252"><ele>587.50</ele><time>2009-09-12T09:03:25Z</time></trkpt>
<trkpt lat="39.718376" lon="2.739279"><ele>587.02</ele><time>2009-09-12T09:03:38Z</time></trkpt>
<trkpt lat="39.718436" lon="2.739341"><ele>587.02</ele><time>2009-09-12T09:03:45Z</time></trkpt>
<trkpt lat="39.718463" lon="2.739332"><ele>587.50</ele><time>2009-09-12T09:03:49Z</time></trkpt>
<trkpt lat="39.718553" lon="2.739254"><ele>588.95</ele><time>2009-09-12T09:03:56Z</time></trkpt>
<trkpt lat="39.718578" lon="2.739239"><ele>589.43</ele><time>2009-09-12T09:03:58Z</time></trkpt>
<trkpt lat="39.718603" lon="2.739204"><ele>590.39</ele><time>2009-09-12T09:04:01Z</time></trkpt>
<trkpt lat="39.718711" lon="2.739087"><ele>592.31</ele><time>2009-09-12T09:04:09Z</time></trkpt>
<trkpt lat="39.718769" lon="2.738997"><ele>593.75</ele><time>2009-09-12T09:04:14Z</time></trkpt>
<trkpt lat="39.718792" lon="2.738923"><ele>594.71</ele><time>2009-09-12T09:04:18Z</time></trkpt>
<trkpt lat="39.718850" lon="2.738749"><ele>597.12</ele><time>2009-09-12T09:04:27Z</time></trkpt>
<trkpt lat="39.718854" lon="2.738679"><ele>598.08</ele><time>2009-09-12T09:04:31Z</time></trkpt>
<trkpt lat="39.718909" lon="2.738606"><ele>599.52</ele><time>2009-09-12T09:04:38Z</time></trkpt>
<trkpt lat="39.718982" lon="2.738603"><ele>600.48</ele><time>2009-09-12T09:04:44Z</time></trkpt>
<trkpt lat="39.719089" lon="2.738553"><ele>601.92</ele><time>2009-09-12T09:04:53Z</time></trkpt>
<trkpt lat="39.719098" lon="2.738545"><ele>601.92</ele><time>2009-09-12T09:04:54Z</time></trkpt>
<trkpt lat="39.719159" lon="2.738442"><ele>603.85</ele><time>2009-09-12T09:05:03Z</time></trkpt>
<trkpt lat="39.719177" lon="2.738402"><ele>604.33</ele><time>2009-09-12T09:05:07Z</time></trkpt>
<trkpt lat="39.719177" lon="2.738335"><ele>605.29</ele><time>2009-09-12T09:05:11Z</time></trkpt>
<trkpt lat="39.719231" lon="2.738278"><ele>606.25</ele><time>2009-09-12T09:05:18Z</time></trkpt>
<trkpt lat="39.719319" lon="2.738258"><ele>608.17</ele><time>2009-09-12T09:05:26Z</time></trkpt>
<trkpt lat="39.719357" lon="2.738264"><ele>608.65</ele><time>2009-09-12T09:05:34Z</time></trkpt>
<trkpt lat="39.719401" lon="2.738196"><ele>610.57</ele><time>2009-09-12T09:06:02Z</time></trkpt>
<trkpt lat="39.719446" lon="2.738166"><ele>611.54</ele><time>2009-09-12T09:06:10Z</time></trkpt>
<trkpt lat="39.719491" lon="2.738154"><ele>612.50</ele><time>2009-09-12T09:06:18Z</time></trkpt>
<trkpt lat="39.719502" lon="2.738150"><ele>612.98</ele><time>2009-09-12T09:06:29Z</time></trkpt>
<trkpt lat="39.719542" lon="2.738176"><ele>613.46</ele><time>2009-09-12T09:06:38Z</time></trkpt>
<trkpt lat="39.719615" lon="2.738134"><ele>614.90</ele><time>2009-09-12T09:06:47Z</time></trkpt>
<trkpt lat="39.719655" lon="2.738074"><ele>615.86</ele><time>2009-09-12T09:06:55Z</time></trkpt>
<trkpt lat="39.719716" lon="2.738051"><ele>617.30</ele><time>2009-09-12T09:07:05Z</time></trkpt>
<trkpt lat="39.719753" lon="2.738049"><ele>617.78</ele><time>2009-09-12T09:07:12Z</time></trkpt>
<trkpt lat="39.719794" lon="2.738064"><ele>618.26</ele><time>2009-09-12T09:07:18Z</time></trkpt>
<trkpt lat="39.719880" lon="2.738033"><ele>619.23</ele><time>2009-09-12T09:07:25Z</time></trkpt>
<trkpt lat="39.720001" lon="2.737995"><ele>620.19</ele><time>2009-09-12T09:07:36Z</time></trkpt>
<trkpt lat="39.720049" lon="2.737950"><ele>621.15</ele><time>2009-09-12T09:07:45Z</time></trkpt>
<trkpt lat="39.720075" lon="2.737925"><ele>622.11</ele><time>2009-09-12T09:07:51Z</time></trkpt>
<trkpt lat="39.720111" lon="2.737846"><ele>623.07</ele><time>2009-09-12T09:07:59Z</time></trkpt>
<trkpt lat="39.720195" lon="2.737786"><ele>624.03</ele><time>2009-09-12T09:08:08Z</time></trkpt>
<trkpt lat="39.720277" lon="2.737725"><ele>624.99</ele><time>2009-09-12T09:08:16Z</time></trkpt>
<trkpt lat="39.720332" lon="2.737714"><ele>625.47</ele><time>2009-09-12T09:08:22Z</time></trkpt>
<trkpt lat="39.720329" lon="2.737625"><ele>626.92</ele><time>2009-09-12T09:08:31Z</time></trkpt>
<trkpt lat="39.720352" lon="2.737530"><ele>627.88</ele><time>2009-09-12T09:08:43Z</time></trkpt>
<trkpt lat="39.720352" lon="2.737472"><ele>628.36</ele><time>2009-09-12T09:08:55Z</time></trkpt>
<trkpt lat="39.720391" lon="2.737401"><ele>629.32</ele><time>2009-09-12T09:09:06Z</time></trkpt>
<trkpt lat="39.720405" lon="2.737335"><ele>630.28</ele><time>2009-09-12T09:09:16Z</time></trkpt>
<trkpt lat="39.720415" lon="2.737336"><ele>630.28</ele><time>2009-09-12T09:09:21Z</time></trkpt>
<trkpt lat="39.720463" lon="2.737283"><ele>630.76</ele><time>2009-09-12T09:09:29Z</time></trkpt>
<trkpt lat="39.720511" lon="2.737150"><ele>632.20</ele><time>2009-09-12T09:09:38Z</time></trkpt>
<trkpt lat="39.720565" lon="2.737039"><ele>633.65</ele><time>2009-09-12T09:09:46Z</time></trkpt>
<trkpt lat="39.720606" lon="2.736904"><ele>636.05</ele><time>2009-09-12T09:09:54Z</time></trkpt>
<trkpt lat="39.720668" lon="2.736822"><ele>637.49</ele><time>2009-09-12T09:10:04Z</time></trkpt>
<trkpt lat="39.720708" lon="2.736755"><ele>639.41</ele><time>2009-09-12T09:10:14Z</time></trkpt>
<trkpt lat="39.720750" lon="2.736698"><ele>640.86</ele><time>2009-09-12T09:10:26Z</time></trkpt>
<trkpt lat="39.720809" lon="2.736627"><ele>641.82</ele><time>2009-09-12T09:10:37Z</time></trkpt>
<trkpt lat="39.720828" lon="2.736622"><ele>642.30</ele><time>2009-09-12T09:10:51Z</time></trkpt>
<trkpt lat="39.720870" lon="2.736597"><ele>641.82</ele><time>2009-09-12T09:11:08Z</time></trkpt>
<trkpt lat="39.720957" lon="2.736536"><ele>641.34</ele><time>2009-09-12T09:11:14Z</time></trkpt>
<trkpt lat="39.721003" lon="2.736437"><ele>641.34</ele><time>2009-09-12T09:11:22Z</time></trkpt>
<trkpt lat="39.721043" lon="2.736405"><ele>641.82</ele><time>2009-09-12T09:11:34Z</time></trkpt>
<trkpt lat="39.721096" lon="2.736314"><ele>640.38</ele><time>2009-09-12T09:11:43Z</time></trkpt>
<trkpt lat="39.721137" lon="2.736268"><ele>639.89</ele><time>2009-09-12T09:11:46Z</time></trkpt>
<trkpt lat="39.721145" lon="2.736221"><ele>639.89</ele><time>2009-09-12T09:11:48Z</time></trkpt>
<trkpt lat="39.721253" lon="2.736003"><ele>636.53</ele><time>2009-09-12T09:11:57Z</time></trkpt>
<trkpt lat="39.721336" lon="2.735911"><ele>635.57</ele><time>2009-09-12T09:12:01Z</time></trkpt>
<trkpt lat="39.721459" lon="2.735776"><ele>632.20</ele><time>2009-09-12T09:12:08Z</time></trkpt>
<trkpt lat="39.721545" lon="2.735702"><ele>628.36</ele><time>2009-09-12T09:12:12Z</time></trkpt>
<trkpt lat="39.721565" lon="2.735668"><ele>626.44</ele><time>2009-09-12T09:12:14Z</time></trkpt>
<trkpt lat="39.721673" lon="2.735557"><ele>623.55</ele><time>2009-09-12T09:12:18Z</time></trkpt>
<trkpt lat="39.721791" lon="2.735431"><ele>623.55</ele><time>2009-09-12T09:12:24Z</time></trkpt>
<trkpt lat="39.721910" lon="2.735265"><ele>621.63</ele><time>2009-09-12T09:12:36Z</time></trkpt>
<trkpt lat="39.721938" lon="2.735225"><ele>621.63</ele><time>2009-09-12T09:12:44Z</time></trkpt>
<trkpt lat="39.721970" lon="2.735174"><ele>623.07</ele><time>2009-09-12T09:13:18Z</time></trkpt>
<trkpt lat="39.722009" lon="2.735108"><ele>624.03</ele><time>2009-09-12T09:13:35Z</time></trkpt>
<trkpt lat="39.722034" lon="2.735090"><ele>624.51</ele><time>2009-09-12T09:13:37Z</time></trkpt>
<trkpt lat="39.722068" lon="2.734973"><ele>625.96</ele><time>2009-09-12T09:13:43Z</time></trkpt>
<trkpt lat="39.722119" lon="2.734957"><ele>626.92</ele><time>2009-09-12T09:13:46Z</time></trkpt>
<trkpt lat="39.722152" lon="2.734920"><ele>627.40</ele><time>2009-09-12T09:13:49Z</time></trkpt>
<trkpt lat="39.722239" lon="2.734778"><ele>629.32</ele><time>2009-09-12T09:14:00Z</time></trkpt>
<trkpt lat="39.722252" lon="2.734749"><ele>629.80</ele><time>2009-09-12T09:14:02Z</time></trkpt>
<trkpt lat="39.722341" lon="2.734659"><ele>631.24</ele><time>2009-09-12T09:14:12Z</time></trkpt>
<trkpt lat="39.722469" lon="2.734587"><ele>632.68</ele><time>2009-09-12T09:14:22Z</time></trkpt>
<trkpt lat="39.722557" lon="2.734544"><ele>633.65</ele><time>2009-09-12T09:14:30Z</time></trkpt>
<trkpt lat="39.722616" lon="2.734453"><ele>635.09</ele><time>2009-09-12T09:14:39Z</time></trkpt>
<trkpt lat="39.722617" lon="2.734422"><ele>636.05</ele><time>2009-09-12T09:14:48Z</time></trkpt>
<trkpt lat="39.722638" lon="2.734328"><ele>637.49</ele><time>2009-09-12T09:14:59Z</time></trkpt>
<trkpt lat="39.722636" lon="2.734227"><ele>638.93</ele><time>2009-09-12T09:15:11Z</time></trkpt>
<trkpt lat="39.722606" lon="2.734115"><ele>641.34</ele><time>2009-09-12T09:15:25Z</time></trkpt>
<trkpt lat="39.722623" lon="2.734028"><ele>642.78</ele><time>2009-09-12T09:15:35Z</time></trkpt>
<trkpt lat="39.722652" lon="2.733977"><ele>643.26</ele><time>2009-09-12T09:15:42Z</time></trkpt>
<trkpt lat="39.722688" lon="2.733945"><ele>643.74</ele><time>2009-09-12T09:15:46Z</time></trkpt>
<trkpt lat="39.722723" lon="2.733943"><ele>644.22</ele><time>2009-09-12T09:15:54Z</time></trkpt>
<trkpt lat="39.722828" lon="2.733890"><ele>644.70</ele><time>2009-09-12T09:16:02Z</time></trkpt>
<trkpt lat="39.722851" lon="2.733874"><ele>645.18</ele><time>2009-09-12T09:16:04Z</time></trkpt>
<trkpt lat="39.722872" lon="2.733801"><ele>646.14</ele><time>2009-09-12T09:16:09Z</time></trkpt>
<trkpt lat="39.722944" lon="2.733680"><ele>647.59</ele><time>2009-09-12T09:16:17Z</time></trkpt>
<trkpt lat="39.723048" lon="2.733653"><ele>648.55</ele><time>2009-09-12T09:16:26Z</time></trkpt>
<trkpt lat="39.723133" lon="2.733635"><ele>649.03</ele><time>2009-09-12T09:16:34Z</time></trkpt>
<trkpt lat="39.723134" lon="2.733628"><ele>649.51</ele><time>2009-09-12T09:16:59Z</time></trkpt>
<trkpt lat="39.723138" lon="2.733627"><ele>650.47</ele><time>2009-09-12T09:18:10Z</time></trkpt>
<trkpt lat="39.723138" lon="2.733628"><ele>666.81</ele><time>2009-09-12T09:18:20Z</time></trkpt>
<trkpt lat="39.723138" lon="2.733628"><ele>666.81</ele><time>2009-09-12T09:18:21Z</time></trkpt>
<trkpt lat="39.723178" lon="2.733614"><ele>666.33</ele><time>2009-09-12T09:18:45Z</time></trkpt>
<trkpt lat="39.723223" lon="2.733587"><ele>665.85</ele><time>2009-09-12T09:18:48Z</time></trkpt>
<trkpt lat="39.723278" lon="2.733507"><ele>664.89</ele><time>2009-09-12T09:18:52Z</time></trkpt>
<trkpt lat="39.723370" lon="2.733404"><ele>664.89</ele><time>2009-09-12T09:18:58Z</time></trkpt>
<trkpt lat="39.723438" lon="2.733379"><ele>664.89</ele><time>2009-09-12T09:19:02Z</time></trkpt>
<trkpt lat="39.723446" lon="2.733357"><ele>664.89</ele><time>2009-09-12T09:19:03Z</time></trkpt>
<trkpt lat="39.723506" lon="2.733224"><ele>664.89</ele><time>2009-09-12T09:19:08Z</time></trkpt>
<trkpt lat="39.723520" lon="2.733005"><ele>662.97</ele><time>2009-09-12T09:19:14Z</time></trkpt>
<trkpt lat="39.723469" lon="2.732768"><ele>661.52</ele><time>2009-09-12T09:19:20Z</time></trkpt>
<trkpt lat="39.723527" lon="2.732777"><ele>660.08</ele><time>2009-09-12T09:19:25Z</time></trkpt>
<trkpt lat="39.723646" lon="2.733020"><ele>656.24</ele><time>2009-09-12T09:19:33Z</time></trkpt>
<trkpt lat="39.723726" lon="2.733228"><ele>653.35</ele><time>2009-09-12T09:19:40Z</time></trkpt>
<trkpt lat="39.723809" lon="2.733422"><ele>650.47</ele><time>2009-09-12T09:19:46Z</time></trkpt>
<trkpt lat="39.723884" lon="2.733597"><ele>647.10</ele><time>2009-09-12T09:19:51Z</time></trkpt>
<trkpt lat="39.723919" lon="2.733677"><ele>645.66</ele><time>2009-09-12T09:19:54Z</time></trkpt>
<trkpt lat="39.723959" lon="2.733879"><ele>641.82</ele><time>2009-09-12T09:20:00Z</time></trkpt>
<trkpt lat="39.723998" lon="2.733990"><ele>639.89</ele><time>2009-09-12T09:20:03Z</time></trkpt>
<trkpt lat="39.724011" lon="2.734083"><ele>638.45</ele><time>2009-09-12T09:20:06Z</time></trkpt>
<trkpt lat="39.724036" lon="2.734099"><ele>637.49</ele><time>2009-09-12T09:20:10Z</time></trkpt>
<trkpt lat="39.724048" lon="2.733925"><ele>635.57</ele><time>2009-09-12T09:20:16Z</time></trkpt>
<trkpt lat="39.724053" lon="2.733680"><ele>633.65</ele><time>2009-09-12T09:20:24Z</time></trkpt>
<trkpt lat="39.724059" lon="2.733476"><ele>631.72</ele><time>2009-09-12T09:20:32Z</time></trkpt>
<trkpt lat="39.724061" lon="2.733305"><ele>629.80</ele><time>2009-09-12T09:20:39Z</time></trkpt>
<trkpt lat="39.724077" lon="2.733123"><ele>627.88</ele><time>2009-09-12T09:20:45Z</time></trkpt>
<trkpt lat="39.724064" lon="2.733032"><ele>626.44</ele><time>2009-09-12T09:20:48Z</time></trkpt>
<trkpt lat="39.724136" lon="2.732878"><ele>624.51</ele><time>2009-09-12T09:20:53Z</time></trkpt>
<trkpt lat="39.724185" lon="2.732753"><ele>622.11</ele><time>2009-09-12T09:20:59Z</time></trkpt>
<trkpt lat="39.724199" lon="2.732727"><ele>622.11</ele><time>2009-09-12T09:21:00Z</time></trkpt>
<trkpt lat="39.724318" lon="2.732557"><ele>618.75</ele><time>2009-09-12T09:21:08Z</time></trkpt>
<trkpt lat="39.724436" lon="2.732399"><ele>615.86</ele><time>2009-09-12T09:21:15Z</time></trkpt>
<trkpt lat="39.724501" lon="2.732269"><ele>614.42</ele><time>2009-09-12T09:21:20Z</time></trkpt>
<trkpt lat="39.724508" lon="2.732208"><ele>612.98</ele><time>2009-09-12T09:21:22Z</time></trkpt>
<trkpt lat="39.724567" lon="2.732184"><ele>611.54</ele><time>2009-09-12T09:21:26Z</time></trkpt>
<trkpt lat="39.724569" lon="2.732277"><ele>610.57</ele><time>2009-09-12T09:21:29Z</time></trkpt>
<trkpt lat="39.724564" lon="2.732353"><ele>610.09</ele><time>2009-09-12T09:21:31Z</time></trkpt>
<trkpt lat="39.724571" lon="2.732545"><ele>608.17</ele><time>2009-09-12T09:21:36Z</time></trkpt>
<trkpt lat="39.724570" lon="2.732682"><ele>606.25</ele><time>2009-09-12T09:21:40Z</time></trkpt>
<trkpt lat="39.724626" lon="2.732742"><ele>604.33</ele><time>2009-09-12T09:21:44Z</time></trkpt>
<trkpt lat="39.724722" lon="2.732706"><ele>602.40</ele><time>2009-09-12T09:21:49Z</time></trkpt>
<trkpt lat="39.724851" lon="2.732666"><ele>599.52</ele><time>2009-09-12T09:21:54Z</time></trkpt>
<trkpt lat="39.724981" lon="2.732649"><ele>596.64</ele><time>2009-09-12T09:21:59Z</time></trkpt>
<trkpt lat="39.725045" lon="2.732634"><ele>595.19</ele><time>2009-09-12T09:22:01Z</time></trkpt>
<trkpt lat="39.725171" lon="2.732417"><ele>593.27</ele><time>2009-09-12T09:22:07Z</time></trkpt>
<trkpt lat="39.725236" lon="2.732265"><ele>591.35</ele><time>2009-09-12T09:22:11Z</time></trkpt>
<trkpt lat="39.725296" lon="2.732202"><ele>589.91</ele><time>2009-09-12T09:22:13Z</time></trkpt>
<trkpt lat="39.725408" lon="2.732125"><ele>588.46</ele><time>2009-09-12T09:22:16Z</time></trkpt>
<trkpt lat="39.725459" lon="2.732153"><ele>587.98</ele><time>2009-09-12T09:22:20Z</time></trkpt>
<trkpt lat="39.725447" lon="2.732201"><ele>587.98</ele><time>2009-09-12T09:23:39Z</time></trkpt>
<trkpt lat="39.725454" lon="2.732230"><ele>587.98</ele><time>2009-09-12T09:24:51Z</time></trkpt>
<trkpt lat="39.725460" lon="2.732266"><ele>588.95</ele><time>2009-09-12T09:25:05Z</time></trkpt>
<trkpt lat="39.725504" lon="2.732399"><ele>590.39</ele><time>2009-09-12T09:25:12Z</time></trkpt>
<trkpt lat="39.725521" lon="2.732430"><ele>590.87</ele><time>2009-09-12T09:25:14Z</time></trkpt>
<trkpt lat="39.725543" lon="2.732546"><ele>591.35</ele><time>2009-09-12T09:25:20Z</time></trkpt>
<trkpt lat="39.725504" lon="2.732785"><ele>591.83</ele><time>2009-09-12T09:25:30Z</time></trkpt>
<trkpt lat="39.725413" lon="2.732887"><ele>591.83</ele><time>2009-09-12T09:25:35Z</time></trkpt>
<trkpt lat="39.725278" lon="2.732929"><ele>591.83</ele><time>2009-09-12T09:25:42Z</time></trkpt>
<trkpt lat="39.725073" lon="2.733069"><ele>589.91</ele><time>2009-09-12T09:25:50Z</time></trkpt>
<trkpt lat="39.724993" lon="2.733323"><ele>588.46</ele><time>2009-09-12T09:25:55Z</time></trkpt>
<trkpt lat="39.724970" lon="2.733435"><ele>587.98</ele><time>2009-09-12T09:25:57Z</time></trkpt>
<trkpt lat="39.725033" lon="2.733641"><ele>586.54</ele><time>2009-09-12T09:26:01Z</time></trkpt>
<trkpt lat="39.725099" lon="2.733868"><ele>585.10</ele><time>2009-09-12T09:26:05Z</time></trkpt>
<trkpt lat="39.725241" lon="2.733906"><ele>582.22</ele><time>2009-09-12T09:26:10Z</time></trkpt>
<trkpt lat="39.725277" lon="2.733895"><ele>581.73</ele><time>2009-09-12T09:26:11Z</time></trkpt>
<trkpt lat="39.725359" lon="2.734078"><ele>579.81</ele><time>2009-09-12T09:26:16Z</time></trkpt>
<trkpt lat="39.725430" lon="2.734455"><ele>577.41</ele><time>2009-09-12T09:26:23Z</time></trkpt>
<trkpt lat="39.725424" lon="2.734559"><ele>575.97</ele><time>2009-09-12T09:26:25Z</time></trkpt>
<trkpt lat="39.725369" lon="2.734707"><ele>573.08</ele><time>2009-09-12T09:26:28Z</time></trkpt>
<trkpt lat="39.725331" lon="2.734956"><ele>568.28</ele><time>2009-09-12T09:26:32Z</time></trkpt>
<trkpt lat="39.725347" lon="2.735024"><ele>567.32</ele><time>2009-09-12T09:26:33Z</time></trkpt>
<trkpt lat="39.725388" lon="2.735206"><ele>564.43</ele><time>2009-09-12T09:26:36Z</time></trkpt>
<trkpt lat="39.725507" lon="2.735274"><ele>560.59</ele><time>2009-09-12T09:26:40Z</time></trkpt>
<trkpt lat="39.725619" lon="2.735264"><ele>557.22</ele><time>2009-09-12T09:26:44Z</time></trkpt>
<trkpt lat="39.725667" lon="2.735279"><ele>556.26</ele><time>2009-09-12T09:26:46Z</time></trkpt>
<trkpt lat="39.725765" lon="2.735330"><ele>555.30</ele><time>2009-09-12T09:26:49Z</time></trkpt>
<trkpt lat="39.725915" lon="2.735377"><ele>554.82</ele><time>2009-09-12T09:26:53Z</time></trkpt>
<trkpt lat="39.726085" lon="2.735582"><ele>553.38</ele><time>2009-09-12T09:26:58Z</time></trkpt>
<trkpt lat="39.726163" lon="2.735924"><ele>552.41</ele><time>2009-09-12T09:27:05Z</time></trkpt>
<trkpt lat="39.726207" lon="2.736026"><ele>551.93</ele><time>2009-09-12T09:27:10Z</time></trkpt>
<trkpt lat="39.726228" lon="2.736050"><ele>551.45</ele><time>2009-09-12T09:27:13Z</time></trkpt>
<trkpt lat="39.726223" lon="2.736100"><ele>550.97</ele><time>2009-09-12T09:27:17Z</time></trkpt>
<trkpt lat="39.726069" lon="2.736284"><ele>551.93</ele><time>2009-09-12T09:27:32Z</time></trkpt>
<trkpt lat="39.725944" lon="2.736381"><ele>552.41</ele><time>2009-09-12T09:27:40Z</time></trkpt>
<trkpt lat="39.725828" lon="2.736587"><ele>552.41</ele><time>2009-09-12T09:27:47Z</time></trkpt>
<trkpt lat="39.725874" lon="2.736891"><ele>550.97</ele><time>2009-09-12T09:27:53Z</time></trkpt>
<trkpt lat="39.725929" lon="2.737212"><ele>552.41</ele><time>2009-09-12T09:28:00Z</time></trkpt>
<trkpt lat="39.726030" lon="2.737426"><ele>552.90</ele><time>2009-09-12T09:28:05Z</time></trkpt>
<trkpt lat="39.726033" lon="2.737470"><ele>552.90</ele><time>2009-09-12T09:28:06Z</time></trkpt>
<trkpt lat="39.726029" lon="2.737639"><ele>553.38</ele><time>2009-09-12T09:28:12Z</time></trkpt>
<trkpt lat="39.726025" lon="2.737678"><ele>553.38</ele><time>2009-09-12T09:28:21Z</time></trkpt>
<trkpt lat="39.725998" lon="2.737755"><ele>553.86</ele><time>2009-09-12T09:28:28Z</time></trkpt>
<trkpt lat="39.725997" lon="2.737813"><ele>554.34</ele><time>2009-09-12T09:28:32Z</time></trkpt>
<trkpt lat="39.725968" lon="2.737971"><ele>555.30</ele><time>2009-09-12T09:28:39Z</time></trkpt>
<trkpt lat="39.725946" lon="2.738024"><ele>555.30</ele><time>2009-09-12T09:28:41Z</time></trkpt>
<trkpt lat="39.725990" lon="2.738280"><ele>557.22</ele><time>2009-09-12T09:28:49Z</time></trkpt>
<trkpt lat="39.725992" lon="2.738300"><ele>557.70</ele><time>2009-09-12T09:28:50Z</time></trkpt>
<trkpt lat="39.726054" lon="2.738402"><ele>558.18</ele><time>2009-09-12T09:28:55Z</time></trkpt>
<trkpt lat="39.726018" lon="2.738683"><ele>558.18</ele><time>2009-09-12T09:29:05Z</time></trkpt>
<trkpt lat="39.726000" lon="2.738841"><ele>557.70</ele><time>2009-09-12T09:29:11Z</time></trkpt>
<trkpt lat="39.725930" lon="2.738893"><ele>557.70</ele><time>2009-09-12T09:29:15Z</time></trkpt>
<trkpt lat="39.725869" lon="2.738986"><ele>557.70</ele><time>2009-09-12T09:29:20Z</time></trkpt>
<trkpt lat="39.725814" lon="2.739150"><ele>556.74</ele><time>2009-09-12T09:29:26Z</time></trkpt>
<trkpt lat="39.725709" lon="2.739369"><ele>556.26</ele><time>2009-09-12T09:29:31Z</time></trkpt>
<trkpt lat="39.725699" lon="2.739395"><ele>556.26</ele><time>2009-09-12T09:29:32Z</time></trkpt>
<trkpt lat="39.725655" lon="2.739510"><ele>556.26</ele><time>2009-09-12T09:29:35Z</time></trkpt>
<trkpt lat="39.725583" lon="2.739706"><ele>555.78</ele><time>2009-09-12T09:29:41Z</time></trkpt>
<trkpt lat="39.725542" lon="2.739965"><ele>555.30</ele><time>2009-09-12T09:29:47Z</time></trkpt>
<trkpt lat="39.725477" lon="2.740182"><ele>554.82</ele><time>2009-09-12T09:29:52Z</time></trkpt>
<trkpt lat="39.725411" lon="2.740385"><ele>553.38</ele><time>2009-09-12T09:29:56Z</time></trkpt>
<trkpt lat="39.725223" lon="2.740752"><ele>551.93</ele><time>2009-09-12T09:30:04Z</time></trkpt>
<trkpt lat="39.725214" lon="2.740768"><ele>551.93</ele><time>2009-09-12T09:30:05Z</time></trkpt>
<trkpt lat="39.725266" lon="2.741041"><ele>547.61</ele><time>2009-09-12T09:30:10Z</time></trkpt>
<trkpt lat="39.725300" lon="2.741121"><ele>545.69</ele><time>2009-09-12T09:30:12Z</time></trkpt>
<trkpt lat="39.725291" lon="2.741195"><ele>545.20</ele><time>2009-09-12T09:30:14Z</time></trkpt>
<trkpt lat="39.725220" lon="2.741262"><ele>544.24</ele><time>2009-09-12T09:30:16Z</time></trkpt>
<trkpt lat="39.725128" lon="2.741360"><ele>543.28</ele><time>2009-09-12T09:30:18Z</time></trkpt>
<trkpt lat="39.725068" lon="2.741450"><ele>542.32</ele><time>2009-09-12T09:30:20Z</time></trkpt>
<trkpt lat="39.725034" lon="2.741537"><ele>541.36</ele><time>2009-09-12T09:30:21Z</time></trkpt>
<trkpt lat="39.724822" lon="2.741714"><ele>539.44</ele><time>2009-09-12T09:30:27Z</time></trkpt>
<trkpt lat="39.724694" lon="2.741849"><ele>538.48</ele><time>2009-09-12T09:30:32Z</time></trkpt>
<trkpt lat="39.724648" lon="2.742048"><ele>535.59</ele><time>2009-09-12T09:30:37Z</time></trkpt>
<trkpt lat="39.724616" lon="2.742244"><ele>533.67</ele><time>2009-09-12T09:30:42Z</time></trkpt>
<trkpt lat="39.724618" lon="2.742281"><ele>532.71</ele><time>2009-09-12T09:30:43Z</time></trkpt>
<trkpt lat="39.724660" lon="2.742324"><ele>531.27</ele><time>2009-09-12T09:30:45Z</time></trkpt>
<trkpt lat="39.724689" lon="2.742461"><ele>528.38</ele><time>2009-09-12T09:30:50Z</time></trkpt>
<trkpt lat="39.724735" lon="2.742547"><ele>525.02</ele><time>2009-09-12T09:30:54Z</time></trkpt>
<trkpt lat="39.724944" lon="2.742435"><ele>522.61</ele><time>2009-09-12T09:30:58Z</time></trkpt>
<trkpt lat="39.724983" lon="2.742409"><ele>522.13</ele><time>2009-09-12T09:30:59Z</time></trkpt>
<trkpt lat="39.725200" lon="2.742508"><ele>519.73</ele><time>2009-09-12T09:31:04Z</time></trkpt>
<trkpt lat="39.725250" lon="2.742578"><ele>517.81</ele><time>2009-09-12T09:31:06Z</time></trkpt>
<trkpt lat="39.725363" lon="2.742739"><ele>513.48</ele><time>2009-09-12T09:31:10Z</time></trkpt>
<trkpt lat="39.725459" lon="2.742875"><ele>511.08</ele><time>2009-09-12T09:31:15Z</time></trkpt>
<trkpt lat="39.725463" lon="2.742905"><ele>511.08</ele><time>2009-09-12T09:31:16Z</time></trkpt>
<trkpt lat="39.725538" lon="2.743002"><ele>510.12</ele><time>2009-09-12T09:31:21Z</time></trkpt>
<trkpt lat="39.725509" lon="2.743076"><ele>508.19</ele><time>2009-09-12T09:31:24Z</time></trkpt>
<trkpt lat="39.725504" lon="2.743098"><ele>507.71</ele><time>2009-09-12T09:31:25Z</time></trkpt>
<trkpt lat="39.725470" lon="2.743221"><ele>504.83</ele><time>2009-09-12T09:31:29Z</time></trkpt>
<trkpt lat="39.725458" lon="2.743287"><ele>502.91</ele><time>2009-09-12T09:31:33Z</time></trkpt>
<trkpt lat="39.725433" lon="2.743425"><ele>500.98</ele><time>2009-09-12T09:31:37Z</time></trkpt>
<trkpt lat="39.725390" lon="2.743521"><ele>499.54</ele><time>2009-09-12T09:31:43Z</time></trkpt>
<trkpt lat="39.725363" lon="2.743677"><ele>498.10</ele><time>2009-09-12T09:31:51Z</time></trkpt>
<trkpt lat="39.725384" lon="2.743813"><ele>496.66</ele><time>2009-09-12T09:31:55Z</time></trkpt>
<trkpt lat="39.725382" lon="2.743930"><ele>494.74</ele><time>2009-09-12T09:31:59Z</time></trkpt>
<trkpt lat="39.725416" lon="2.744006"><ele>493.77</ele><time>2009-09-12T09:32:02Z</time></trkpt>
<trkpt lat="39.725484" lon="2.744175"><ele>491.37</ele><time>2009-09-12T09:32:08Z</time></trkpt>
<trkpt lat="39.725539" lon="2.744277"><ele>490.89</ele><time>2009-09-12T09:32:14Z</time></trkpt>
<trkpt lat="39.725623" lon="2.744393"><ele>487.53</ele><time>2009-09-12T09:32:23Z</time></trkpt>
<trkpt lat="39.725657" lon="2.744437"><ele>486.08</ele><time>2009-09-12T09:32:26Z</time></trkpt>
<trkpt lat="39.725722" lon="2.744470"><ele>482.24</ele><time>2009-09-12T09:32:30Z</time></trkpt>
<trkpt lat="39.725740" lon="2.744476"><ele>481.76</ele><time>2009-09-12T09:32:31Z</time></trkpt>
<trkpt lat="39.725850" lon="2.744605"><ele>477.91</ele><time>2009-09-12T09:32:37Z</time></trkpt>
<trkpt lat="39.725885" lon="2.744747"><ele>473.59</ele><time>2009-09-12T09:32:42Z</time></trkpt>
<trkpt lat="39.725942" lon="2.744879"><ele>470.70</ele><time>2009-09-12T09:32:47Z</time></trkpt>
<trkpt lat="39.725964" lon="2.745043"><ele>467.34</ele><time>2009-09-12T09:32:53Z</time></trkpt>
<trkpt lat="39.726001" lon="2.745118"><ele>465.90</ele><time>2009-09-12T09:32:57Z</time></trkpt>
<trkpt lat="39.726003" lon="2.745187"><ele>462.53</ele><time>2009-09-12T09:33:01Z</time></trkpt>
<trkpt lat="39.725993" lon="2.745276"><ele>461.57</ele><time>2009-09-12T09:33:03Z</time></trkpt>
<trkpt lat="39.725917" lon="2.745339"><ele>457.72</ele><time>2009-09-12T09:33:09Z</time></trkpt>
<trkpt lat="39.725889" lon="2.745362"><ele>456.28</ele><time>2009-09-12T09:33:11Z</time></trkpt>
<trkpt lat="39.725865" lon="2.745518"><ele>452.44</ele><time>2009-09-12T09:33:16Z</time></trkpt>
<trkpt lat="39.725887" lon="2.745606"><ele>449.07</ele><time>2009-09-12T09:33:20Z</time></trkpt>
<trkpt lat="39.725888" lon="2.745701"><ele>447.15</ele><time>2009-09-12T09:33:23Z</time></trkpt>
<trkpt lat="39.725920" lon="2.745813"><ele>442.82</ele><time>2009-09-12T09:33:29Z</time></trkpt>
<trkpt lat="39.725904" lon="2.745859"><ele>439.46</ele><time>2009-09-12T09:33:33Z</time></trkpt>
<trkpt lat="39.725857" lon="2.746031"><ele>436.58</ele><time>2009-09-12T09:33:37Z</time></trkpt>
<trkpt lat="39.725792" lon="2.746171"><ele>432.73</ele><time>2009-09-12T09:33:43Z</time></trkpt>
<trkpt lat="39.725764" lon="2.746220"><ele>431.29</ele><time>2009-09-12T09:33:45Z</time></trkpt>
<trkpt lat="39.725716" lon="2.746274"><ele>428.40</ele><time>2009-09-12T09:33:50Z</time></trkpt>
<trkpt lat="39.725674" lon="2.746378"><ele>425.04</ele><time>2009-09-12T09:33:55Z</time></trkpt>
<trkpt lat="39.725650" lon="2.746390"><ele>423.60</ele><time>2009-09-12T09:33:58Z</time></trkpt>
<trkpt lat="39.725624" lon="2.746433"><ele>423.12</ele><time>2009-09-12T09:34:08Z</time></trkpt>
<trkpt lat="39.725649" lon="2.746517"><ele>423.12</ele><time>2009-09-12T09:34:19Z</time></trkpt>
<trkpt lat="39.725645" lon="2.746518"><ele>423.12</ele><time>2009-09-12T09:34:29Z</time></trkpt>
<trkpt lat="39.725647" lon="2.746584"><ele>420.71</ele><time>2009-09-12T09:34:40Z</time></trkpt>
<trkpt lat="39.725652" lon="2.746640"><ele>419.27</ele><time>2009-09-12T09:34:44Z</time></trkpt>
<trkpt lat="39.725695" lon="2.746711"><ele>418.31</ele><time>2009-09-12T09:34:56Z</time></trkpt>
<trkpt lat="39.725721" lon="2.746754"><ele>414.47</ele><time>2009-09-12T09:35:11Z</time></trkpt>
<trkpt lat="39.725713" lon="2.746762"><ele>413.50</ele><time>2009-09-12T09:35:12Z</time></trkpt>
<trkpt lat="39.725656" lon="2.746818"><ele>413.02</ele><time>2009-09-12T09:35:16Z</time></trkpt>
<trkpt lat="39.725636" lon="2.746885"><ele>413.02</ele><time>2009-09-12T09:35:25Z</time></trkpt>
<trkpt lat="39.725636" lon="2.746894"><ele>412.54</ele><time>2009-09-12T09:35:54Z</time></trkpt>
<trkpt lat="39.725635" lon="2.746895"><ele>413.02</ele><time>2009-09-12T09:36:20Z</time></trkpt>
<trkpt lat="39.725504" lon="2.746994"><ele>411.58</ele><time>2009-09-12T09:36:26Z</time></trkpt>
<trkpt lat="39.725317" lon="2.747062"><ele>410.62</ele><time>2009-09-12T09:36:32Z</time></trkpt>
<trkpt lat="39.725259" lon="2.747120"><ele>409.66</ele><time>2009-09-12T09:36:36Z</time></trkpt>
<trkpt lat="39.725214" lon="2.747101"><ele>409.66</ele><time>2009-09-12T09:36:43Z</time></trkpt>
<trkpt lat="39.725206" lon="2.747092"><ele>409.18</ele><time>2009-09-12T09:36:59Z</time></trkpt>
<trkpt lat="39.725182" lon="2.747100"><ele>408.70</ele><time>2009-09-12T09:37:08Z</time></trkpt>
<trkpt lat="39.725150" lon="2.747121"><ele>409.66</ele><time>2009-09-12T09:38:33Z</time></trkpt>
<trkpt lat="39.725075" lon="2.747113"><ele>409.18</ele><time>2009-09-12T09:38:51Z</time></trkpt>
<trkpt lat="39.724939" lon="2.747085"><ele>408.70</ele><time>2009-09-12T09:39:01Z</time></trkpt>
<trkpt lat="39.724738" lon="2.747026"><ele>409.66</ele><time>2009-09-12T09:39:10Z</time></trkpt>
<trkpt lat="39.724692" lon="2.747036"><ele>409.66</ele><time>2009-09-12T09:39:12Z</time></trkpt>
<trkpt lat="39.724652" lon="2.747180"><ele>410.62</ele><time>2009-09-12T09:39:19Z</time></trkpt>
<trkpt lat="39.724564" lon="2.747341"><ele>412.06</ele><time>2009-09-12T09:39:28Z</time></trkpt>
<trkpt lat="39.724526" lon="2.747437"><ele>413.02</ele><time>2009-09-12T09:39:36Z</time></trkpt>
<trkpt lat="39.724502" lon="2.747471"><ele>413.02</ele><time>2009-09-12T09:39:38Z</time></trkpt>
<trkpt lat="39.724491" lon="2.747501"><ele>413.50</ele><time>2009-09-12T09:39:40Z</time></trkpt>
<trkpt lat="39.724456" lon="2.747638"><ele>414.95</ele><time>2009-09-12T09:39:47Z</time></trkpt>
<trkpt lat="39.724443" lon="2.747653"><ele>414.95</ele><time>2009-09-12T09:39:48Z</time></trkpt>
<trkpt lat="39.724365" lon="2.747732"><ele>416.39</ele><time>2009-09-12T09:39:56Z</time></trkpt>
<trkpt lat="39.724286" lon="2.747766"><ele>417.35</ele><time>2009-09-12T09:40:02Z</time></trkpt>
<trkpt lat="39.724254" lon="2.747770"><ele>417.83</ele><time>2009-09-12T09:40:04Z</time></trkpt>
<trkpt lat="39.724105" lon="2.747832"><ele>419.75</ele><time>2009-09-12T09:40:14Z</time></trkpt>
<trkpt lat="39.724040" lon="2.747834"><ele>421.19</ele><time>2009-09-12T09:40:19Z</time></trkpt>
<trkpt lat="39.724019" lon="2.747870"><ele>421.68</ele><time>2009-09-12T09:40:23Z</time></trkpt>
<trkpt lat="39.723921" lon="2.747956"><ele>424.08</ele><time>2009-09-12T09:40:32Z</time></trkpt>
<trkpt lat="39.723883" lon="2.747981"><ele>425.04</ele><time>2009-09-12T09:40:36Z</time></trkpt>
<trkpt lat="39.723800" lon="2.747992"><ele>426.48</ele><time>2009-09-12T09:40:44Z</time></trkpt>
<trkpt lat="39.723742" lon="2.748004"><ele>426.48</ele><time>2009-09-12T09:40:53Z</time></trkpt>
<trkpt lat="39.723694" lon="2.748018"><ele>427.92</ele><time>2009-09-12T09:41:02Z</time></trkpt>
<trkpt lat="39.723701" lon="2.748060"><ele>428.89</ele><time>2009-09-12T09:41:08Z</time></trkpt>
<trkpt lat="39.723732" lon="2.748040"><ele>428.89</ele><time>2009-09-12T09:41:11Z</time></trkpt>
<trkpt lat="39.723797" lon="2.748003"><ele>429.85</ele><time>2009-09-12T09:41:20Z</time></trkpt>
<trkpt lat="39.723852" lon="2.748034"><ele>431.29</ele><time>2009-09-12T09:41:28Z</time></trkpt>
<trkpt lat="39.723918" lon="2.748038"><ele>432.73</ele><time>2009-09-12T09:41:38Z</time></trkpt>
<trkpt lat="39.723929" lon="2.748104"><ele>433.69</ele><time>2009-09-12T09:41:47Z</time></trkpt>
<trkpt lat="39.723861" lon="2.748141"><ele>435.13</ele><time>2009-09-12T09:41:58Z</time></trkpt>
<trkpt lat="39.723873" lon="2.748208"><ele>436.10</ele><time>2009-09-12T09:42:05Z</time></trkpt>
<trkpt lat="39.723911" lon="2.748202"><ele>437.06</ele><time>2009-09-12T09:42:12Z</time></trkpt>
<trkpt lat="39.723972" lon="2.748199"><ele>438.50</ele><time>2009-09-12T09:42:24Z</time></trkpt>
<trkpt lat="39.724036" lon="2.748184"><ele>439.46</ele><time>2009-09-12T09:42:34Z</time></trkpt>
<trkpt lat="39.724122" lon="2.748181"><ele>440.90</ele><time>2009-09-12T09:42:44Z</time></trkpt>
<trkpt lat="39.724190" lon="2.748143"><ele>441.86</ele><time>2009-09-12T09:42:51Z</time></trkpt>
<trkpt lat="39.724232" lon="2.748114"><ele>443.31</ele><time>2009-09-12T09:43:02Z</time></trkpt>
<trkpt lat="39.724301" lon="2.748092"><ele>444.27</ele><time>2009-09-12T09:43:11Z</time></trkpt>
<trkpt lat="39.724310" lon="2.748154"><ele>445.23</ele><time>2009-09-12T09:43:19Z</time></trkpt>
<trkpt lat="39.724250" lon="2.748223"><ele>446.67</ele><time>2009-09-12T09:43:28Z</time></trkpt>
<trkpt lat="39.724232" lon="2.748235"><ele>446.67</ele><time>2009-09-12T09:43:30Z</time></trkpt>
<trkpt lat="39.724187" lon="2.748288"><ele>448.11</ele><time>2009-09-12T09:43:38Z</time></trkpt>
<trkpt lat="39.724129" lon="2.748343"><ele>449.07</ele><time>2009-09-12T09:43:46Z</time></trkpt>
<trkpt lat="39.724076" lon="2.748389"><ele>450.03</ele><time>2009-09-12T09:43:54Z</time></trkpt>
<trkpt lat="39.723976" lon="2.748440"><ele>451.00</ele><time>2009-09-12T09:44:07Z</time></trkpt>
<trkpt lat="39.723864" lon="2.748488"><ele>451.96</ele><time>2009-09-12T09:44:17Z</time></trkpt>
<trkpt lat="39.723802" lon="2.748497"><ele>452.44</ele><time>2009-09-12T09:44:21Z</time></trkpt>
<trkpt lat="39.723684" lon="2.748496"><ele>453.40</ele><time>2009-09-12T09:44:28Z</time></trkpt>
<trkpt lat="39.723650" lon="2.748507"><ele>453.88</ele><time>2009-09-12T09:44:30Z</time></trkpt>
<trkpt lat="39.723614" lon="2.748494"><ele>454.36</ele><time>2009-09-12T09:44:32Z</time></trkpt>
<trkpt lat="39.723539" lon="2.748456"><ele>455.80</ele><time>2009-09-12T09:44:39Z</time></trkpt>
<trkpt lat="39.723478" lon="2.748515"><ele>456.28</ele><time>2009-09-12T09:44:46Z</time></trkpt>
<trkpt lat="39.723463" lon="2.748586"><ele>455.80</ele><time>2009-09-12T09:44:51Z</time></trkpt>
<trkpt lat="39.723483" lon="2.748681"><ele>455.32</ele><time>2009-09-12T09:44:57Z</time></trkpt>
<trkpt lat="39.723519" lon="2.748786"><ele>455.32</ele><time>2009-09-12T09:45:10Z</time></trkpt>
<trkpt lat="39.723533" lon="2.748788"><ele>454.84</ele><time>2009-09-12T09:46:05Z</time></trkpt>
<trkpt lat="39.723617" lon="2.748842"><ele>453.88</ele><time>2009-09-12T09:46:10Z</time></trkpt>
<trkpt lat="39.723689" lon="2.748930"><ele>453.40</ele><time>2009-09-12T09:46:14Z</time></trkpt>
<trkpt lat="39.723734" lon="2.749188"><ele>451.96</ele><time>2009-09-12T09:46:19Z</time></trkpt>
<trkpt lat="39.723669" lon="2.749422"><ele>450.52</ele><time>2009-09-12T09:46:25Z</time></trkpt>
<trkpt lat="39.723655" lon="2.749643"><ele>450.03</ele><time>2009-09-12T09:46:30Z</time></trkpt>
<trkpt lat="39.723638" lon="2.749723"><ele>450.03</ele><time>2009-09-12T09:46:33Z</time></trkpt>
<trkpt lat="39.723644" lon="2.749789"><ele>450.52</ele><time>2009-09-12T09:46:36Z</time></trkpt>
<trkpt lat="39.723646" lon="2.749953"><ele>451.48</ele><time>2009-09-12T09:46:42Z</time></trkpt>
<trkpt lat="39.723736" lon="2.750093"><ele>452.44</ele><time>2009-09-12T09:46:50Z</time></trkpt>
<trkpt lat="39.723857" lon="2.750240"><ele>453.88</ele><time>2009-09-12T09:46:58Z</time></trkpt>
<trkpt lat="39.723897" lon="2.750326"><ele>454.36</ele><time>2009-09-12T09:47:02Z</time></trkpt>
<trkpt lat="39.724005" lon="2.750371"><ele>454.84</ele><time>2009-09-12T09:47:08Z</time></trkpt>
<trkpt lat="39.724033" lon="2.750402"><ele>455.32</ele><time>2009-09-12T09:47:10Z</time></trkpt>
<trkpt lat="39.724166" lon="2.750555"><ele>456.28</ele><time>2009-09-12T09:47:19Z</time></trkpt>
<trkpt lat="39.724250" lon="2.750644"><ele>457.72</ele><time>2009-09-12T09:47:26Z</time></trkpt>
<trkpt lat="39.724300" lon="2.750704"><ele>458.69</ele><time>2009-09-12T09:47:31Z</time></trkpt>
<trkpt lat="39.724308" lon="2.750726"><ele>458.69</ele><time>2009-09-12T09:47:32Z</time></trkpt>
<trkpt lat="39.724333" lon="2.750813"><ele>459.17</ele><time>2009-09-12T09:47:36Z</time></trkpt>
<trkpt lat="39.724415" lon="2.750938"><ele>460.13</ele><time>2009-09-12T09:47:44Z</time></trkpt>
<trkpt lat="39.724463" lon="2.751092"><ele>461.09</ele><time>2009-09-12T09:47:52Z</time></trkpt>
<trkpt lat="39.724466" lon="2.751221"><ele>462.05</ele><time>2009-09-12T09:47:58Z</time></trkpt>
<trkpt lat="39.724473" lon="2.751245"><ele>462.05</ele><time>2009-09-12T09:47:59Z</time></trkpt>
<trkpt lat="39.724483" lon="2.751326"><ele>462.53</ele><time>2009-09-12T09:48:03Z</time></trkpt>
<trkpt lat="39.724564" lon="2.751469"><ele>463.97</ele><time>2009-09-12T09:48:11Z</time></trkpt>
<trkpt lat="39.724600" lon="2.751546"><ele>464.45</ele><time>2009-09-12T09:48:16Z</time></trkpt>
<trkpt lat="39.724626" lon="2.751661"><ele>465.42</ele><time>2009-09-12T09:48:22Z</time></trkpt>
<trkpt lat="39.724679" lon="2.751828"><ele>466.38</ele><time>2009-09-12T09:48:30Z</time></trkpt>
<trkpt lat="39.724700" lon="2.752102"><ele>468.30</ele><time>2009-09-12T09:48:44Z</time></trkpt>
<trkpt lat="39.724724" lon="2.752232"><ele>469.74</ele><time>2009-09-12T09:48:50Z</time></trkpt>
<trkpt lat="39.724739" lon="2.752293"><ele>469.74</ele><time>2009-09-12T09:48:52Z</time></trkpt>
<trkpt lat="39.724749" lon="2.752327"><ele>469.74</ele><time>2009-09-12T09:48:54Z</time></trkpt>
<trkpt lat="39.724739" lon="2.752400"><ele>470.22</ele><time>2009-09-12T09:48:57Z</time></trkpt>
<trkpt lat="39.724727" lon="2.752454"><ele>470.70</ele><time>2009-09-12T09:48:59Z</time></trkpt>
<trkpt lat="39.724845" lon="2.752682"><ele>472.63</ele><time>2009-09-12T09:49:10Z</time></trkpt>
<trkpt lat="39.724880" lon="2.752773"><ele>473.11</ele><time>2009-09-12T09:49:14Z</time></trkpt>
<trkpt lat="39.724950" lon="2.752872"><ele>474.07</ele><time>2009-09-12T09:49:23Z</time></trkpt>
<trkpt lat="39.725009" lon="2.752916"><ele>475.03</ele><time>2009-09-12T09:49:27Z</time></trkpt>
<trkpt lat="39.725115" lon="2.752988"><ele>476.47</ele><time>2009-09-12T09:49:35Z</time></trkpt>
<trkpt lat="39.725207" lon="2.753077"><ele>477.91</ele><time>2009-09-12T09:49:44Z</time></trkpt>
<trkpt lat="39.725270" lon="2.753311"><ele>480.32</ele><time>2009-09-12T09:49:55Z</time></trkpt>
<trkpt lat="39.725306" lon="2.753435"><ele>481.76</ele><time>2009-09-12T09:50:03Z</time></trkpt>
<trkpt lat="39.725319" lon="2.753488"><ele>482.72</ele><time>2009-09-12T09:50:07Z</time></trkpt>
<trkpt lat="39.725351" lon="2.753675"><ele>484.64</ele><time>2009-09-12T09:50:18Z</time></trkpt>
<trkpt lat="39.725393" lon="2.753824"><ele>486.08</ele><time>2009-09-12T09:50:29Z</time></trkpt>
<trkpt lat="39.725280" lon="2.753970"><ele>487.53</ele><time>2009-09-12T09:50:39Z</time></trkpt>
<trkpt lat="39.725216" lon="2.754121"><ele>489.45</ele><time>2009-09-12T09:50:53Z</time></trkpt>
<trkpt lat="39.725170" lon="2.754171"><ele>490.41</ele><time>2009-09-12T09:51:04Z</time></trkpt>
<trkpt lat="39.725131" lon="2.754178"><ele>491.37</ele><time>2009-09-12T09:51:10Z</time></trkpt>
<trkpt lat="39.725107" lon="2.754261"><ele>492.33</ele><time>2009-09-12T09:51:22Z</time></trkpt>
<trkpt lat="39.725100" lon="2.754332"><ele>493.29</ele><time>2009-09-12T09:51:32Z</time></trkpt>
<trkpt lat="39.725075" lon="2.754423"><ele>494.74</ele><time>2009-09-12T09:51:45Z</time></trkpt>
<trkpt lat="39.724997" lon="2.754502"><ele>496.18</ele><time>2009-09-12T09:51:54Z</time></trkpt>
<trkpt lat="39.724984" lon="2.754533"><ele>496.66</ele><time>2009-09-12T09:51:56Z</time></trkpt>
<trkpt lat="39.724953" lon="2.754683"><ele>498.10</ele><time>2009-09-12T09:52:04Z</time></trkpt>
<trkpt lat="39.724948" lon="2.754712"><ele>498.10</ele><time>2009-09-12T09:52:06Z</time></trkpt>
<trkpt lat="39.724962" lon="2.754793"><ele>499.06</ele><time>2009-09-12T09:52:11Z</time></trkpt>
<trkpt lat="39.724958" lon="2.754839"><ele>499.54</ele><time>2009-09-12T09:52:14Z</time></trkpt>
<trkpt lat="39.724920" lon="2.754990"><ele>500.50</ele><time>2009-09-12T09:52:23Z</time></trkpt>
<trkpt lat="39.724927" lon="2.755126"><ele>502.43</ele><time>2009-09-12T09:52:35Z</time></trkpt>
<trkpt lat="39.724919" lon="2.755325"><ele>504.35</ele><time>2009-09-12T09:52:45Z</time></trkpt>
<trkpt lat="39.724922" lon="2.755522"><ele>506.27</ele><time>2009-09-12T09:52:57Z</time></trkpt>
<trkpt lat="39.724915" lon="2.755554"><ele>506.75</ele><time>2009-09-12T09:52:59Z</time></trkpt>
<trkpt lat="39.724949" lon="2.755708"><ele>507.71</ele><time>2009-09-12T09:53:08Z</time></trkpt>
<trkpt lat="39.724952" lon="2.755864"><ele>509.64</ele><time>2009-09-12T09:53:18Z</time></trkpt>
<trkpt lat="39.725011" lon="2.756047"><ele>512.04</ele><time>2009-09-12T09:53:33Z</time></trkpt>
<trkpt lat="39.724979" lon="2.756250"><ele>513.48</ele><time>2009-09-12T09:53:45Z</time></trkpt>
<trkpt lat="39.724941" lon="2.756401"><ele>515.40</ele><time>2009-09-12T09:53:53Z</time></trkpt>
<trkpt lat="39.724938" lon="2.756523"><ele>516.37</ele><time>2009-09-12T09:54:01Z</time></trkpt>
<trkpt lat="39.724919" lon="2.756701"><ele>518.29</ele><time>2009-09-12T09:54:13Z</time></trkpt>
<trkpt lat="39.724970" lon="2.756899"><ele>520.69</ele><time>2009-09-12T09:54:25Z</time></trkpt>
<trkpt lat="39.724955" lon="2.756995"><ele>521.65</ele><time>2009-09-12T09:54:41Z</time></trkpt>
<trkpt lat="39.724954" lon="2.757066"><ele>523.09</ele><time>2009-09-12T09:54:57Z</time></trkpt>
<trkpt lat="39.724975" lon="2.757102"><ele>524.54</ele><time>2009-09-12T09:55:11Z</time></trkpt>
<trkpt lat="39.724990" lon="2.757141"><ele>525.02</ele><time>2009-09-12T09:55:30Z</time></trkpt>
<trkpt lat="39.724991" lon="2.757142"><ele>525.02</ele><time>2009-09-12T09:55:33Z</time></trkpt>
<trkpt lat="39.724889" lon="2.757201"><ele>526.46</ele><time>2009-09-12T09:55:40Z</time></trkpt>
<trkpt lat="39.724858" lon="2.757305"><ele>528.38</ele><time>2009-09-12T09:55:49Z</time></trkpt>
<trkpt lat="39.724812" lon="2.757408"><ele>529.82</ele><time>2009-09-12T09:55:58Z</time></trkpt>
<trkpt lat="39.724836" lon="2.757571"><ele>532.23</ele><time>2009-09-12T09:56:24Z</time></trkpt>
<trkpt lat="39.724850" lon="2.757677"><ele>534.15</ele><time>2009-09-12T09:56:37Z</time></trkpt>
<trkpt lat="39.724824" lon="2.757751"><ele>535.59</ele><time>2009-09-12T09:56:54Z</time></trkpt>
<trkpt lat="39.724906" lon="2.757850"><ele>536.55</ele><time>2009-09-12T09:57:07Z</time></trkpt>
<trkpt lat="39.724917" lon="2.757934"><ele>537.99</ele><time>2009-09-12T09:57:29Z</time></trkpt>
<trkpt lat="39.724888" lon="2.757979"><ele>539.44</ele><time>2009-09-12T09:57:45Z</time></trkpt>
<trkpt lat="39.724892" lon="2.758049"><ele>541.36</ele><time>2009-09-12T09:57:59Z</time></trkpt>
<trkpt lat="39.724862" lon="2.758148"><ele>542.80</ele><time>2009-09-12T09:58:10Z</time></trkpt>
<trkpt lat="39.724897" lon="2.758239"><ele>544.24</ele><time>2009-09-12T09:58:21Z</time></trkpt>
<trkpt lat="39.724907" lon="2.758285"><ele>545.20</ele><time>2009-09-12T09:58:30Z</time></trkpt>
<trkpt lat="39.724935" lon="2.758316"><ele>546.17</ele><time>2009-09-12T09:58:37Z</time></trkpt>
<trkpt lat="39.724930" lon="2.758368"><ele>547.61</ele><time>2009-09-12T09:58:46Z</time></trkpt>
<trkpt lat="39.724883" lon="2.758438"><ele>548.57</ele><time>2009-09-12T09:58:57Z</time></trkpt>
<trkpt lat="39.724857" lon="2.758496"><ele>549.05</ele><time>2009-09-12T09:59:03Z</time></trkpt>
<trkpt lat="39.724904" lon="2.758543"><ele>550.01</ele><time>2009-09-12T09:59:13Z</time></trkpt>
<trkpt lat="39.724900" lon="2.758602"><ele>551.93</ele><time>2009-09-12T09:59:25Z</time></trkpt>
<trkpt lat="39.724820" lon="2.758662"><ele>552.90</ele><time>2009-09-12T09:59:33Z</time></trkpt>
<trkpt lat="39.724824" lon="2.758737"><ele>553.86</ele><time>2009-09-12T09:59:44Z</time></trkpt>
<trkpt lat="39.724828" lon="2.758842"><ele>555.78</ele><time>2009-09-12T09:59:57Z</time></trkpt>
<trkpt lat="39.724863" lon="2.758856"><ele>556.26</ele><time>2009-09-12T10:00:13Z</time></trkpt>
<trkpt lat="39.724846" lon="2.758935"><ele>559.62</ele><time>2009-09-12T10:02:42Z</time></trkpt>
<trkpt lat="39.724886" lon="2.759023"><ele>561.07</ele><time>2009-09-12T10:02:51Z</time></trkpt>
<trkpt lat="39.724933" lon="2.759056"><ele>562.03</ele><time>2009-09-12T10:03:01Z</time></trkpt>
<trkpt lat="39.724929" lon="2.759095"><ele>562.99</ele><time>2009-09-12T10:03:10Z</time></trkpt>
<trkpt lat="39.724932" lon="2.759150"><ele>564.43</ele><time>2009-09-12T10:03:17Z</time></trkpt>
<trkpt lat="39.724982" lon="2.759266"><ele>565.87</ele><time>2009-09-12T10:03:30Z</time></trkpt>
<trkpt lat="39.724993" lon="2.759349"><ele>567.80</ele><time>2009-09-12T10:03:42Z</time></trkpt>
<trkpt lat="39.725085" lon="2.759382"><ele>569.72</ele><time>2009-09-12T10:03:56Z</time></trkpt>
<trkpt lat="39.725112" lon="2.759428"><ele>570.20</ele><time>2009-09-12T10:04:06Z</time></trkpt>
<trkpt lat="39.725096" lon="2.759486"><ele>571.16</ele><time>2009-09-12T10:04:14Z</time></trkpt>
<trkpt lat="39.725109" lon="2.759527"><ele>571.64</ele><time>2009-09-12T10:04:24Z</time></trkpt>
<trkpt lat="39.725065" lon="2.759479"><ele>571.64</ele><time>2009-09-12T10:05:44Z</time></trkpt>
<trkpt lat="39.725071" lon="2.759563"><ele>574.04</ele><time>2009-09-12T10:08:27Z</time></trkpt>
<trkpt lat="39.725028" lon="2.759650"><ele>575.49</ele><time>2009-09-12T10:08:36Z</time></trkpt>
<trkpt lat="39.725070" lon="2.759760"><ele>576.93</ele><time>2009-09-12T10:08:47Z</time></trkpt>
<trkpt lat="39.725088" lon="2.759806"><ele>578.37</ele><time>2009-09-12T10:08:55Z</time></trkpt>
<trkpt lat="39.725122" lon="2.759861"><ele>579.81</ele><time>2009-09-12T10:09:03Z</time></trkpt>
<trkpt lat="39.725152" lon="2.759894"><ele>580.77</ele><time>2009-09-12T10:09:12Z</time></trkpt>
<trkpt lat="39.725214" lon="2.759897"><ele>582.22</ele><time>2009-09-12T10:09:23Z</time></trkpt>
<trkpt lat="39.725261" lon="2.759923"><ele>583.18</ele><time>2009-09-12T10:09:32Z</time></trkpt>
<trkpt lat="39.725228" lon="2.759969"><ele>584.14</ele><time>2009-09-12T10:09:43Z</time></trkpt>
<trkpt lat="39.725184" lon="2.760004"><ele>586.06</ele><time>2009-09-12T10:10:00Z</time></trkpt>
<trkpt lat="39.725166" lon="2.760016"><ele>587.02</ele><time>2009-09-12T10:10:07Z</time></trkpt>
<trkpt lat="39.725141" lon="2.760022"><ele>587.50</ele><time>2009-09-12T10:10:18Z</time></trkpt>
<trkpt lat="39.725088" lon="2.760044"><ele>588.46</ele><time>2009-09-12T10:10:31Z</time></trkpt>
<trkpt lat="39.724993" lon="2.760060"><ele>591.35</ele><time>2009-09-12T10:10:40Z</time></trkpt>
<trkpt lat="39.724967" lon="2.760041"><ele>591.35</ele><time>2009-09-12T10:10:42Z</time></trkpt>
<trkpt lat="39.724880" lon="2.760001"><ele>592.31</ele><time>2009-09-12T10:10:49Z</time></trkpt>
<trkpt lat="39.724821" lon="2.760015"><ele>593.27</ele><time>2009-09-12T10:10:52Z</time></trkpt>
<trkpt lat="39.724716" lon="2.759982"><ele>594.71</ele><time>2009-09-12T10:10:59Z</time></trkpt>
<trkpt lat="39.724694" lon="2.759980"><ele>595.19</ele><time>2009-09-12T10:11:05Z</time></trkpt>
<trkpt lat="39.724598" lon="2.759979"><ele>595.67</ele><time>2009-09-12T10:11:13Z</time></trkpt>
<trkpt lat="39.724533" lon="2.759978"><ele>596.64</ele><time>2009-09-12T10:11:22Z</time></trkpt>
<trkpt lat="39.724517" lon="2.760011"><ele>596.64</ele><time>2009-09-12T10:11:32Z</time></trkpt>
<trkpt lat="39.724493" lon="2.759987"><ele>596.15</ele><time>2009-09-12T10:11:39Z</time></trkpt>
<trkpt lat="39.724467" lon="2.759985"><ele>595.67</ele><time>2009-09-12T10:11:47Z</time></trkpt>
<trkpt lat="39.724462" lon="2.759979"><ele>595.67</ele><time>2009-09-12T10:12:35Z</time></trkpt>
<trkpt lat="39.724454" lon="2.759979"><ele>595.67</ele><time>2009-09-12T10:12:52Z</time></trkpt>
<trkpt lat="39.724337" lon="2.759969"><ele>593.75</ele><time>2009-09-12T10:12:59Z</time></trkpt>
<trkpt lat="39.724232" lon="2.759985"><ele>592.79</ele><time>2009-09-12T10:13:04Z</time></trkpt>
<trkpt lat="39.724167" lon="2.760016"><ele>590.87</ele><time>2009-09-12T10:13:09Z</time></trkpt>
<trkpt lat="39.724122" lon="2.760017"><ele>589.91</ele><time>2009-09-12T10:13:17Z</time></trkpt>
<trkpt lat="39.724086" lon="2.760035"><ele>589.43</ele><time>2009-09-12T10:13:26Z</time></trkpt>
<trkpt lat="39.724026" lon="2.760033"><ele>588.95</ele><time>2009-09-12T10:13:32Z</time></trkpt>
<trkpt lat="39.723951" lon="2.760090"><ele>587.50</ele><time>2009-09-12T10:13:37Z</time></trkpt>
<trkpt lat="39.723859" lon="2.760160"><ele>585.58</ele><time>2009-09-12T10:13:44Z</time></trkpt>
<trkpt lat="39.723825" lon="2.760201"><ele>584.62</ele><time>2009-09-12T10:13:47Z</time></trkpt>
<trkpt lat="39.723756" lon="2.760205"><ele>583.66</ele><time>2009-09-12T10:13:55Z</time></trkpt>
<trkpt lat="39.723644" lon="2.760201"><ele>583.66</ele><time>2009-09-12T10:14:01Z</time></trkpt>
<trkpt lat="39.723538" lon="2.760194"><ele>583.18</ele><time>2009-09-12T10:14:06Z</time></trkpt>
<trkpt lat="39.723347" lon="2.760242"><ele>582.22</ele><time>2009-09-12T10:14:13Z</time></trkpt>
<trkpt lat="39.723197" lon="2.760233"><ele>580.77</ele><time>2009-09-12T10:14:18Z</time></trkpt>
<trkpt lat="39.723099" lon="2.760155"><ele>580.77</ele><time>2009-09-12T10:14:21Z</time></trkpt>
<trkpt lat="39.722928" lon="2.759962"><ele>578.85</ele><time>2009-09-12T10:14:28Z</time></trkpt>
<trkpt lat="39.722734" lon="2.759924"><ele>578.37</ele><time>2009-09-12T10:14:35Z</time></trkpt>
<trkpt lat="39.722562" lon="2.759845"><ele>579.33</ele><time>2009-09-12T10:14:43Z</time></trkpt>
<trkpt lat="39.722436" lon="2.759831"><ele>580.29</ele><time>2009-09-12T10:14:49Z</time></trkpt>
<trkpt lat="39.722390" lon="2.759829"><ele>580.29</ele><time>2009-09-12T10:14:51Z</time></trkpt>
<trkpt lat="39.722217" lon="2.759805"><ele>581.25</ele><time>2009-09-12T10:14:59Z</time></trkpt>
<trkpt lat="39.722061" lon="2.759738"><ele>581.25</ele><time>2009-09-12T10:15:06Z</time></trkpt>
<trkpt lat="39.721943" lon="2.759692"><ele>582.70</ele><time>2009-09-12T10:15:12Z</time></trkpt>
<trkpt lat="39.721856" lon="2.759660"><ele>583.66</ele><time>2009-09-12T10:15:16Z</time></trkpt>
<trkpt lat="39.721730" lon="2.759586"><ele>585.10</ele><time>2009-09-12T10:15:23Z</time></trkpt>
<trkpt lat="39.721669" lon="2.759564"><ele>586.54</ele><time>2009-09-12T10:15:27Z</time></trkpt>
<trkpt lat="39.721557" lon="2.759474"><ele>587.50</ele><time>2009-09-12T10:15:35Z</time></trkpt>
<trkpt lat="39.721534" lon="2.759445"><ele>587.98</ele><time>2009-09-12T10:15:37Z</time></trkpt>
<trkpt lat="39.721464" lon="2.759422"><ele>589.43</ele><time>2009-09-12T10:15:42Z</time></trkpt>
<trkpt lat="39.721363" lon="2.759340"><ele>590.39</ele><time>2009-09-12T10:15:50Z</time></trkpt>
<trkpt lat="39.721325" lon="2.759339"><ele>590.39</ele><time>2009-09-12T10:15:55Z</time></trkpt>
<trkpt lat="39.721290" lon="2.759337"><ele>591.35</ele><time>2009-09-12T10:16:18Z</time></trkpt>
<trkpt lat="39.721242" lon="2.759305"><ele>591.83</ele><time>2009-09-12T10:16:24Z</time></trkpt>
<trkpt lat="39.721218" lon="2.759276"><ele>591.83</ele><time>2009-09-12T10:16:26Z</time></trkpt>
<trkpt lat="39.721161" lon="2.759267"><ele>592.31</ele><time>2009-09-12T10:16:33Z</time></trkpt>
<trkpt lat="39.721050" lon="2.759237"><ele>592.79</ele><time>2009-09-12T10:16:40Z</time></trkpt>
<trkpt lat="39.720863" lon="2.759310"><ele>594.23</ele><time>2009-09-12T10:16:49Z</time></trkpt>
<trkpt lat="39.720794" lon="2.759324"><ele>593.75</ele><time>2009-09-12T10:16:52Z</time></trkpt>
<trkpt lat="39.720741" lon="2.759363"><ele>593.75</ele><time>2009-09-12T10:16:55Z</time></trkpt>
<trkpt lat="39.720658" lon="2.759384"><ele>592.79</ele><time>2009-09-12T10:16:58Z</time></trkpt>
<trkpt lat="39.720564" lon="2.759426"><ele>592.31</ele><time>2009-09-12T10:17:04Z</time></trkpt>
<trkpt lat="39.720492" lon="2.759480"><ele>591.83</ele><time>2009-09-12T10:17:08Z</time></trkpt>
<trkpt lat="39.720455" lon="2.759580"><ele>591.83</ele><time>2009-09-12T10:17:16Z</time></trkpt>
<trkpt lat="39.720346" lon="2.759708"><ele>591.83</ele><time>2009-09-12T10:17:25Z</time></trkpt>
<trkpt lat="39.720309" lon="2.759748"><ele>591.83</ele><time>2009-09-12T10:17:27Z</time></trkpt>
<trkpt lat="39.720196" lon="2.759849"><ele>591.83</ele><time>2009-09-12T10:17:32Z</time></trkpt>
<trkpt lat="39.720167" lon="2.759990"><ele>593.27</ele><time>2009-09-12T10:17:39Z</time></trkpt>
<trkpt lat="39.720130" lon="2.760055"><ele>594.23</ele><time>2009-09-12T10:17:43Z</time></trkpt>
<trkpt lat="39.720085" lon="2.760119"><ele>595.19</ele><time>2009-09-12T10:17:47Z</time></trkpt>
<trkpt lat="39.720005" lon="2.760150"><ele>596.15</ele><time>2009-09-12T10:17:52Z</time></trkpt>
<trkpt lat="39.719938" lon="2.760256"><ele>597.60</ele><time>2009-09-12T10:17:59Z</time></trkpt>
<trkpt lat="39.719882" lon="2.760306"><ele>598.08</ele><time>2009-09-12T10:18:02Z</time></trkpt>
<trkpt lat="39.719746" lon="2.760440"><ele>599.04</ele><time>2009-09-12T10:18:11Z</time></trkpt>
<trkpt lat="39.719629" lon="2.760604"><ele>597.60</ele><time>2009-09-12T10:18:17Z</time></trkpt>
<trkpt lat="39.719562" lon="2.760674"><ele>597.12</ele><time>2009-09-12T10:18:19Z</time></trkpt>
<trkpt lat="39.719444" lon="2.760877"><ele>596.64</ele><time>2009-09-12T10:18:25Z</time></trkpt>
<trkpt lat="39.719366" lon="2.760970"><ele>596.64</ele><time>2009-09-12T10:18:29Z</time></trkpt>
<trkpt lat="39.719235" lon="2.761212"><ele>593.75</ele><time>2009-09-12T10:18:36Z</time></trkpt>
<trkpt lat="39.719155" lon="2.761289"><ele>592.31</ele><time>2009-09-12T10:18:39Z</time></trkpt>
<trkpt lat="39.719092" lon="2.761336"><ele>591.35</ele><time>2009-09-12T10:18:41Z</time></trkpt>
<trkpt lat="39.718957" lon="2.761454"><ele>588.46</ele><time>2009-09-12T10:18:46Z</time></trkpt>
<trkpt lat="39.718859" lon="2.761544"><ele>587.98</ele><time>2009-09-12T10:18:52Z</time></trkpt>
<trkpt lat="39.718773" lon="2.761602"><ele>589.43</ele><time>2009-09-12T10:18:56Z</time></trkpt>
<trkpt lat="39.718729" lon="2.761652"><ele>589.91</ele><time>2009-09-12T10:18:59Z</time></trkpt>
<trkpt lat="39.718547" lon="2.761730"><ele>590.87</ele><time>2009-09-12T10:19:08Z</time></trkpt>
<trkpt lat="39.718515" lon="2.761745"><ele>591.35</ele><time>2009-09-12T10:19:10Z</time></trkpt>
<trkpt lat="39.718403" lon="2.761701"><ele>592.31</ele><time>2009-09-12T10:19:18Z</time></trkpt>
<trkpt lat="39.718250" lon="2.761685"><ele>593.75</ele><time>2009-09-12T10:19:28Z</time></trkpt>
<trkpt lat="39.718142" lon="2.761668"><ele>595.67</ele><time>2009-09-12T10:19:36Z</time></trkpt>
<trkpt lat="39.718003" lon="2.761654"><ele>597.12</ele><time>2009-09-12T10:19:45Z</time></trkpt>
<trkpt lat="39.717934" lon="2.761561"><ele>599.04</ele><time>2009-09-12T10:19:53Z</time></trkpt>
<trkpt lat="39.717879" lon="2.761518"><ele>600.00</ele><time>2009-09-12T10:19:59Z</time></trkpt>
<trkpt lat="39.717774" lon="2.761544"><ele>600.48</ele><time>2009-09-12T10:20:06Z</time></trkpt>
<trkpt lat="39.717626" lon="2.761595"><ele>600.48</ele><time>2009-09-12T10:20:15Z</time></trkpt>
<trkpt lat="39.717609" lon="2.761592"><ele>600.48</ele><time>2009-09-12T10:20:16Z</time></trkpt>
<trkpt lat="39.717509" lon="2.761566"><ele>599.04</ele><time>2009-09-12T10:20:21Z</time></trkpt>
<trkpt lat="39.717455" lon="2.761697"><ele>599.04</ele><time>2009-09-12T10:20:27Z</time></trkpt>
<trkpt lat="39.717473" lon="2.761864"><ele>599.52</ele><time>2009-09-12T10:20:36Z</time></trkpt>
<trkpt lat="39.717425" lon="2.762013"><ele>598.08</ele><time>2009-09-12T10:20:43Z</time></trkpt>
<trkpt lat="39.717334" lon="2.762081"><ele>596.64</ele><time>2009-09-12T10:20:49Z</time></trkpt>
<trkpt lat="39.717309" lon="2.762125"><ele>596.15</ele><time>2009-09-12T10:20:56Z</time></trkpt>
<trkpt lat="39.717318" lon="2.762132"><ele>596.15</ele><time>2009-09-12T10:22:07Z</time></trkpt>
<trkpt lat="39.717393" lon="2.762239"><ele>596.15</ele><time>2009-09-12T10:22:17Z</time></trkpt>
<trkpt lat="39.717460" lon="2.762372"><ele>594.23</ele><time>2009-09-12T10:22:28Z</time></trkpt>
<trkpt lat="39.717500" lon="2.762451"><ele>592.31</ele><time>2009-09-12T10:22:34Z</time></trkpt>
<trkpt lat="39.717498" lon="2.762523"><ele>591.35</ele><time>2009-09-12T10:22:42Z</time></trkpt>
<trkpt lat="39.717450" lon="2.762516"><ele>590.39</ele><time>2009-09-12T10:22:49Z</time></trkpt>
<trkpt lat="39.717348" lon="2.762506"><ele>589.91</ele><time>2009-09-12T10:23:02Z</time></trkpt>
<trkpt lat="39.717338" lon="2.762511"><ele>590.39</ele><time>2009-09-12T10:23:13Z</time></trkpt>
<trkpt lat="39.717311" lon="2.762534"><ele>588.95</ele><time>2009-09-12T10:23:22Z</time></trkpt>
<trkpt lat="39.717296" lon="2.762593"><ele>586.54</ele><time>2009-09-12T10:23:29Z</time></trkpt>
<trkpt lat="39.717291" lon="2.762594"><ele>586.54</ele><time>2009-09-12T10:23:40Z</time></trkpt>
<trkpt lat="39.717241" lon="2.762631"><ele>585.10</ele><time>2009-09-12T10:23:47Z</time></trkpt>
<trkpt lat="39.717249" lon="2.762724"><ele>583.18</ele><time>2009-09-12T10:23:51Z</time></trkpt>
<trkpt lat="39.717299" lon="2.762827"><ele>583.66</ele><time>2009-09-12T10:23:57Z</time></trkpt>
<trkpt lat="39.717312" lon="2.762850"><ele>583.66</ele><time>2009-09-12T10:24:03Z</time></trkpt>
<trkpt lat="39.717282" lon="2.762882"><ele>582.22</ele><time>2009-09-12T10:24:11Z</time></trkpt>
<trkpt lat="39.717222" lon="2.762910"><ele>579.33</ele><time>2009-09-12T10:24:20Z</time></trkpt>
<trkpt lat="39.717160" lon="2.762999"><ele>577.41</ele><time>2009-09-12T10:24:25Z</time></trkpt>
<trkpt lat="39.717126" lon="2.763121"><ele>576.45</ele><time>2009-09-12T10:24:32Z</time></trkpt>
<trkpt lat="39.717125" lon="2.763131"><ele>576.45</ele><time>2009-09-12T10:24:34Z</time></trkpt>
<trkpt lat="39.717096" lon="2.763174"><ele>575.01</ele><time>2009-09-12T10:24:38Z</time></trkpt>
<trkpt lat="39.717046" lon="2.763263"><ele>573.56</ele><time>2009-09-12T10:24:43Z</time></trkpt>
<trkpt lat="39.717000" lon="2.763329"><ele>572.60</ele><time>2009-09-12T10:24:47Z</time></trkpt>
<trkpt lat="39.716978" lon="2.763423"><ele>571.16</ele><time>2009-09-12T10:24:50Z</time></trkpt>
<trkpt lat="39.716985" lon="2.763503"><ele>570.20</ele><time>2009-09-12T10:24:58Z</time></trkpt>
<trkpt lat="39.716942" lon="2.763549"><ele>568.76</ele><time>2009-09-12T10:25:05Z</time></trkpt>
<trkpt lat="39.716904" lon="2.763557"><ele>566.83</ele><time>2009-09-12T10:25:12Z</time></trkpt>
<trkpt lat="39.716897" lon="2.763547"><ele>565.87</ele><time>2009-09-12T10:25:18Z</time></trkpt>
<trkpt lat="39.716862" lon="2.763608"><ele>563.95</ele><time>2009-09-12T10:25:26Z</time></trkpt>
<trkpt lat="39.716840" lon="2.763622"><ele>562.51</ele><time>2009-09-12T10:25:32Z</time></trkpt>
<trkpt lat="39.716831" lon="2.763664"><ele>561.55</ele><time>2009-09-12T10:25:39Z</time></trkpt>
<trkpt lat="39.716806" lon="2.763720"><ele>561.07</ele><time>2009-09-12T10:25:46Z</time></trkpt>
<trkpt lat="39.716778" lon="2.763855"><ele>560.11</ele><time>2009-09-12T10:25:55Z</time></trkpt>
<trkpt lat="39.716762" lon="2.763930"><ele>559.14</ele><time>2009-09-12T10:26:03Z</time></trkpt>
<trkpt lat="39.716773" lon="2.763979"><ele>558.18</ele><time>2009-09-12T10:26:08Z</time></trkpt>
<trkpt lat="39.716825" lon="2.764009"><ele>556.74</ele><time>2009-09-12T10:26:17Z</time></trkpt>
<trkpt lat="39.716822" lon="2.764072"><ele>554.82</ele><time>2009-09-12T10:26:25Z</time></trkpt>
<trkpt lat="39.716792" lon="2.764124"><ele>553.38</ele><time>2009-09-12T10:26:33Z</time></trkpt>
<trkpt lat="39.716773" lon="2.764147"><ele>553.38</ele><time>2009-09-12T10:27:00Z</time></trkpt>
<trkpt lat="39.716738" lon="2.764156"><ele>551.45</ele><time>2009-09-12T10:27:18Z</time></trkpt>
<trkpt lat="39.716691" lon="2.764177"><ele>550.49</ele><time>2009-09-12T10:27:28Z</time></trkpt>
<trkpt lat="39.716688" lon="2.764183"><ele>550.49</ele><time>2009-09-12T10:27:31Z</time></trkpt>
<trkpt lat="39.716538" lon="2.764215"><ele>550.01</ele><time>2009-09-12T10:27:39Z</time></trkpt>
<trkpt lat="39.716481" lon="2.764221"><ele>550.97</ele><time>2009-09-12T10:27:42Z</time></trkpt>
<trkpt lat="39.716354" lon="2.764286"><ele>549.53</ele><time>2009-09-12T10:27:52Z</time></trkpt>
<trkpt lat="39.716350" lon="2.764289"><ele>549.53</ele><time>2009-09-12T10:27:53Z</time></trkpt>
<trkpt lat="39.716311" lon="2.764316"><ele>548.57</ele><time>2009-09-12T10:27:59Z</time></trkpt>
<trkpt lat="39.716205" lon="2.764364"><ele>546.65</ele><time>2009-09-12T10:28:04Z</time></trkpt>
<trkpt lat="39.716131" lon="2.764428"><ele>544.24</ele><time>2009-09-12T10:28:09Z</time></trkpt>
<trkpt lat="39.716035" lon="2.764491"><ele>542.32</ele><time>2009-09-12T10:28:15Z</time></trkpt>
<trkpt lat="39.715963" lon="2.764534"><ele>541.36</ele><time>2009-09-12T10:28:18Z</time></trkpt>
<trkpt lat="39.715849" lon="2.764585"><ele>540.40</ele><time>2009-09-12T10:28:21Z</time></trkpt>
<trkpt lat="39.715697" lon="2.764631"><ele>537.99</ele><time>2009-09-12T10:28:24Z</time></trkpt>
<trkpt lat="39.715645" lon="2.764642"><ele>537.51</ele><time>2009-09-12T10:28:25Z</time></trkpt>
<trkpt lat="39.715504" lon="2.764613"><ele>537.99</ele><time>2009-09-12T10:28:29Z</time></trkpt>
<trkpt lat="39.715459" lon="2.764574"><ele>537.51</ele><time>2009-09-12T10:28:50Z</time></trkpt>
<trkpt lat="39.715457" lon="2.764575"><ele>537.51</ele><time>2009-09-12T10:29:07Z</time></trkpt>
<trkpt lat="39.715233" lon="2.764420"><ele>537.03</ele><time>2009-09-12T10:29:18Z</time></trkpt>
<trkpt lat="39.715052" lon="2.764385"><ele>537.51</ele><time>2009-09-12T10:29:25Z</time></trkpt>
<trkpt lat="39.714762" lon="2.764338"><ele>538.48</ele><time>2009-09-12T10:29:37Z</time></trkpt>
<trkpt lat="39.714592" lon="2.764343"><ele>540.40</ele><time>2009-09-12T10:29:45Z</time></trkpt>
<trkpt lat="39.714573" lon="2.764343"><ele>540.40</ele><time>2009-09-12T10:29:46Z</time></trkpt>
<trkpt lat="39.714486" lon="2.764391"><ele>541.84</ele><time>2009-09-12T10:29:51Z</time></trkpt>
<trkpt lat="39.714338" lon="2.764440"><ele>541.36</ele><time>2009-09-12T10:29:57Z</time></trkpt>
<trkpt lat="39.714292" lon="2.764474"><ele>541.84</ele><time>2009-09-12T10:30:04Z</time></trkpt>
<trkpt lat="39.714270" lon="2.764477"><ele>540.88</ele><time>2009-09-12T10:30:07Z</time></trkpt>
<trkpt lat="39.714205" lon="2.764487"><ele>538.96</ele><time>2009-09-12T10:30:14Z</time></trkpt>
<trkpt lat="39.714202" lon="2.764475"><ele>538.48</ele><time>2009-09-12T10:30:15Z</time></trkpt>
<trkpt lat="39.714216" lon="2.764402"><ele>537.03</ele><time>2009-09-12T10:30:20Z</time></trkpt>
<trkpt lat="39.714218" lon="2.764318"><ele>536.07</ele><time>2009-09-12T10:30:23Z</time></trkpt>
<trkpt lat="39.714129" lon="2.764272"><ele>535.11</ele><time>2009-09-12T10:30:29Z</time></trkpt>
<trkpt lat="39.714073" lon="2.764223"><ele>534.15</ele><time>2009-09-12T10:30:32Z</time></trkpt>
<trkpt lat="39.713986" lon="2.764226"><ele>532.71</ele><time>2009-09-12T10:30:38Z</time></trkpt>
<trkpt lat="39.713965" lon="2.764237"><ele>532.23</ele><time>2009-09-12T10:30:39Z</time></trkpt>
<trkpt lat="39.713882" lon="2.764213"><ele>531.27</ele><time>2009-09-12T10:30:43Z</time></trkpt>
<trkpt lat="39.713796" lon="2.763993"><ele>531.27</ele><time>2009-09-12T10:30:53Z</time></trkpt>
<trkpt lat="39.713796" lon="2.763973"><ele>531.27</ele><time>2009-09-12T10:30:54Z</time></trkpt>
<trkpt lat="39.713746" lon="2.763903"><ele>530.79</ele><time>2009-09-12T10:30:58Z</time></trkpt>
<trkpt lat="39.713674" lon="2.763964"><ele>528.86</ele><time>2009-09-12T10:31:04Z</time></trkpt>
<trkpt lat="39.713706" lon="2.764076"><ele>529.34</ele><time>2009-09-12T10:31:07Z</time></trkpt>
<trkpt lat="39.713616" lon="2.764087"><ele>525.98</ele><time>2009-09-12T10:31:11Z</time></trkpt>
<trkpt lat="39.713594" lon="2.764055"><ele>526.46</ele><time>2009-09-12T10:31:12Z</time></trkpt>
<trkpt lat="39.713501" lon="2.763876"><ele>525.02</ele><time>2009-09-12T10:31:17Z</time></trkpt>
<trkpt lat="39.713382" lon="2.763622"><ele>522.13</ele><time>2009-09-12T10:31:21Z</time></trkpt>
<trkpt lat="39.713235" lon="2.763633"><ele>518.29</ele><time>2009-09-12T10:31:25Z</time></trkpt>
<trkpt lat="39.713218" lon="2.763703"><ele>517.81</ele><time>2009-09-12T10:31:26Z</time></trkpt>
<trkpt lat="39.713181" lon="2.763953"><ele>515.40</ele><time>2009-09-12T10:31:30Z</time></trkpt>
<trkpt lat="39.713068" lon="2.763979"><ele>511.56</ele><time>2009-09-12T10:31:34Z</time></trkpt>
<trkpt lat="39.712979" lon="2.763887"><ele>509.16</ele><time>2009-09-12T10:31:36Z</time></trkpt>
<trkpt lat="39.712875" lon="2.763757"><ele>506.27</ele><time>2009-09-12T10:31:38Z</time></trkpt>
<trkpt lat="39.712776" lon="2.763571"><ele>503.87</ele><time>2009-09-12T10:31:42Z</time></trkpt>
<trkpt lat="39.712728" lon="2.763621"><ele>502.91</ele><time>2009-09-12T10:31:44Z</time></trkpt>
<trkpt lat="39.712679" lon="2.763903"><ele>499.54</ele><time>2009-09-12T10:31:48Z</time></trkpt>
<trkpt lat="39.712784" lon="2.764220"><ele>499.06</ele><time>2009-09-12T10:31:53Z</time></trkpt>
<trkpt lat="39.712835" lon="2.764395"><ele>497.14</ele><time>2009-09-12T10:31:56Z</time></trkpt>
<trkpt lat="39.712848" lon="2.764440"><ele>497.14</ele><time>2009-09-12T10:31:57Z</time></trkpt>
<trkpt lat="39.712750" lon="2.764589"><ele>496.66</ele><time>2009-09-12T10:32:01Z</time></trkpt>
<trkpt lat="39.712731" lon="2.764930"><ele>497.62</ele><time>2009-09-12T10:32:07Z</time></trkpt>
<trkpt lat="39.712694" lon="2.765259"><ele>496.66</ele><time>2009-09-12T10:32:13Z</time></trkpt>
<trkpt lat="39.712676" lon="2.765506"><ele>495.70</ele><time>2009-09-12T10:32:16Z</time></trkpt>
<trkpt lat="39.712640" lon="2.765613"><ele>494.74</ele><time>2009-09-12T10:32:18Z</time></trkpt>
<trkpt lat="39.712376" lon="2.765719"><ele>491.37</ele><time>2009-09-12T10:32:22Z</time></trkpt>
<trkpt lat="39.712309" lon="2.765754"><ele>490.41</ele><time>2009-09-12T10:32:23Z</time></trkpt>
<trkpt lat="39.712179" lon="2.765833"><ele>486.56</ele><time>2009-09-12T10:32:25Z</time></trkpt>
<trkpt lat="39.711941" lon="2.766163"><ele>481.28</ele><time>2009-09-12T10:32:29Z</time></trkpt>
<trkpt lat="39.711718" lon="2.766344"><ele>477.91</ele><time>2009-09-12T10:32:33Z</time></trkpt>
<trkpt lat="39.711727" lon="2.766225"><ele>475.51</ele><time>2009-09-12T10:32:36Z</time></trkpt>
<trkpt lat="39.711907" lon="2.765859"><ele>471.18</ele><time>2009-09-12T10:32:41Z</time></trkpt>
<trkpt lat="39.711816" lon="2.765839"><ele>468.78</ele><time>2009-09-12T10:32:45Z</time></trkpt>
<trkpt lat="39.711738" lon="2.765942"><ele>467.82</ele><time>2009-09-12T10:32:47Z</time></trkpt>
<trkpt lat="39.711565" lon="2.766102"><ele>466.38</ele><time>2009-09-12T10:32:50Z</time></trkpt>
<trkpt lat="39.711450" lon="2.766206"><ele>465.90</ele><time>2009-09-12T10:32:52Z</time></trkpt>
<trkpt lat="39.711268" lon="2.766279"><ele>463.97</ele><time>2009-09-12T10:32:57Z</time></trkpt>
<trkpt lat="39.711256" lon="2.766305"><ele>463.97</ele><time>2009-09-12T10:33:03Z</time></trkpt>
<trkpt lat="39.711242" lon="2.766300"><ele>463.49</ele><time>2009-09-12T10:33:11Z</time></trkpt>
<trkpt lat="39.711229" lon="2.766298"><ele>463.49</ele><time>2009-09-12T10:33:28Z</time></trkpt>
<trkpt lat="39.711237" lon="2.766332"><ele>462.05</ele><time>2009-09-12T10:33:36Z</time></trkpt>
<trkpt lat="39.711234" lon="2.766361"><ele>462.53</ele><time>2009-09-12T10:34:16Z</time></trkpt>
<trkpt lat="39.711199" lon="2.766428"><ele>463.01</ele><time>2009-09-12T10:34:20Z</time></trkpt>
<trkpt lat="39.711044" lon="2.766566"><ele>464.45</ele><time>2009-09-12T10:34:28Z</time></trkpt>
<trkpt lat="39.710902" lon="2.766612"><ele>465.90</ele><time>2009-09-12T10:34:34Z</time></trkpt>
<trkpt lat="39.710816" lon="2.766697"><ele>466.38</ele><time>2009-09-12T10:34:38Z</time></trkpt>
<trkpt lat="39.710776" lon="2.766770"><ele>466.86</ele><time>2009-09-12T10:34:41Z</time></trkpt>
<trkpt lat="39.710557" lon="2.767007"><ele>469.74</ele><time>2009-09-12T10:34:54Z</time></trkpt>
<trkpt lat="39.710323" lon="2.767087"><ele>472.14</ele><time>2009-09-12T10:35:04Z</time></trkpt>
<trkpt lat="39.710242" lon="2.767063"><ele>472.63</ele><time>2009-09-12T10:35:10Z</time></trkpt>
<trkpt lat="39.710246" lon="2.767058"><ele>472.63</ele><time>2009-09-12T10:35:29Z</time></trkpt>
<trkpt lat="39.710240" lon="2.767048"><ele>472.63</ele><time>2009-09-12T10:35:35Z</time></trkpt>
<trkpt lat="39.710215" lon="2.767019"><ele>472.14</ele><time>2009-09-12T10:35:37Z</time></trkpt>
<trkpt lat="39.710025" lon="2.766896"><ele>468.30</ele><time>2009-09-12T10:35:42Z</time></trkpt>
<trkpt lat="39.709817" lon="2.766787"><ele>464.45</ele><time>2009-09-12T10:35:45Z</time></trkpt>
<trkpt lat="39.709748" lon="2.766747"><ele>463.97</ele><time>2009-09-12T10:35:46Z</time></trkpt>
<trkpt lat="39.709592" lon="2.766562"><ele>459.17</ele><time>2009-09-12T10:35:50Z</time></trkpt>
<trkpt lat="39.709562" lon="2.766517"><ele>458.69</ele><time>2009-09-12T10:35:51Z</time></trkpt>
<trkpt lat="39.709414" lon="2.766346"><ele>454.36</ele><time>2009-09-12T10:35:55Z</time></trkpt>
<trkpt lat="39.709376" lon="2.766314"><ele>452.92</ele><time>2009-09-12T10:35:56Z</time></trkpt>
<trkpt lat="39.709169" lon="2.766155"><ele>449.07</ele><time>2009-09-12T10:36:01Z</time></trkpt>
<trkpt lat="39.709001" lon="2.766075"><ele>445.71</ele><time>2009-09-12T10:36:06Z</time></trkpt>
<trkpt lat="39.708959" lon="2.766063"><ele>444.75</ele><time>2009-09-12T10:36:07Z</time></trkpt>
<trkpt lat="39.708804" lon="2.765993"><ele>441.38</ele><time>2009-09-12T10:36:10Z</time></trkpt>
<trkpt lat="39.708542" lon="2.765908"><ele>437.54</ele><time>2009-09-12T10:36:14Z</time></trkpt>
<trkpt lat="39.708433" lon="2.765748"><ele>433.69</ele><time>2009-09-12T10:36:18Z</time></trkpt>
<trkpt lat="39.708410" lon="2.765706"><ele>432.25</ele><time>2009-09-12T10:36:19Z</time></trkpt>
<trkpt lat="39.708294" lon="2.765715"><ele>428.89</ele><time>2009-09-12T10:36:23Z</time></trkpt>
<trkpt lat="39.707977" lon="2.765557"><ele>425.04</ele><time>2009-09-12T10:36:28Z</time></trkpt>
<trkpt lat="39.707852" lon="2.765449"><ele>421.68</ele><time>2009-09-12T10:36:30Z</time></trkpt>
<trkpt lat="39.707665" lon="2.765264"><ele>416.87</ele><time>2009-09-12T10:36:33Z</time></trkpt>
<trkpt lat="39.707506" lon="2.765132"><ele>413.50</ele><time>2009-09-12T10:36:36Z</time></trkpt>
<trkpt lat="39.707420" lon="2.765048"><ele>411.10</ele><time>2009-09-12T10:36:38Z</time></trkpt>
<trkpt lat="39.707253" lon="2.764981"><ele>407.26</ele><time>2009-09-12T10:36:42Z</time></trkpt>
<trkpt lat="39.707208" lon="2.764964"><ele>405.81</ele><time>2009-09-12T10:36:43Z</time></trkpt>
<trkpt lat="39.707090" lon="2.764863"><ele>403.89</ele><time>2009-09-12T10:36:48Z</time></trkpt>
<trkpt lat="39.707079" lon="2.764847"><ele>403.41</ele><time>2009-09-12T10:37:11Z</time></trkpt>
<trkpt lat="39.706895" lon="2.764766"><ele>401.49</ele><time>2009-09-12T10:37:18Z</time></trkpt>
<trkpt lat="39.706741" lon="2.764717"><ele>400.53</ele><time>2009-09-12T10:37:23Z</time></trkpt>
<trkpt lat="39.706687" lon="2.764735"><ele>401.01</ele><time>2009-09-12T10:37:26Z</time></trkpt>
<trkpt lat="39.706599" lon="2.764694"><ele>401.01</ele><time>2009-09-12T10:37:32Z</time></trkpt>
<trkpt lat="39.706452" lon="2.764553"><ele>400.53</ele><time>2009-09-12T10:37:38Z</time></trkpt>
<trkpt lat="39.706387" lon="2.764501"><ele>400.53</ele><time>2009-09-12T10:37:41Z</time></trkpt>
<trkpt lat="39.706278" lon="2.764219"><ele>397.16</ele><time>2009-09-12T10:37:47Z</time></trkpt>
<trkpt lat="39.706242" lon="2.764082"><ele>395.24</ele><time>2009-09-12T10:37:50Z</time></trkpt>
<trkpt lat="39.706194" lon="2.763826"><ele>393.80</ele><time>2009-09-12T10:37:55Z</time></trkpt>
<trkpt lat="39.706139" lon="2.763550"><ele>393.32</ele><time>2009-09-12T10:38:00Z</time></trkpt>
<trkpt lat="39.706018" lon="2.763347"><ele>392.84</ele><time>2009-09-12T10:38:06Z</time></trkpt>
<trkpt lat="39.705959" lon="2.763218"><ele>391.87</ele><time>2009-09-12T10:38:09Z</time></trkpt>
<trkpt lat="39.705990" lon="2.763112"><ele>390.43</ele><time>2009-09-12T10:38:15Z</time></trkpt>
<trkpt lat="39.705972" lon="2.763077"><ele>389.95</ele><time>2009-09-12T10:38:25Z</time></trkpt>
<trkpt lat="39.705951" lon="2.763008"><ele>387.55</ele><time>2009-09-12T10:38:44Z</time></trkpt>
<trkpt lat="39.705929" lon="2.762985"><ele>386.59</ele><time>2009-09-12T10:38:48Z</time></trkpt>
<trkpt lat="39.705897" lon="2.762905"><ele>385.63</ele><time>2009-09-12T10:38:53Z</time></trkpt>
<trkpt lat="39.705840" lon="2.762840"><ele>383.70</ele><time>2009-09-12T10:38:57Z</time></trkpt>
<trkpt lat="39.705825" lon="2.762732"><ele>381.30</ele><time>2009-09-12T10:39:02Z</time></trkpt>
<trkpt lat="39.705838" lon="2.762702"><ele>380.34</ele><time>2009-09-12T10:39:04Z</time></trkpt>
<trkpt lat="39.705909" lon="2.762640"><ele>378.42</ele><time>2009-09-12T10:39:09Z</time></trkpt>
<trkpt lat="39.705916" lon="2.762437"><ele>375.05</ele><time>2009-09-12T10:39:15Z</time></trkpt>
<trkpt lat="39.705877" lon="2.762385"><ele>375.53</ele><time>2009-09-12T10:39:21Z</time></trkpt>
<trkpt lat="39.705724" lon="2.762315"><ele>375.05</ele><time>2009-09-12T10:39:27Z</time></trkpt>
<trkpt lat="39.705545" lon="2.762204"><ele>374.09</ele><time>2009-09-12T10:39:32Z</time></trkpt>
<trkpt lat="39.705471" lon="2.762190"><ele>373.13</ele><time>2009-09-12T10:39:34Z</time></trkpt>
<trkpt lat="39.705371" lon="2.762209"><ele>372.65</ele><time>2009-09-12T10:39:38Z</time></trkpt>
<trkpt lat="39.705286" lon="2.762230"><ele>371.69</ele><time>2009-09-12T10:39:43Z</time></trkpt>
<trkpt lat="39.705169" lon="2.762265"><ele>372.65</ele><time>2009-09-12T10:39:48Z</time></trkpt>
<trkpt lat="39.705127" lon="2.762355"><ele>374.09</ele><time>2009-09-12T10:39:52Z</time></trkpt>
<trkpt lat="39.704904" lon="2.762314"><ele>370.73</ele><time>2009-09-12T10:39:58Z</time></trkpt>
<trkpt lat="39.704758" lon="2.762392"><ele>369.28</ele><time>2009-09-12T10:40:02Z</time></trkpt>
<trkpt lat="39.704688" lon="2.762417"><ele>368.32</ele><time>2009-09-12T10:40:04Z</time></trkpt>
<trkpt lat="39.704566" lon="2.762403"><ele>366.88</ele><time>2009-09-12T10:40:07Z</time></trkpt>
<trkpt lat="39.704243" lon="2.762351"><ele>367.84</ele><time>2009-09-12T10:40:14Z</time></trkpt>
<trkpt lat="39.704101" lon="2.762255"><ele>367.84</ele><time>2009-09-12T10:40:18Z</time></trkpt>
<trkpt lat="39.704013" lon="2.762176"><ele>367.36</ele><time>2009-09-12T10:40:23Z</time></trkpt>
<trkpt lat="39.703844" lon="2.762069"><ele>368.32</ele><time>2009-09-12T10:40:30Z</time></trkpt>
<trkpt lat="39.703828" lon="2.762025"><ele>367.84</ele><time>2009-09-12T10:40:32Z</time></trkpt>
<trkpt lat="39.703828" lon="2.761985"><ele>366.88</ele><time>2009-09-12T10:40:34Z</time></trkpt>
<trkpt lat="39.703829" lon="2.761919"><ele>365.92</ele><time>2009-09-12T10:40:37Z</time></trkpt>
<trkpt lat="39.703823" lon="2.761858"><ele>364.96</ele><time>2009-09-12T10:40:40Z</time></trkpt>
<trkpt lat="39.703841" lon="2.761759"><ele>363.52</ele><time>2009-09-12T10:40:45Z</time></trkpt>
<trkpt lat="39.703819" lon="2.761698"><ele>363.04</ele><time>2009-09-12T10:40:52Z</time></trkpt>
<trkpt lat="39.703782" lon="2.761663"><ele>362.07</ele><time>2009-09-12T10:41:01Z</time></trkpt>
<trkpt lat="39.703746" lon="2.761618"><ele>359.19</ele><time>2009-09-12T10:41:14Z</time></trkpt>
<trkpt lat="39.703773" lon="2.761488"><ele>357.27</ele><time>2009-09-12T10:41:20Z</time></trkpt>
<trkpt lat="39.703736" lon="2.761405"><ele>355.83</ele><time>2009-09-12T10:41:24Z</time></trkpt>
<trkpt lat="39.703680" lon="2.761292"><ele>352.94</ele><time>2009-09-12T10:41:29Z</time></trkpt>
<trkpt lat="39.703644" lon="2.761213"><ele>350.06</ele><time>2009-09-12T10:41:33Z</time></trkpt>
<trkpt lat="39.703677" lon="2.761168"><ele>348.62</ele><time>2009-09-12T10:41:36Z</time></trkpt>
<trkpt lat="39.703757" lon="2.761114"><ele>345.73</ele><time>2009-09-12T10:41:41Z</time></trkpt>
<trkpt lat="39.703795" lon="2.761105"><ele>344.29</ele><time>2009-09-12T10:41:44Z</time></trkpt>
<trkpt lat="39.703732" lon="2.760959"><ele>341.89</ele><time>2009-09-12T10:41:51Z</time></trkpt>
<trkpt lat="39.703723" lon="2.760932"><ele>341.41</ele><time>2009-09-12T10:41:59Z</time></trkpt>
<trkpt lat="39.703743" lon="2.760925"><ele>340.44</ele><time>2009-09-12T10:42:08Z</time></trkpt>
<trkpt lat="39.703769" lon="2.760914"><ele>339.96</ele><time>2009-09-12T10:42:10Z</time></trkpt>
<trkpt lat="39.703844" lon="2.760920"><ele>338.52</ele><time>2009-09-12T10:42:14Z</time></trkpt>
<trkpt lat="39.703963" lon="2.761008"><ele>336.12</ele><time>2009-09-12T10:42:21Z</time></trkpt>
<trkpt lat="39.704008" lon="2.761057"><ele>334.20</ele><time>2009-09-12T10:42:24Z</time></trkpt>
<trkpt lat="39.704052" lon="2.761107"><ele>332.27</ele><time>2009-09-12T10:42:28Z</time></trkpt>
<trkpt lat="39.704070" lon="2.761175"><ele>330.35</ele><time>2009-09-12T10:42:31Z</time></trkpt>
<trkpt lat="39.704103" lon="2.761270"><ele>327.95</ele><time>2009-09-12T10:42:36Z</time></trkpt>
<trkpt lat="39.704105" lon="2.761286"><ele>327.47</ele><time>2009-09-12T10:42:37Z</time></trkpt>
<trkpt lat="39.704148" lon="2.761313"><ele>326.99</ele><time>2009-09-12T10:42:43Z</time></trkpt>
<trkpt lat="39.704199" lon="2.761279"><ele>325.54</ele><time>2009-09-12T10:42:50Z</time></trkpt>
<trkpt lat="39.704205" lon="2.761244"><ele>325.06</ele><time>2009-09-12T10:42:57Z</time></trkpt>
<trkpt lat="39.704234" lon="2.761157"><ele>323.14</ele><time>2009-09-12T10:43:07Z</time></trkpt>
<trkpt lat="39.704241" lon="2.761127"><ele>322.66</ele><time>2009-09-12T10:43:10Z</time></trkpt>
<trkpt lat="39.704258" lon="2.761134"><ele>321.22</ele><time>2009-09-12T10:43:17Z</time></trkpt>
<trkpt lat="39.704275" lon="2.761156"><ele>320.26</ele><time>2009-09-12T10:43:22Z</time></trkpt>
<trkpt lat="39.704337" lon="2.761230"><ele>316.41</ele><time>2009-09-12T10:43:27Z</time></trkpt>
<trkpt lat="39.704383" lon="2.761250"><ele>314.97</ele><time>2009-09-12T10:43:30Z</time></trkpt>
<trkpt lat="39.704420" lon="2.761198"><ele>313.05</ele><time>2009-09-12T10:43:33Z</time></trkpt>
<trkpt lat="39.704443" lon="2.761191"><ele>312.57</ele><time>2009-09-12T10:43:35Z</time></trkpt>
<trkpt lat="39.704464" lon="2.761191"><ele>312.09</ele><time>2009-09-12T10:43:42Z</time></trkpt>
<trkpt lat="39.704505" lon="2.761135"><ele>310.16</ele><time>2009-09-12T10:43:51Z</time></trkpt>
<trkpt lat="39.704512" lon="2.761132"><ele>309.68</ele><time>2009-09-12T10:43:52Z</time></trkpt>
<trkpt lat="39.704559" lon="2.761075"><ele>307.76</ele><time>2009-09-12T10:44:02Z</time></trkpt>
<trkpt lat="39.704567" lon="2.761057"><ele>306.80</ele><time>2009-09-12T10:44:04Z</time></trkpt>
<trkpt lat="39.704608" lon="2.760961"><ele>305.36</ele><time>2009-09-12T10:44:10Z</time></trkpt>
<trkpt lat="39.704741" lon="2.760786"><ele>302.95</ele><time>2009-09-12T10:44:15Z</time></trkpt>
<trkpt lat="39.704904" lon="2.760571"><ele>298.63</ele><time>2009-09-12T10:44:20Z</time></trkpt>
<trkpt lat="39.704978" lon="2.760470"><ele>295.74</ele><time>2009-09-12T10:44:22Z</time></trkpt>
<trkpt lat="39.705136" lon="2.760424"><ele>291.42</ele><time>2009-09-12T10:44:27Z</time></trkpt>
<trkpt lat="39.705128" lon="2.760362"><ele>289.49</ele><time>2009-09-12T10:44:30Z</time></trkpt>
<trkpt lat="39.704990" lon="2.760209"><ele>285.65</ele><time>2009-09-12T10:44:35Z</time></trkpt>
<trkpt lat="39.704975" lon="2.760185"><ele>284.69</ele><time>2009-09-12T10:44:36Z</time></trkpt>
<trkpt lat="39.705036" lon="2.760078"><ele>280.36</ele><time>2009-09-12T10:44:40Z</time></trkpt>
<trkpt lat="39.705070" lon="2.760082"><ele>279.88</ele><time>2009-09-12T10:44:41Z</time></trkpt>
<trkpt lat="39.705318" lon="2.760029"><ele>273.63</ele><time>2009-09-12T10:44:46Z</time></trkpt>
<trkpt lat="39.705380" lon="2.760015"><ele>272.67</ele><time>2009-09-12T10:44:47Z</time></trkpt>
<trkpt lat="39.705549" lon="2.759923"><ele>270.27</ele><time>2009-09-12T10:44:50Z</time></trkpt>
<trkpt lat="39.705795" lon="2.759832"><ele>266.90</ele><time>2009-09-12T10:44:53Z</time></trkpt>
<trkpt lat="39.705866" lon="2.759812"><ele>266.42</ele><time>2009-09-12T10:44:54Z</time></trkpt>
<trkpt lat="39.706084" lon="2.759780"><ele>263.54</ele><time>2009-09-12T10:44:58Z</time></trkpt>
<trkpt lat="39.706129" lon="2.759706"><ele>261.62</ele><time>2009-09-12T10:45:02Z</time></trkpt>
<trkpt lat="39.706112" lon="2.759660"><ele>261.14</ele><time>2009-09-12T10:45:04Z</time></trkpt>
<trkpt lat="39.706118" lon="2.759650"><ele>260.65</ele><time>2009-09-12T10:45:10Z</time></trkpt>
<trkpt lat="39.706037" lon="2.759580"><ele>259.69</ele><time>2009-09-12T10:45:18Z</time></trkpt>
<trkpt lat="39.705876" lon="2.759519"><ele>258.25</ele><time>2009-09-12T10:45:21Z</time></trkpt>
<trkpt lat="39.705637" lon="2.759366"><ele>254.89</ele><time>2009-09-12T10:45:25Z</time></trkpt>
<trkpt lat="39.705330" lon="2.759243"><ele>250.08</ele><time>2009-09-12T10:45:29Z</time></trkpt>
<trkpt lat="39.705164" lon="2.759175"><ele>247.20</ele><time>2009-09-12T10:45:31Z</time></trkpt>
<trkpt lat="39.704967" lon="2.758991"><ele>244.31</ele><time>2009-09-12T10:45:34Z</time></trkpt>
<trkpt lat="39.704731" lon="2.758828"><ele>241.43</ele><time>2009-09-12T10:45:37Z</time></trkpt>
<trkpt lat="39.704515" lon="2.758646"><ele>238.06</ele><time>2009-09-12T10:45:40Z</time></trkpt>
<trkpt lat="39.704302" lon="2.758442"><ele>234.70</ele><time>2009-09-12T10:45:43Z</time></trkpt>
<trkpt lat="39.704115" lon="2.758223"><ele>231.33</ele><time>2009-09-12T10:45:46Z</time></trkpt>
<trkpt lat="39.703922" lon="2.758082"><ele>228.45</ele><time>2009-09-12T10:45:49Z</time></trkpt>
<trkpt lat="39.703767" lon="2.757839"><ele>227.01</ele><time>2009-09-12T10:45:52Z</time></trkpt>
<trkpt lat="39.703605" lon="2.757439"><ele>227.01</ele><time>2009-09-12T10:45:58Z</time></trkpt>
<trkpt lat="39.703600" lon="2.757389"><ele>227.01</ele><time>2009-09-12T10:46:01Z</time></trkpt>
<trkpt lat="39.703600" lon="2.757280"><ele>227.01</ele><time>2009-09-12T10:46:06Z</time></trkpt>
<trkpt lat="39.703619" lon="2.757059"><ele>226.53</ele><time>2009-09-12T10:46:10Z</time></trkpt>
<trkpt lat="39.703740" lon="2.756680"><ele>224.61</ele><time>2009-09-12T10:46:15Z</time></trkpt>
<trkpt lat="39.703788" lon="2.756611"><ele>224.12</ele><time>2009-09-12T10:46:16Z</time></trkpt>
<trkpt lat="39.703943" lon="2.756357"><ele>224.12</ele><time>2009-09-12T10:46:20Z</time></trkpt>
<trkpt lat="39.704293" lon="2.756039"><ele>223.64</ele><time>2009-09-12T10:46:28Z</time></trkpt>
<trkpt lat="39.704469" lon="2.755761"><ele>219.80</ele><time>2009-09-12T10:46:33Z</time></trkpt>
<trkpt lat="39.704568" lon="2.755440"><ele>215.95</ele><time>2009-09-12T10:46:38Z</time></trkpt>
<trkpt lat="39.704645" lon="2.755285"><ele>216.43</ele><time>2009-09-12T10:46:42Z</time></trkpt>
<trkpt lat="39.704710" lon="2.755089"><ele>216.43</ele><time>2009-09-12T10:46:47Z</time></trkpt>
<trkpt lat="39.704674" lon="2.754954"><ele>217.40</ele><time>2009-09-12T10:46:52Z</time></trkpt>
<trkpt lat="39.704667" lon="2.754977"><ele>217.40</ele><time>2009-09-12T10:47:28Z</time></trkpt>
<trkpt lat="39.704654" lon="2.754987"><ele>217.40</ele><time>2009-09-12T10:47:32Z</time></trkpt>
<trkpt lat="39.704645" lon="2.755056"><ele>217.88</ele><time>2009-09-12T10:47:36Z</time></trkpt>
<trkpt lat="39.704539" lon="2.755213"><ele>219.80</ele><time>2009-09-12T10:47:46Z</time></trkpt>
<trkpt lat="39.704527" lon="2.755222"><ele>219.80</ele><time>2009-09-12T10:47:47Z</time></trkpt>
<trkpt lat="39.704417" lon="2.755326"><ele>219.80</ele><time>2009-09-12T10:47:53Z</time></trkpt>
<trkpt lat="39.704261" lon="2.755447"><ele>217.88</ele><time>2009-09-12T10:47:58Z</time></trkpt>
<trkpt lat="39.704069" lon="2.755599"><ele>217.40</ele><time>2009-09-12T10:48:03Z</time></trkpt>
<trkpt lat="39.703896" lon="2.755722"><ele>216.91</ele><time>2009-09-12T10:48:08Z</time></trkpt>
<trkpt lat="39.703823" lon="2.755789"><ele>216.43</ele><time>2009-09-12T10:48:10Z</time></trkpt>
<trkpt lat="39.703707" lon="2.755905"><ele>215.95</ele><time>2009-09-12T10:48:13Z</time></trkpt>
<trkpt lat="39.703583" lon="2.756034"><ele>214.99</ele><time>2009-09-12T10:48:16Z</time></trkpt>
<trkpt lat="39.703288" lon="2.756140"><ele>214.51</ele><time>2009-09-12T10:48:21Z</time></trkpt>
<trkpt lat="39.702976" lon="2.756368"><ele>213.55</ele><time>2009-09-12T10:48:27Z</time></trkpt>
<trkpt lat="39.702858" lon="2.756431"><ele>213.07</ele><time>2009-09-12T10:48:29Z</time></trkpt>
<trkpt lat="39.702695" lon="2.756509"><ele>213.07</ele><time>2009-09-12T10:48:32Z</time></trkpt>
<trkpt lat="39.702319" lon="2.756544"><ele>212.11</ele><time>2009-09-12T10:48:39Z</time></trkpt>
<trkpt lat="39.702197" lon="2.756563"><ele>211.63</ele><time>2009-09-12T10:48:41Z</time></trkpt>
<trkpt lat="39.702019" lon="2.756573"><ele>212.11</ele><time>2009-09-12T10:48:44Z</time></trkpt>
<trkpt lat="39.701579" lon="2.756857"><ele>210.67</ele><time>2009-09-12T10:48:52Z</time></trkpt>
<trkpt lat="39.701486" lon="2.756970"><ele>210.19</ele><time>2009-09-12T10:48:54Z</time></trkpt>
<trkpt lat="39.701174" lon="2.757159"><ele>209.22</ele><time>2009-09-12T10:48:59Z</time></trkpt>
<trkpt lat="39.700878" lon="2.757343"><ele>208.74</ele><time>2009-09-12T10:49:04Z</time></trkpt>
<trkpt lat="39.700645" lon="2.757525"><ele>208.26</ele><time>2009-09-12T10:49:08Z</time></trkpt>
<trkpt lat="39.700496" lon="2.757675"><ele>208.26</ele><time>2009-09-12T10:49:11Z</time></trkpt>
<trkpt lat="39.700393" lon="2.757879"><ele>207.30</ele><time>2009-09-12T10:49:14Z</time></trkpt>
<trkpt lat="39.700321" lon="2.758091"><ele>207.30</ele><time>2009-09-12T10:49:17Z</time></trkpt>
<trkpt lat="39.700141" lon="2.758416"><ele>206.82</ele><time>2009-09-12T10:49:22Z</time></trkpt>
<trkpt lat="39.699946" lon="2.758805"><ele>205.86</ele><time>2009-09-12T10:49:28Z</time></trkpt>
<trkpt lat="39.699672" lon="2.759090"><ele>204.90</ele><time>2009-09-12T10:49:33Z</time></trkpt>
<trkpt lat="39.699430" lon="2.759258"><ele>203.94</ele><time>2009-09-12T10:49:37Z</time></trkpt>
<trkpt lat="39.699251" lon="2.759333"><ele>203.46</ele><time>2009-09-12T10:49:40Z</time></trkpt>
<trkpt lat="39.699008" lon="2.759258"><ele>202.98</ele><time>2009-09-12T10:49:44Z</time></trkpt>
<trkpt lat="39.698821" lon="2.759086"><ele>201.53</ele><time>2009-09-12T10:49:48Z</time></trkpt>
<trkpt lat="39.698485" lon="2.758949"><ele>202.01</ele><time>2009-09-12T10:49:54Z</time></trkpt>
<trkpt lat="39.698443" lon="2.758935"><ele>202.01</ele><time>2009-09-12T10:49:55Z</time></trkpt>
<trkpt lat="39.698260" lon="2.758913"><ele>203.46</ele><time>2009-09-12T10:49:59Z</time></trkpt>
<trkpt lat="39.698090" lon="2.758933"><ele>202.49</ele><time>2009-09-12T10:50:03Z</time></trkpt>
<trkpt lat="39.697757" lon="2.758884"><ele>200.09</ele><time>2009-09-12T10:50:09Z</time></trkpt>
<trkpt lat="39.697345" lon="2.758815"><ele>198.17</ele><time>2009-09-12T10:50:15Z</time></trkpt>
<trkpt lat="39.696963" lon="2.758744"><ele>197.21</ele><time>2009-09-12T10:50:21Z</time></trkpt>
<trkpt lat="39.696647" lon="2.758696"><ele>196.73</ele><time>2009-09-12T10:50:27Z</time></trkpt>
<trkpt lat="39.696352" lon="2.758556"><ele>195.77</ele><time>2009-09-12T10:50:32Z</time></trkpt>
<trkpt lat="39.695996" lon="2.758256"><ele>195.77</ele><time>2009-09-12T10:50:39Z</time></trkpt>
<trkpt lat="39.695961" lon="2.758211"><ele>195.77</ele><time>2009-09-12T10:50:40Z</time></trkpt>
<trkpt lat="39.695858" lon="2.757869"><ele>194.32</ele><time>2009-09-12T10:50:45Z</time></trkpt>
<trkpt lat="39.695844" lon="2.757789"><ele>193.84</ele><time>2009-09-12T10:50:46Z</time></trkpt>
<trkpt lat="39.695822" lon="2.757628"><ele>193.36</ele><time>2009-09-12T10:50:48Z</time></trkpt>
<trkpt lat="39.695702" lon="2.757200"><ele>192.40</ele><time>2009-09-12T10:50:54Z</time></trkpt>
<trkpt lat="39.695356" lon="2.756612"><ele>192.88</ele><time>2009-09-12T10:51:03Z</time></trkpt>
<trkpt lat="39.695220" lon="2.756376"><ele>191.92</ele><time>2009-09-12T10:51:07Z</time></trkpt>
<trkpt lat="39.694938" lon="2.756229"><ele>190.00</ele><time>2009-09-12T10:51:12Z</time></trkpt>
<trkpt lat="39.694738" lon="2.756286"><ele>189.04</ele><time>2009-09-12T10:51:15Z</time></trkpt>
<trkpt lat="39.694545" lon="2.756348"><ele>188.08</ele><time>2009-09-12T10:51:18Z</time></trkpt>
<trkpt lat="39.694166" lon="2.756530"><ele>187.11</ele><time>2009-09-12T10:51:24Z</time></trkpt>
<trkpt lat="39.693686" lon="2.756791"><ele>185.19</ele><time>2009-09-12T10:51:31Z</time></trkpt>
<trkpt lat="39.693181" lon="2.756987"><ele>184.23</ele><time>2009-09-12T10:51:38Z</time></trkpt>
<trkpt lat="39.692491" lon="2.757117"><ele>183.75</ele><time>2009-09-12T10:51:47Z</time></trkpt>
<trkpt lat="39.692062" lon="2.757188"><ele>183.27</ele><time>2009-09-12T10:51:54Z</time></trkpt>
<trkpt lat="39.691671" lon="2.757304"><ele>183.27</ele><time>2009-09-12T10:52:01Z</time></trkpt>
<trkpt lat="39.691609" lon="2.757322"><ele>182.79</ele><time>2009-09-12T10:52:02Z</time></trkpt>
<trkpt lat="39.691399" lon="2.757451"><ele>183.27</ele><time>2009-09-12T10:52:06Z</time></trkpt>
<trkpt lat="39.691230" lon="2.757535"><ele>183.27</ele><time>2009-09-12T10:52:09Z</time></trkpt>
<trkpt lat="39.690725" lon="2.757908"><ele>183.75</ele><time>2009-09-12T10:52:18Z</time></trkpt>
<trkpt lat="39.690676" lon="2.757942"><ele>183.75</ele><time>2009-09-12T10:52:19Z</time></trkpt>
<trkpt lat="39.690179" lon="2.758263"><ele>183.75</ele><time>2009-09-12T10:52:29Z</time></trkpt>
<trkpt lat="39.689874" lon="2.758441"><ele>183.75</ele><time>2009-09-12T10:52:37Z</time></trkpt>
<trkpt lat="39.689851" lon="2.758443"><ele>183.75</ele><time>2009-09-12T10:52:44Z</time></trkpt>
<trkpt lat="39.689810" lon="2.758434"><ele>183.27</ele><time>2009-09-12T10:52:59Z</time></trkpt>
<trkpt lat="39.689790" lon="2.758476"><ele>183.75</ele><time>2009-09-12T10:53:08Z</time></trkpt>
<trkpt lat="39.689666" lon="2.758546"><ele>183.75</ele><time>2009-09-12T10:53:17Z</time></trkpt>
<trkpt lat="39.689637" lon="2.758556"><ele>183.75</ele><time>2009-09-12T10:53:18Z</time></trkpt>
<trkpt lat="39.689312" lon="2.758843"><ele>183.75</ele><time>2009-09-12T10:53:29Z</time></trkpt>
<trkpt lat="39.689151" lon="2.758932"><ele>183.27</ele><time>2009-09-12T10:53:33Z</time></trkpt>
<trkpt lat="39.688663" lon="2.759331"><ele>182.31</ele><time>2009-09-12T10:53:45Z</time></trkpt>
<trkpt lat="39.688535" lon="2.759436"><ele>182.31</ele><time>2009-09-12T10:53:48Z</time></trkpt>
<trkpt lat="39.688255" lon="2.759873"><ele>181.35</ele><time>2009-09-12T10:53:56Z</time></trkpt>
<trkpt lat="39.688036" lon="2.760228"><ele>181.83</ele><time>2009-09-12T10:54:04Z</time></trkpt>
<trkpt lat="39.687933" lon="2.760582"><ele>182.79</ele><time>2009-09-12T10:54:11Z</time></trkpt>
<trkpt lat="39.687851" lon="2.760892"><ele>183.75</ele><time>2009-09-12T10:54:18Z</time></trkpt>
<trkpt lat="39.687789" lon="2.761021"><ele>184.23</ele><time>2009-09-12T10:54:21Z</time></trkpt>
<trkpt lat="39.687546" lon="2.761446"><ele>183.75</ele><time>2009-09-12T10:54:30Z</time></trkpt>
<trkpt lat="39.687327" lon="2.761766"><ele>184.23</ele><time>2009-09-12T10:54:36Z</time></trkpt>
<trkpt lat="39.686998" lon="2.761870"><ele>184.71</ele><time>2009-09-12T10:54:42Z</time></trkpt>
<trkpt lat="39.686546" lon="2.761933"><ele>186.15</ele><time>2009-09-12T10:54:51Z</time></trkpt>
<trkpt lat="39.686348" lon="2.761996"><ele>184.71</ele><time>2009-09-12T10:54:55Z</time></trkpt>
<trkpt lat="39.685846" lon="2.762111"><ele>181.35</ele><time>2009-09-12T10:55:02Z</time></trkpt>
<trkpt lat="39.685775" lon="2.762141"><ele>180.87</ele><time>2009-09-12T10:55:03Z</time></trkpt>
<trkpt lat="39.685248" lon="2.762424"><ele>177.50</ele><time>2009-09-12T10:55:10Z</time></trkpt>
<trkpt lat="39.685082" lon="2.762512"><ele>176.54</ele><time>2009-09-12T10:55:12Z</time></trkpt>
<trkpt lat="39.684622" lon="2.762720"><ele>174.14</ele><time>2009-09-12T10:55:17Z</time></trkpt>
<trkpt lat="39.684356" lon="2.762895"><ele>172.69</ele><time>2009-09-12T10:55:20Z</time></trkpt>
<trkpt lat="39.683773" lon="2.763286"><ele>169.81</ele><time>2009-09-12T10:55:27Z</time></trkpt>
<trkpt lat="39.683302" lon="2.763329"><ele>168.85</ele><time>2009-09-12T10:55:32Z</time></trkpt>
<trkpt lat="39.683150" lon="2.763214"><ele>168.85</ele><time>2009-09-12T10:55:34Z</time></trkpt>
<trkpt lat="39.682652" lon="2.762726"><ele>167.89</ele><time>2009-09-12T10:55:42Z</time></trkpt>
<trkpt lat="39.682274" lon="2.762371"><ele>166.93</ele><time>2009-09-12T10:55:49Z</time></trkpt>
<trkpt lat="39.681958" lon="2.762187"><ele>165.96</ele><time>2009-09-12T10:55:55Z</time></trkpt>
<trkpt lat="39.681722" lon="2.762146"><ele>165.48</ele><time>2009-09-12T10:55:59Z</time></trkpt>
<trkpt lat="39.681466" lon="2.762165"><ele>165.00</ele><time>2009-09-12T10:56:03Z</time></trkpt>
<trkpt lat="39.681188" lon="2.762310"><ele>163.56</ele><time>2009-09-12T10:56:07Z</time></trkpt>
<trkpt lat="39.680583" lon="2.762847"><ele>160.68</ele><time>2009-09-12T10:56:16Z</time></trkpt>
<trkpt lat="39.680038" lon="2.763280"><ele>158.75</ele><time>2009-09-12T10:56:24Z</time></trkpt>
<trkpt lat="39.679822" lon="2.763447"><ele>158.75</ele><time>2009-09-12T10:56:27Z</time></trkpt>
<trkpt lat="39.679243" lon="2.763627"><ele>157.31</ele><time>2009-09-12T10:56:34Z</time></trkpt>
<trkpt lat="39.678660" lon="2.763670"><ele>154.91</ele><time>2009-09-12T10:56:41Z</time></trkpt>
<trkpt lat="39.678504" lon="2.763680"><ele>154.43</ele><time>2009-09-12T10:56:43Z</time></trkpt>
<trkpt lat="39.678226" lon="2.763543"><ele>154.43</ele><time>2009-09-12T10:56:47Z</time></trkpt>
<trkpt lat="39.677940" lon="2.763524"><ele>153.95</ele><time>2009-09-12T10:56:51Z</time></trkpt>
<trkpt lat="39.677873" lon="2.763554"><ele>153.47</ele><time>2009-09-12T10:56:52Z</time></trkpt>
<trkpt lat="39.677106" lon="2.763886"><ele>152.99</ele><time>2009-09-12T10:57:04Z</time></trkpt>
<trkpt lat="39.676600" lon="2.764040"><ele>152.51</ele><time>2009-09-12T10:57:13Z</time></trkpt>
<trkpt lat="39.676300" lon="2.764096"><ele>152.03</ele><time>2009-09-12T10:57:19Z</time></trkpt>
<trkpt lat="39.675937" lon="2.764066"><ele>152.51</ele><time>2009-09-12T10:57:27Z</time></trkpt>
<trkpt lat="39.675636" lon="2.764124"><ele>152.03</ele><time>2009-09-12T10:57:36Z</time></trkpt>
<trkpt lat="39.675328" lon="2.764198"><ele>152.99</ele><time>2009-09-12T10:57:47Z</time></trkpt>
<trkpt lat="39.675003" lon="2.764286"><ele>152.99</ele><time>2009-09-12T10:57:59Z</time></trkpt>
<trkpt lat="39.674933" lon="2.764338"><ele>152.99</ele><time>2009-09-12T10:58:04Z</time></trkpt>
<trkpt lat="39.674931" lon="2.764345"><ele>152.51</ele><time>2009-09-12T10:58:59Z</time></trkpt>
<trkpt lat="39.674923" lon="2.764339"><ele>152.99</ele><time>2009-09-12T10:59:23Z</time></trkpt>
<trkpt lat="39.675021" lon="2.764305"><ele>152.51</ele><time>2009-09-12T10:59:29Z</time></trkpt>
<trkpt lat="39.675228" lon="2.764273"><ele>152.51</ele><time>2009-09-12T10:59:38Z</time></trkpt>
<trkpt lat="39.675488" lon="2.764205"><ele>152.51</ele><time>2009-09-12T10:59:49Z</time></trkpt>
<trkpt lat="39.675588" lon="2.764148"><ele>152.51</ele><time>2009-09-12T10:59:56Z</time></trkpt>
<trkpt lat="39.675589" lon="2.764151"><ele>152.51</ele><time>2009-09-12T10:59:57Z</time></trkpt>
<trkpt lat="39.675657" lon="2.764169"><ele>152.51</ele><time>2009-09-12T11:00:03Z</time></trkpt>
<trkpt lat="39.675721" lon="2.764165"><ele>152.51</ele><time>2009-09-12T11:00:11Z</time></trkpt>
<trkpt lat="39.675680" lon="2.764143"><ele>152.51</ele><time>2009-09-12T11:00:15Z</time></trkpt>
<trkpt lat="39.675324" lon="2.764209"><ele>152.99</ele><time>2009-09-12T11:00:28Z</time></trkpt>
<trkpt lat="39.674995" lon="2.764295"><ele>152.99</ele><time>2009-09-12T11:00:38Z</time></trkpt>
<trkpt lat="39.674674" lon="2.764361"><ele>152.99</ele><time>2009-09-12T11:00:47Z</time></trkpt>
<trkpt lat="39.674293" lon="2.764406"><ele>152.99</ele><time>2009-09-12T11:00:57Z</time></trkpt>
<trkpt lat="39.673999" lon="2.764470"><ele>152.51</ele><time>2009-09-12T11:01:03Z</time></trkpt>
<trkpt lat="39.673744" lon="2.764660"><ele>152.99</ele><time>2009-09-12T11:01:07Z</time></trkpt>
<trkpt lat="39.673435" lon="2.764998"><ele>152.99</ele><time>2009-09-12T11:01:12Z</time></trkpt>
<trkpt lat="39.673047" lon="2.765141"><ele>153.47</ele><time>2009-09-12T11:01:17Z</time></trkpt>
<trkpt lat="39.672568" lon="2.765264"><ele>153.47</ele><time>2009-09-12T11:01:23Z</time></trkpt>
<trkpt lat="39.671860" lon="2.765337"><ele>152.99</ele><time>2009-09-12T11:01:32Z</time></trkpt>
<trkpt lat="39.671287" lon="2.765409"><ele>152.51</ele><time>2009-09-12T11:01:41Z</time></trkpt>
<trkpt lat="39.670568" lon="2.765508"><ele>152.99</ele><time>2009-09-12T11:01:53Z</time></trkpt>
<trkpt lat="39.670343" lon="2.765455"><ele>152.99</ele><time>2009-09-12T11:01:57Z</time></trkpt>
<trkpt lat="39.669788" lon="2.765159"><ele>152.99</ele><time>2009-09-12T11:02:07Z</time></trkpt>
<trkpt lat="39.669527" lon="2.765181"><ele>152.99</ele><time>2009-09-12T11:02:11Z</time></trkpt>
<trkpt lat="39.669091" lon="2.765463"><ele>151.54</ele><time>2009-09-12T11:02:18Z</time></trkpt>
<trkpt lat="39.668375" lon="2.765952"><ele>150.10</ele><time>2009-09-12T11:02:29Z</time></trkpt>
<trkpt lat="39.667734" lon="2.766366"><ele>148.66</ele><time>2009-09-12T11:02:38Z</time></trkpt>
<trkpt lat="39.667667" lon="2.766417"><ele>148.66</ele><time>2009-09-12T11:02:39Z</time></trkpt>
<trkpt lat="39.667059" lon="2.766866"><ele>147.22</ele><time>2009-09-12T11:02:48Z</time></trkpt>
<trkpt lat="39.666203" lon="2.767370"><ele>145.78</ele><time>2009-09-12T11:03:00Z</time></trkpt>
<trkpt lat="39.665486" lon="2.767728"><ele>145.30</ele><time>2009-09-12T11:03:09Z</time></trkpt>
<trkpt lat="39.665235" lon="2.767866"><ele>144.34</ele><time>2009-09-12T11:03:12Z</time></trkpt>
<trkpt lat="39.664577" lon="2.768365"><ele>142.89</ele><time>2009-09-12T11:03:20Z</time></trkpt>
<trkpt lat="39.663925" lon="2.768676"><ele>141.93</ele><time>2009-09-12T11:03:27Z</time></trkpt>
<trkpt lat="39.663277" lon="2.768922"><ele>140.49</ele><time>2009-09-12T11:03:33Z</time></trkpt>
<trkpt lat="39.662831" lon="2.769120"><ele>139.05</ele><time>2009-09-12T11:03:37Z</time></trkpt>
<trkpt lat="39.661996" lon="2.769318"><ele>137.61</ele><time>2009-09-12T11:03:44Z</time></trkpt>
<trkpt lat="39.661351" lon="2.769536"><ele>137.61</ele><time>2009-09-12T11:03:50Z</time></trkpt>
<trkpt lat="39.660822" lon="2.769695"><ele>138.09</ele><time>2009-09-12T11:03:56Z</time></trkpt>
<trkpt lat="39.660556" lon="2.769815"><ele>137.13</ele><time>2009-09-12T11:04:00Z</time></trkpt>
<trkpt lat="39.660399" lon="2.769780"><ele>136.64</ele><time>2009-09-12T11:04:05Z</time></trkpt>
<trkpt lat="39.660378" lon="2.769754"><ele>136.64</ele><time>2009-09-12T11:04:06Z</time></trkpt>
<trkpt lat="39.660314" lon="2.769632"><ele>136.16</ele><time>2009-09-12T11:04:10Z</time></trkpt>
<trkpt lat="39.660295" lon="2.769610"><ele>136.16</ele><time>2009-09-12T11:04:17Z</time></trkpt>
<trkpt lat="39.660295" lon="2.769609"><ele>136.16</ele><time>2009-09-12T11:04:24Z</time></trkpt>
</trkseg></trk></gpx>